PWSweather.com
Personal Weather Stations
Station Observations
GHWX1
Golden Heights, Sturgeon County, AB T0A1N5

Golden HeightsSturgeon County, AB T0A1N5

Lat: 53.919, Lon: -113.37

Elevation: 2159

Station Type:

http://www.ghwx.ca

High Low Average
Temperature 17.9°F-7.8°C -7.4°F-21.9°C 5.5°F-14.7°C
Dew Point 8.4°F-13.1°C -9.6°F-23.1°C 0.3°F-17.6°C
Winds 12.0 mph 19.3 kmh Calm Calm 4.0 mph SSE6.4 kmh SSE
Wind Gusts -- -- --
Humidity 91% 60% 80%
Pressure 29.91 in1012.9 mb 29.72 in1006.4 mb -
Precipitation 0.00 in0.0 mm - -
Hour Temp Dew Point Humidity Winds Wind Gusts Pressure Precip Precip Rate Daily Precip Total
12:00 AM 1.7°F-16.8°C -1.0°F-18.3°C 88% 9.0 mph SE14.5 kmh SE -- 29.93 in1013.5 mb 0.00 in0.0 mm 0.00 in0.0 mm 0.00 in0.0 mm
12:01 AM 1.7°F-16.8°C -1.0°F-18.3°C 88% 7.0 mph ESE11.3 kmh ESE -- 29.93 in1013.5 mb 0.00 in0.0 mm 0.00 in0.0 mm 0.00 in0.0 mm
12:02 AM 1.7°F-16.8°C -1.0°F-18.3°C 88% 5.0 mph SSE8.0 kmh SSE -- 29.93 in1013.5 mb 0.00 in0.0 mm 0.00 in0.0 mm 0.00 in0.0 mm
12:03 AM 1.7°F-16.8°C -1.0°F-18.3°C 88% 8.0 mph ESE12.9 kmh ESE -- 29.93 in1013.5 mb 0.00 in0.0 mm 0.00 in0.0 mm 0.00 in0.0 mm
12:04 AM 1.7°F-16.8°C -1.0°F-18.3°C 88% 7.0 mph E11.3 kmh E -- 29.93 in1013.5 mb 0.00 in0.0 mm 0.00 in0.0 mm 0.00 in0.0 mm
12:05 AM 1.7°F-16.8°C -1.0°F-18.3°C 88% 5.0 mph SSE8.0 kmh SSE -- 29.93 in1013.5 mb 0.00 in0.0 mm 0.00 in0.0 mm 0.00 in0.0 mm
12:06 AM 1.7°F-16.8°C -1.0°F-18.3°C 88% 8.0 mph ESE12.9 kmh ESE -- 29.93 in1013.5 mb 0.00 in0.0 mm 0.00 in0.0 mm 0.00 in0.0 mm
12:07 AM 1.7°F-16.8°C -1.0°F-18.3°C 88% 9.0 mph ESE14.5 kmh ESE -- 29.93 in1013.5 mb 0.00 in0.0 mm 0.00 in0.0 mm 0.00 in0.0 mm
12:08 AM 1.7°F-16.8°C -1.0°F-18.3°C 88% 8.0 mph ESE12.9 kmh ESE -- 29.93 in1013.5 mb 0.00 in0.0 mm 0.00 in0.0 mm 0.00 in0.0 mm
12:09 AM 1.7°F-16.8°C -1.0°F-18.3°C 88% 9.0 mph SE14.5 kmh SE -- 29.93 in1013.5 mb 0.00 in0.0 mm 0.00 in0.0 mm 0.00 in0.0 mm
12:10 AM 1.7°F-16.8°C -1.0°F-18.3°C 88% 9.0 mph ESE14.5 kmh ESE -- 29.93 in1013.5 mb 0.00 in0.0 mm 0.00 in0.0 mm 0.00 in0.0 mm
12:11 AM 1.7°F-16.8°C -1.0°F-18.3°C 88% 8.0 mph ESE12.9 kmh ESE -- 29.93 in1013.5 mb 0.00 in0.0 mm 0.00 in0.0 mm 0.00 in0.0 mm
12:12 AM 1.7°F-16.8°C -1.0°F-18.3°C 88% 7.0 mph SSE11.3 kmh SSE -- 29.93 in1013.5 mb 0.00 in0.0 mm 0.00 in0.0 mm 0.00 in0.0 mm
12:13 AM 1.7°F-16.8°C -1.0°F-18.3°C 88% 7.0 mph ESE11.3 kmh ESE -- 29.92 in1013.2 mb 0.00 in0.0 mm 0.00 in0.0 mm 0.00 in0.0 mm
12:14 AM 1.7°F-16.8°C -1.0°F-18.3°C 88% 5.0 mph ESE8.0 kmh ESE -- 29.93 in1013.5 mb 0.00 in0.0 mm 0.00 in0.0 mm 0.00 in0.0 mm
12:15 AM 1.7°F-16.8°C -1.0°F-18.3°C 88% 6.0 mph E9.7 kmh E -- 29.93 in1013.5 mb 0.00 in0.0 mm 0.00 in0.0 mm 0.00 in0.0 mm
12:16 AM 1.7°F-16.8°C -1.0°F-18.3°C 88% 5.0 mph ESE8.0 kmh ESE -- 29.93 in1013.5 mb 0.00 in0.0 mm 0.00 in0.0 mm 0.00 in0.0 mm
12:17 AM 1.8°F-16.8°C -0.8°F-18.2°C 89% 8.0 mph SE12.9 kmh SE -- 29.93 in1013.5 mb 0.00 in0.0 mm 0.00 in0.0 mm 0.00 in0.0 mm
12:18 AM 1.5°F-16.9°C -1.2°F-18.4°C 88% 8.0 mph ESE12.9 kmh ESE -- 29.93 in1013.5 mb 0.00 in0.0 mm 0.00 in0.0 mm 0.00 in0.0 mm
12:19 AM 1.5°F-16.9°C -1.2°F-18.4°C 88% 10.0 mph SSE16.1 kmh SSE -- 29.92 in1013.2 mb 0.00 in0.0 mm 0.00 in0.0 mm 0.00 in0.0 mm
12:20 AM 1.5°F-16.9°C -1.2°F-18.4°C 88% 9.0 mph ESE14.5 kmh ESE -- 29.92 in1013.2 mb 0.00 in0.0 mm 0.00 in0.0 mm 0.00 in0.0 mm
12:21 AM 1.5°F-16.9°C -1.2°F-18.4°C 88% 5.0 mph ESE8.0 kmh ESE -- 29.92 in1013.2 mb 0.00 in0.0 mm 0.00 in0.0 mm 0.00 in0.0 mm
12:22 AM 1.5°F-16.9°C -1.2°F-18.4°C 88% 8.0 mph ESE12.9 kmh ESE -- 29.92 in1013.2 mb 0.00 in0.0 mm 0.00 in0.0 mm 0.00 in0.0 mm
12:23 AM 1.5°F-16.9°C -1.2°F-18.4°C 88% 9.0 mph ESE14.5 kmh ESE -- 29.92 in1013.2 mb 0.00 in0.0 mm 0.00 in0.0 mm 0.00 in0.0 mm
12:24 AM 1.5°F-16.9°C -1.2°F-18.4°C 88% 8.0 mph SSE12.9 kmh SSE -- 29.92 in1013.2 mb 0.00 in0.0 mm 0.00 in0.0 mm 0.00 in0.0 mm
12:25 AM 1.5°F-16.9°C -1.2°F-18.4°C 88% 5.0 mph SE8.0 kmh SE -- 29.92 in1013.2 mb 0.00 in0.0 mm 0.00 in0.0 mm 0.00 in0.0 mm
12:26 AM 1.5°F-16.9°C -1.2°F-18.4°C 88% 8.0 mph ESE12.9 kmh ESE -- 29.92 in1013.2 mb 0.00 in0.0 mm 0.00 in0.0 mm 0.00 in0.0 mm
12:27 AM 1.5°F-16.9°C -1.2°F-18.4°C 88% 9.0 mph ESE14.5 kmh ESE -- 29.92 in1013.2 mb 0.00 in0.0 mm 0.00 in0.0 mm 0.00 in0.0 mm
12:28 AM 1.5°F-16.9°C -1.2°F-18.4°C 88% 10.0 mph SE16.1 kmh SE -- 29.92 in1013.2 mb 0.00 in0.0 mm 0.00 in0.0 mm 0.00 in0.0 mm
12:29 AM 1.5°F-16.9°C -1.2°F-18.4°C 88% 9.0 mph ESE14.5 kmh ESE -- 29.92 in1013.2 mb 0.00 in0.0 mm 0.00 in0.0 mm 0.00 in0.0 mm
12:30 AM 1.5°F-16.9°C -1.2°F-18.4°C 88% 6.0 mph E9.7 kmh E -- 29.92 in1013.2 mb 0.00 in0.0 mm 0.00 in0.0 mm 0.00 in0.0 mm
12:31 AM 1.5°F-16.9°C -1.2°F-18.4°C 88% 8.0 mph ESE12.9 kmh ESE -- 29.92 in1013.2 mb 0.00 in0.0 mm 0.00 in0.0 mm 0.00 in0.0 mm
12:32 AM 1.5°F-16.9°C -1.2°F-18.4°C 88% 6.0 mph ESE9.7 kmh ESE -- 29.92 in1013.2 mb 0.00 in0.0 mm 0.00 in0.0 mm 0.00 in0.0 mm
12:33 AM 1.5°F-16.9°C -1.2°F-18.4°C 88% 7.0 mph SE11.3 kmh SE -- 29.92 in1013.2 mb 0.00 in0.0 mm 0.00 in0.0 mm 0.00 in0.0 mm
12:34 AM 1.5°F-16.9°C -1.2°F-18.4°C 88% 10.0 mph ESE16.1 kmh ESE -- 29.92 in1013.2 mb 0.00 in0.0 mm 0.00 in0.0 mm 0.00 in0.0 mm
12:35 AM 1.5°F-16.9°C -1.2°F-18.4°C 88% 6.0 mph ESE9.7 kmh ESE -- 29.92 in1013.2 mb 0.00 in0.0 mm 0.00 in0.0 mm 0.00 in0.0 mm
12:36 AM 1.5°F-16.9°C -1.2°F-18.4°C 88% 7.0 mph SSE11.3 kmh SSE -- 29.92 in1013.2 mb 0.00 in0.0 mm 0.00 in0.0 mm 0.00 in0.0 mm
12:37 AM 1.5°F-16.9°C -1.2°F-18.4°C 88% 7.0 mph ESE11.3 kmh ESE -- 29.92 in1013.2 mb 0.00 in0.0 mm 0.00 in0.0 mm 0.00 in0.0 mm
12:38 AM 1.5°F-16.9°C -1.2°F-18.4°C 88% 8.0 mph E12.9 kmh E -- 29.92 in1013.2 mb 0.00 in0.0 mm 0.00 in0.0 mm 0.00 in0.0 mm
12:39 AM 1.5°F-16.9°C -1.2°F-18.4°C 88% 7.0 mph SE11.3 kmh SE -- 29.92 in1013.2 mb 0.00 in0.0 mm 0.00 in0.0 mm 0.00 in0.0 mm
12:40 AM 1.5°F-16.9°C -1.2°F-18.4°C 88% 6.0 mph ESE9.7 kmh ESE -- 29.91 in1012.9 mb 0.00 in0.0 mm 0.00 in0.0 mm 0.00 in0.0 mm
12:41 AM 1.5°F-16.9°C -1.2°F-18.4°C 88% 8.0 mph ESE12.9 kmh ESE -- 29.91 in1012.9 mb 0.00 in0.0 mm 0.00 in0.0 mm 0.00 in0.0 mm
12:42 AM 1.5°F-16.9°C -1.2°F-18.4°C 88% 7.0 mph ESE11.3 kmh ESE -- 29.91 in1012.9 mb 0.00 in0.0 mm 0.00 in0.0 mm 0.00 in0.0 mm
12:43 AM 1.5°F-16.9°C -1.2°F-18.4°C 88% 8.0 mph E12.9 kmh E -- 29.92 in1013.2 mb 0.00 in0.0 mm 0.00 in0.0 mm 0.00 in0.0 mm
12:44 AM 1.3°F-17.1°C -1.5°F-18.6°C 88% 9.0 mph ESE14.5 kmh ESE -- 29.92 in1013.2 mb 0.00 in0.0 mm 0.00 in0.0 mm 0.00 in0.0 mm
12:45 AM 1.3°F-17.1°C -1.5°F-18.6°C 88% 6.0 mph SSE9.7 kmh SSE -- 29.92 in1013.2 mb 0.00 in0.0 mm 0.00 in0.0 mm 0.00 in0.0 mm
12:46 AM 1.3°F-17.1°C -1.5°F-18.6°C 88% 6.0 mph ESE9.7 kmh ESE -- 29.92 in1013.2 mb 0.00 in0.0 mm 0.00 in0.0 mm 0.00 in0.0 mm
12:47 AM 1.3°F-17.1°C -1.5°F-18.6°C 88% 7.0 mph SE11.3 kmh SE -- 29.91 in1012.9 mb 0.00 in0.0 mm 0.00 in0.0 mm 0.00 in0.0 mm
12:48 AM 1.3°F-17.1°C -1.5°F-18.6°C 88% 5.0 mph SE8.0 kmh SE -- 29.92 in1013.2 mb 0.00 in0.0 mm 0.00 in0.0 mm 0.00 in0.0 mm
12:49 AM 1.3°F-17.1°C -1.5°F-18.6°C 88% 5.0 mph ESE8.0 kmh ESE -- 29.92 in1013.2 mb 0.00 in0.0 mm 0.00 in0.0 mm 0.00 in0.0 mm
12:51 AM 1.3°F-17.1°C -1.5°F-18.6°C 88% 6.0 mph ESE9.7 kmh ESE -- 29.91 in1012.9 mb 0.00 in0.0 mm 0.00 in0.0 mm 0.00 in0.0 mm
12:52 AM 1.3°F-17.1°C -1.5°F-18.6°C 88% 7.0 mph ESE11.3 kmh ESE -- 29.92 in1013.2 mb 0.00 in0.0 mm 0.00 in0.0 mm 0.00 in0.0 mm
12:53 AM 1.2°F-17.1°C -1.5°F-18.6°C 88% 7.0 mph ESE11.3 kmh ESE -- 29.92 in1013.2 mb 0.00 in0.0 mm 0.00 in0.0 mm 0.00 in0.0 mm
12:54 AM 1.2°F-17.1°C -1.5°F-18.6°C 88% 7.0 mph SSE11.3 kmh SSE -- 29.92 in1013.2 mb 0.00 in0.0 mm 0.00 in0.0 mm 0.00 in0.0 mm
12:55 AM 1.2°F-17.1°C -1.5°F-18.6°C 88% 6.0 mph ESE9.7 kmh ESE -- 29.92 in1013.2 mb 0.00 in0.0 mm 0.00 in0.0 mm 0.00 in0.0 mm
12:57 AM 1.2°F-17.1°C -1.5°F-18.6°C 88% 6.0 mph ESE9.7 kmh ESE -- 29.91 in1012.9 mb 0.00 in0.0 mm 0.00 in0.0 mm 0.00 in0.0 mm
12:58 AM 1.2°F-17.1°C -1.5°F-18.6°C 88% 8.0 mph ESE12.9 kmh ESE -- 29.91 in1012.9 mb 0.00 in0.0 mm 0.00 in0.0 mm 0.00 in0.0 mm
12:59 AM 1.2°F-17.1°C -1.5°F-18.6°C 88% 6.0 mph ESE9.7 kmh ESE -- 29.91 in1012.9 mb 0.00 in0.0 mm 0.00 in0.0 mm 0.00 in0.0 mm
01:00 AM 1.2°F-17.1°C -1.5°F-18.6°C 88% 12.0 mph ESE19.3 kmh ESE -- 29.91 in1012.9 mb 0.00 in0.0 mm 0.00 in0.0 mm 0.00 in0.0 mm
01:01 AM 1.2°F-17.1°C -1.5°F-18.6°C 88% 5.0 mph SE8.0 kmh SE -- 29.91 in1012.9 mb 0.00 in0.0 mm 0.00 in0.0 mm 0.00 in0.0 mm
01:02 AM 1.2°F-17.1°C -1.5°F-18.6°C 88% 6.0 mph ESE9.7 kmh ESE -- 29.91 in1012.9 mb 0.00 in0.0 mm 0.00 in0.0 mm 0.00 in0.0 mm
01:03 AM 1.2°F-17.1°C -1.5°F-18.6°C 88% 6.0 mph SE9.7 kmh SE -- 29.91 in1012.9 mb 0.00 in0.0 mm 0.00 in0.0 mm 0.00 in0.0 mm
01:04 AM 1.2°F-17.1°C -1.5°F-18.6°C 88% 9.0 mph E14.5 kmh E -- 29.91 in1012.9 mb 0.00 in0.0 mm 0.00 in0.0 mm 0.00 in0.0 mm
01:05 AM 1.2°F-17.1°C -1.5°F-18.6°C 88% 6.0 mph ESE9.7 kmh ESE -- 29.91 in1012.9 mb 0.00 in0.0 mm 0.00 in0.0 mm 0.00 in0.0 mm
01:06 AM 1.2°F-17.1°C -1.5°F-18.6°C 88% 7.0 mph ESE11.3 kmh ESE -- 29.91 in1012.9 mb 0.00 in0.0 mm 0.00 in0.0 mm 0.00 in0.0 mm
01:07 AM 1.2°F-17.1°C -1.5°F-18.6°C 88% 8.0 mph SSE12.9 kmh SSE -- 29.91 in1012.9 mb 0.00 in0.0 mm 0.00 in0.0 mm 0.00 in0.0 mm
01:08 AM 1.2°F-17.1°C -1.5°F-18.6°C 88% 6.0 mph ESE9.7 kmh ESE -- 29.91 in1012.9 mb 0.00 in0.0 mm 0.00 in0.0 mm 0.00 in0.0 mm
01:09 AM 1.2°F-17.1°C -1.5°F-18.6°C 88% 8.0 mph ESE12.9 kmh ESE -- 29.91 in1012.9 mb 0.00 in0.0 mm 0.00 in0.0 mm 0.00 in0.0 mm
01:10 AM 1.2°F-17.1°C -1.5°F-18.6°C 88% 11.0 mph ESE17.7 kmh ESE -- 29.91 in1012.9 mb 0.00 in0.0 mm 0.00 in0.0 mm 0.00 in0.0 mm
01:11 AM 1.2°F-17.1°C -1.5°F-18.6°C 88% 7.0 mph ESE11.3 kmh ESE -- 29.91 in1012.9 mb 0.00 in0.0 mm 0.00 in0.0 mm 0.00 in0.0 mm
01:12 AM 1.2°F-17.1°C -1.5°F-18.6°C 88% 9.0 mph S14.5 kmh S -- 29.91 in1012.9 mb 0.00 in0.0 mm 0.00 in0.0 mm 0.00 in0.0 mm
01:13 AM 1.2°F-17.1°C -1.5°F-18.6°C 88% 6.0 mph ESE9.7 kmh ESE -- 29.91 in1012.9 mb 0.00 in0.0 mm 0.00 in0.0 mm 0.00 in0.0 mm
01:14 AM 1.2°F-17.1°C -1.5°F-18.6°C 88% 10.0 mph SSE16.1 kmh SSE -- 29.91 in1012.9 mb 0.00 in0.0 mm 0.00 in0.0 mm 0.00 in0.0 mm
01:15 AM 1.2°F-17.1°C -1.5°F-18.6°C 88% 6.0 mph ESE9.7 kmh ESE -- 29.91 in1012.9 mb 0.00 in0.0 mm 0.00 in0.0 mm 0.00 in0.0 mm
01:17 AM 1.2°F-17.1°C -1.5°F-18.6°C 88% 9.0 mph SE14.5 kmh SE -- 29.90 in1012.5 mb 0.00 in0.0 mm 0.00 in0.0 mm 0.00 in0.0 mm
01:18 AM 1.2°F-17.1°C -1.5°F-18.6°C 88% 8.0 mph ESE12.9 kmh ESE -- 29.90 in1012.5 mb 0.00 in0.0 mm 0.00 in0.0 mm 0.00 in0.0 mm
01:19 AM 1.2°F-17.1°C -1.5°F-18.6°C 88% 10.0 mph ESE16.1 kmh ESE -- 29.90 in1012.5 mb 0.00 in0.0 mm 0.00 in0.0 mm 0.00 in0.0 mm
01:21 AM 1.2°F-17.1°C -1.5°F-18.6°C 88% 10.0 mph ESE16.1 kmh ESE -- 29.91 in1012.9 mb 0.00 in0.0 mm 0.00 in0.0 mm 0.00 in0.0 mm
01:22 AM 1.3°F-17.1°C -1.5°F-18.6°C 88% 9.0 mph ESE14.5 kmh ESE -- 29.91 in1012.9 mb 0.00 in0.0 mm 0.00 in0.0 mm 0.00 in0.0 mm
01:23 AM 1.3°F-17.1°C -1.5°F-18.6°C 88% 8.0 mph SE12.9 kmh SE -- 29.90 in1012.5 mb 0.00 in0.0 mm 0.00 in0.0 mm 0.00 in0.0 mm
01:24 AM 1.3°F-17.1°C -1.5°F-18.6°C 88% 6.0 mph ESE9.7 kmh ESE -- 29.90 in1012.5 mb 0.00 in0.0 mm 0.00 in0.0 mm 0.00 in0.0 mm
01:25 AM 1.3°F-17.1°C -1.5°F-18.6°C 88% 8.0 mph SSE12.9 kmh SSE -- 29.90 in1012.5 mb 0.00 in0.0 mm 0.00 in0.0 mm 0.00 in0.0 mm
01:26 AM 1.3°F-17.1°C -1.5°F-18.6°C 88% 7.0 mph ESE11.3 kmh ESE -- 29.90 in1012.5 mb 0.00 in0.0 mm 0.00 in0.0 mm 0.00 in0.0 mm
01:27 AM 1.3°F-17.1°C -1.5°F-18.6°C 88% 9.0 mph ESE14.5 kmh ESE -- 29.90 in1012.5 mb 0.00 in0.0 mm 0.00 in0.0 mm 0.00 in0.0 mm
01:28 AM 1.3°F-17.1°C -1.5°F-18.6°C 88% 8.0 mph ESE12.9 kmh ESE -- 29.90 in1012.5 mb 0.00 in0.0 mm 0.00 in0.0 mm 0.00 in0.0 mm
01:29 AM 1.3°F-17.1°C -1.5°F-18.6°C 88% 9.0 mph SSE14.5 kmh SSE -- 29.90 in1012.5 mb 0.00 in0.0 mm 0.00 in0.0 mm 0.00 in0.0 mm
01:30 AM 1.3°F-17.1°C -1.5°F-18.6°C 88% 8.0 mph ESE12.9 kmh ESE -- 29.90 in1012.5 mb 0.00 in0.0 mm 0.00 in0.0 mm 0.00 in0.0 mm
01:31 AM 1.3°F-17.1°C -1.5°F-18.6°C 88% 6.0 mph ESE9.7 kmh ESE -- 29.90 in1012.5 mb 0.00 in0.0 mm 0.00 in0.0 mm 0.00 in0.0 mm
01:32 AM 1.3°F-17.1°C -1.5°F-18.6°C 88% 6.0 mph SE9.7 kmh SE -- 29.90 in1012.5 mb 0.00 in0.0 mm 0.00 in0.0 mm 0.00 in0.0 mm
01:33 AM 1.3°F-17.1°C -1.5°F-18.6°C 88% 9.0 mph ESE14.5 kmh ESE -- 29.90 in1012.5 mb 0.00 in0.0 mm 0.00 in0.0 mm 0.00 in0.0 mm
01:34 AM 1.3°F-17.1°C -1.5°F-18.6°C 88% 9.0 mph SE14.5 kmh SE -- 29.90 in1012.5 mb 0.00 in0.0 mm 0.00 in0.0 mm 0.00 in0.0 mm
01:35 AM 1.3°F-17.1°C -1.5°F-18.6°C 88% 7.0 mph ESE11.3 kmh ESE -- 29.90 in1012.5 mb 0.00 in0.0 mm 0.00 in0.0 mm 0.00 in0.0 mm
01:36 AM 1.3°F-17.1°C -1.5°F-18.6°C 88% 7.0 mph SE11.3 kmh SE -- 29.90 in1012.5 mb 0.00 in0.0 mm 0.00 in0.0 mm 0.00 in0.0 mm
01:38 AM 1.3°F-17.1°C -1.5°F-18.6°C 88% 7.0 mph ESE11.3 kmh ESE -- 29.90 in1012.5 mb 0.00 in0.0 mm 0.00 in0.0 mm 0.00 in0.0 mm
01:40 AM 1.3°F-17.1°C -1.5°F-18.6°C 88% 6.0 mph SSE9.7 kmh SSE -- 29.90 in1012.5 mb 0.00 in0.0 mm 0.00 in0.0 mm 0.00 in0.0 mm
01:41 AM 1.2°F-17.1°C -1.5°F-18.6°C 88% 7.0 mph ESE11.3 kmh ESE -- 29.90 in1012.5 mb 0.00 in0.0 mm 0.00 in0.0 mm 0.00 in0.0 mm
01:42 AM 1.2°F-17.1°C -1.5°F-18.6°C 88% 9.0 mph ESE14.5 kmh ESE -- 29.90 in1012.5 mb 0.00 in0.0 mm 0.00 in0.0 mm 0.00 in0.0 mm
01:43 AM 1.2°F-17.1°C -1.5°F-18.6°C 88% 11.0 mph E17.7 kmh E -- 29.90 in1012.5 mb 0.00 in0.0 mm 0.00 in0.0 mm 0.00 in0.0 mm
01:44 AM 1.2°F-17.1°C -1.5°F-18.6°C 88% 7.0 mph ESE11.3 kmh ESE -- 29.90 in1012.5 mb 0.00 in0.0 mm 0.00 in0.0 mm 0.00 in0.0 mm
01:45 AM 1.2°F-17.1°C -1.5°F-18.6°C 88% 7.0 mph SSE11.3 kmh SSE -- 29.90 in1012.5 mb 0.00 in0.0 mm 0.00 in0.0 mm 0.00 in0.0 mm
01:46 AM 1.2°F-17.1°C -1.5°F-18.6°C 88% 8.0 mph SE12.9 kmh SE -- 29.90 in1012.5 mb 0.00 in0.0 mm 0.00 in0.0 mm 0.00 in0.0 mm
01:47 AM 1.2°F-17.1°C -1.3°F-18.5°C 89% 7.0 mph ESE11.3 kmh ESE -- 29.90 in1012.5 mb 0.00 in0.0 mm 0.00 in0.0 mm 0.00 in0.0 mm
01:48 AM 1.2°F-17.1°C -1.5°F-18.6°C 88% 5.0 mph ESE8.0 kmh ESE -- 29.90 in1012.5 mb 0.00 in0.0 mm 0.00 in0.0 mm 0.00 in0.0 mm
01:49 AM 1.2°F-17.1°C -1.5°F-18.6°C 88% 7.0 mph ESE11.3 kmh ESE -- 29.90 in1012.5 mb 0.00 in0.0 mm 0.00 in0.0 mm 0.00 in0.0 mm
01:50 AM 1.2°F-17.1°C -1.5°F-18.6°C 88% 9.0 mph ESE14.5 kmh ESE -- 29.90 in1012.5 mb 0.00 in0.0 mm 0.00 in0.0 mm 0.00 in0.0 mm
01:51 AM 1.2°F-17.1°C -1.5°F-18.6°C 88% 6.0 mph ESE9.7 kmh ESE -- 29.90 in1012.5 mb 0.00 in0.0 mm 0.00 in0.0 mm 0.00 in0.0 mm
01:53 AM 1.2°F-17.1°C -1.5°F-18.6°C 88% 4.0 mph ESE6.4 kmh ESE -- 29.90 in1012.5 mb 0.00 in0.0 mm 0.00 in0.0 mm 0.00 in0.0 mm
01:54 AM 1.0°F-17.2°C -1.7°F-18.7°C 88% 5.0 mph E8.0 kmh E -- 29.90 in1012.5 mb 0.00 in0.0 mm 0.00 in0.0 mm 0.00 in0.0 mm
01:55 AM 1.0°F-17.2°C -1.7°F-18.7°C 88% 5.0 mph E8.0 kmh E -- 29.89 in1012.2 mb 0.00 in0.0 mm 0.00 in0.0 mm 0.00 in0.0 mm
01:56 AM 0.9°F-17.3°C -1.9°F-18.8°C 88% 5.0 mph ESE8.0 kmh ESE -- 29.90 in1012.5 mb 0.00 in0.0 mm 0.00 in0.0 mm 0.00 in0.0 mm
01:57 AM 0.7°F-17.4°C -2.1°F-18.9°C 88% 6.0 mph E9.7 kmh E -- 29.90 in1012.5 mb 0.00 in0.0 mm 0.00 in0.0 mm 0.00 in0.0 mm
01:59 AM 0.7°F-17.4°C -2.1°F-18.9°C 88% 5.0 mph E8.0 kmh E -- 29.89 in1012.2 mb 0.00 in0.0 mm 0.00 in0.0 mm 0.00 in0.0 mm
02:00 AM 0.3°F-17.6°C -2.4°F-19.1°C 88% 7.0 mph ESE11.3 kmh ESE -- 29.89 in1012.2 mb 0.00 in0.0 mm 0.00 in0.0 mm 0.00 in0.0 mm
02:01 AM 0.1°F-17.7°C -2.6°F-19.2°C 88% 8.0 mph E12.9 kmh E -- 29.89 in1012.2 mb 0.00 in0.0 mm 0.00 in0.0 mm 0.00 in0.0 mm
02:02 AM 0.1°F-17.7°C -2.6°F-19.2°C 88% 5.0 mph ESE8.0 kmh ESE -- 29.89 in1012.2 mb 0.00 in0.0 mm 0.00 in0.0 mm 0.00 in0.0 mm
02:03 AM 0.0°F-17.8°C -2.8°F-19.3°C 88% 6.0 mph E9.7 kmh E -- 29.89 in1012.2 mb 0.00 in0.0 mm 0.00 in0.0 mm 0.00 in0.0 mm
02:04 AM -0.2°F-17.9°C -3.0°F-19.4°C 88% 8.0 mph E12.9 kmh E -- 29.89 in1012.2 mb 0.00 in0.0 mm 0.00 in0.0 mm 0.00 in0.0 mm
02:05 AM -0.2°F-17.9°C -3.0°F-19.4°C 88% 6.0 mph ESE9.7 kmh ESE -- 29.89 in1012.2 mb 0.00 in0.0 mm 0.00 in0.0 mm 0.00 in0.0 mm
02:06 AM -0.2°F-17.9°C -3.0°F-19.4°C 88% 4.0 mph ESE6.4 kmh ESE -- 29.89 in1012.2 mb 0.00 in0.0 mm 0.00 in0.0 mm 0.00 in0.0 mm
02:07 AM -0.4°F-18.0°C -3.1°F-19.5°C 88% 6.0 mph ESE9.7 kmh ESE -- 29.90 in1012.5 mb 0.00 in0.0 mm 0.00 in0.0 mm 0.00 in0.0 mm
02:08 AM -0.4°F-18.0°C -3.1°F-19.5°C 88% 8.0 mph ESE12.9 kmh ESE -- 29.90 in1012.5 mb 0.00 in0.0 mm 0.00 in0.0 mm 0.00 in0.0 mm
02:09 AM -0.6°F-18.1°C -3.3°F-19.6°C 88% 4.0 mph ESE6.4 kmh ESE -- 29.90 in1012.5 mb 0.00 in0.0 mm 0.00 in0.0 mm 0.00 in0.0 mm
02:10 AM -0.6°F-18.1°C -3.3°F-19.6°C 88% 8.0 mph ESE12.9 kmh ESE -- 29.90 in1012.5 mb 0.00 in0.0 mm 0.00 in0.0 mm 0.00 in0.0 mm
02:11 AM -0.8°F-18.2°C -3.5°F-19.7°C 88% 5.0 mph SE8.0 kmh SE -- 29.90 in1012.5 mb 0.00 in0.0 mm 0.00 in0.0 mm 0.00 in0.0 mm
02:12 AM -0.8°F-18.2°C -3.5°F-19.7°C 88% 6.0 mph SE9.7 kmh SE -- 29.89 in1012.2 mb 0.00 in0.0 mm 0.00 in0.0 mm 0.00 in0.0 mm
02:13 AM -0.9°F-18.3°C -3.7°F-19.8°C 88% 7.0 mph E11.3 kmh E -- 29.89 in1012.2 mb 0.00 in0.0 mm 0.00 in0.0 mm 0.00 in0.0 mm
02:15 AM -1.1°F-18.4°C -3.4°F-19.7°C 90% 6.0 mph ESE9.7 kmh ESE -- 29.90 in1012.5 mb 0.00 in0.0 mm 0.00 in0.0 mm 0.00 in0.0 mm
02:16 AM -1.1°F-18.4°C -3.4°F-19.7°C 90% 6.0 mph SE9.7 kmh SE -- 29.89 in1012.2 mb 0.00 in0.0 mm 0.00 in0.0 mm 0.00 in0.0 mm
02:17 AM -1.1°F-18.4°C -3.4°F-19.7°C 90% 4.0 mph ESE6.4 kmh ESE -- 29.89 in1012.2 mb 0.00 in0.0 mm 0.00 in0.0 mm 0.00 in0.0 mm
02:18 AM -1.2°F-18.4°C -3.4°F-19.7°C 90% 6.0 mph ESE9.7 kmh ESE -- 29.89 in1012.2 mb 0.00 in0.0 mm 0.00 in0.0 mm 0.00 in0.0 mm
02:19 AM -1.2°F-18.4°C -3.4°F-19.7°C 90% 5.0 mph E8.0 kmh E -- 29.89 in1012.2 mb 0.00 in0.0 mm 0.00 in0.0 mm 0.00 in0.0 mm
02:20 AM -1.5°F-18.6°C -3.7°F-19.8°C 90% 6.0 mph ESE9.7 kmh ESE -- 29.89 in1012.2 mb 0.00 in0.0 mm 0.00 in0.0 mm 0.00 in0.0 mm
02:21 AM -1.5°F-18.6°C -3.7°F-19.8°C 90% 4.0 mph SE6.4 kmh SE -- 29.89 in1012.2 mb 0.00 in0.0 mm 0.00 in0.0 mm 0.00 in0.0 mm
02:22 AM -1.5°F-18.6°C -3.7°F-19.8°C 90% 6.0 mph ESE9.7 kmh ESE -- 29.89 in1012.2 mb 0.00 in0.0 mm 0.00 in0.0 mm 0.00 in0.0 mm
02:23 AM -1.7°F-18.7°C -3.9°F-19.9°C 90% 8.0 mph ESE12.9 kmh ESE -- 29.89 in1012.2 mb 0.00 in0.0 mm 0.00 in0.0 mm 0.00 in0.0 mm
02:24 AM -1.7°F-18.7°C -3.9°F-19.9°C 90% 4.0 mph ESE6.4 kmh ESE -- 29.89 in1012.2 mb 0.00 in0.0 mm 0.00 in0.0 mm 0.00 in0.0 mm
02:25 AM -1.7°F-18.7°C -3.9°F-19.9°C 90% 7.0 mph E11.3 kmh E -- 29.89 in1012.2 mb 0.00 in0.0 mm 0.00 in0.0 mm 0.00 in0.0 mm
02:26 AM -1.7°F-18.7°C -3.9°F-19.9°C 90% 6.0 mph ESE9.7 kmh ESE -- 29.89 in1012.2 mb 0.00 in0.0 mm 0.00 in0.0 mm 0.00 in0.0 mm
02:27 AM -1.7°F-18.7°C -3.9°F-19.9°C 90% 5.0 mph SE8.0 kmh SE -- 29.89 in1012.2 mb 0.00 in0.0 mm 0.00 in0.0 mm 0.00 in0.0 mm
02:28 AM -1.7°F-18.7°C -3.9°F-19.9°C 90% 5.0 mph ESE8.0 kmh ESE -- 29.89 in1012.2 mb 0.00 in0.0 mm 0.00 in0.0 mm 0.00 in0.0 mm
02:29 AM -1.7°F-18.7°C -3.9°F-19.9°C 90% 3.0 mph SE4.8 kmh SE -- 29.89 in1012.2 mb 0.00 in0.0 mm 0.00 in0.0 mm 0.00 in0.0 mm
02:30 AM -1.7°F-18.7°C -3.9°F-19.9°C 90% 4.0 mph ESE6.4 kmh ESE -- 29.89 in1012.2 mb 0.00 in0.0 mm 0.00 in0.0 mm 0.00 in0.0 mm
02:31 AM -2.0°F-18.9°C -4.3°F-20.2°C 90% 4.0 mph ESE6.4 kmh ESE -- 29.89 in1012.2 mb 0.00 in0.0 mm 0.00 in0.0 mm 0.00 in0.0 mm
02:32 AM -2.2°F-19.0°C -4.4°F-20.2°C 90% 3.0 mph SE4.8 kmh SE -- 29.89 in1012.2 mb 0.00 in0.0 mm 0.00 in0.0 mm 0.00 in0.0 mm
02:33 AM -2.2°F-19.0°C -4.4°F-20.2°C 90% 5.0 mph ENE8.0 kmh ENE -- 29.89 in1012.2 mb 0.00 in0.0 mm 0.00 in0.0 mm 0.00 in0.0 mm
02:34 AM -2.2°F-19.0°C -4.4°F-20.2°C 90% 4.0 mph SE6.4 kmh SE -- 29.89 in1012.2 mb 0.00 in0.0 mm 0.00 in0.0 mm 0.00 in0.0 mm
02:35 AM -2.2°F-19.0°C -4.4°F-20.2°C 90% 5.0 mph ESE8.0 kmh ESE -- 29.89 in1012.2 mb 0.00 in0.0 mm 0.00 in0.0 mm 0.00 in0.0 mm
02:36 AM -2.2°F-19.0°C -4.4°F-20.2°C 90% 4.0 mph SE6.4 kmh SE -- 29.89 in1012.2 mb 0.00 in0.0 mm 0.00 in0.0 mm 0.00 in0.0 mm
02:37 AM -2.4°F-19.1°C -4.6°F-20.3°C 90% 5.0 mph ESE8.0 kmh ESE -- 29.89 in1012.2 mb 0.00 in0.0 mm 0.00 in0.0 mm 0.00 in0.0 mm
02:38 AM -2.5°F-19.2°C -4.8°F-20.4°C 90% 4.0 mph ESE6.4 kmh ESE -- 29.89 in1012.2 mb 0.00 in0.0 mm 0.00 in0.0 mm 0.00 in0.0 mm
02:39 AM -2.5°F-19.2°C -4.8°F-20.4°C 90% 6.0 mph ESE9.7 kmh ESE -- 29.89 in1012.2 mb 0.00 in0.0 mm 0.00 in0.0 mm 0.00 in0.0 mm
02:40 AM -2.5°F-19.2°C -4.8°F-20.4°C 90% 5.0 mph ESE8.0 kmh ESE -- 29.89 in1012.2 mb 0.00 in0.0 mm 0.00 in0.0 mm 0.00 in0.0 mm
02:41 AM -2.5°F-19.2°C -4.8°F-20.4°C 90% 4.0 mph ESE6.4 kmh ESE -- 29.89 in1012.2 mb 0.00 in0.0 mm 0.00 in0.0 mm 0.00 in0.0 mm
02:42 AM -2.7°F-19.3°C -5.0°F-20.6°C 90% 4.0 mph ESE6.4 kmh ESE -- 29.89 in1012.2 mb 0.00 in0.0 mm 0.00 in0.0 mm 0.00 in0.0 mm
02:43 AM -2.7°F-19.3°C -5.0°F-20.6°C 90% 4.0 mph ESE6.4 kmh ESE -- 29.88 in1011.9 mb 0.00 in0.0 mm 0.00 in0.0 mm 0.00 in0.0 mm
02:44 AM -2.7°F-19.3°C -5.0°F-20.6°C 90% 5.0 mph E8.0 kmh E -- 29.89 in1012.2 mb 0.00 in0.0 mm 0.00 in0.0 mm 0.00 in0.0 mm
02:45 AM -2.7°F-19.3°C -5.0°F-20.6°C 90% 7.0 mph ESE11.3 kmh ESE -- 29.89 in1012.2 mb 0.00 in0.0 mm 0.00 in0.0 mm 0.00 in0.0 mm
02:46 AM -2.7°F-19.3°C -4.7°F-20.4°C 91% 5.0 mph SSE8.0 kmh SSE -- 29.89 in1012.2 mb 0.00 in0.0 mm 0.00 in0.0 mm 0.00 in0.0 mm
02:47 AM -2.7°F-19.3°C -4.7°F-20.4°C 91% 5.0 mph SE8.0 kmh SE -- 29.88 in1011.9 mb 0.00 in0.0 mm 0.00 in0.0 mm 0.00 in0.0 mm
02:48 AM -2.9°F-19.4°C -4.9°F-20.5°C 91% 6.0 mph ESE9.7 kmh ESE -- 29.88 in1011.9 mb 0.00 in0.0 mm 0.00 in0.0 mm 0.00 in0.0 mm
02:49 AM -2.9°F-19.4°C -4.9°F-20.5°C 91% 5.0 mph ESE8.0 kmh ESE -- 29.89 in1012.2 mb 0.00 in0.0 mm 0.00 in0.0 mm 0.00 in0.0 mm
02:50 AM -2.9°F-19.4°C -4.9°F-20.5°C 91% 6.0 mph ESE9.7 kmh ESE -- 29.89 in1012.2 mb 0.00 in0.0 mm 0.00 in0.0 mm 0.00 in0.0 mm
02:51 AM -2.9°F-19.4°C -4.9°F-20.5°C 91% 5.0 mph SSE8.0 kmh SSE -- 29.89 in1012.2 mb 0.00 in0.0 mm 0.00 in0.0 mm 0.00 in0.0 mm
02:52 AM -2.9°F-19.4°C -4.9°F-20.5°C 91% 5.0 mph SE8.0 kmh SE -- 29.88 in1011.9 mb 0.00 in0.0 mm 0.00 in0.0 mm 0.00 in0.0 mm
02:53 AM -2.9°F-19.4°C -4.9°F-20.5°C 91% 6.0 mph ESE9.7 kmh ESE -- 29.89 in1012.2 mb 0.00 in0.0 mm 0.00 in0.0 mm 0.00 in0.0 mm
02:54 AM -3.0°F-19.4°C -4.9°F-20.5°C 91% 5.0 mph SSE8.0 kmh SSE -- 29.88 in1011.9 mb 0.00 in0.0 mm 0.00 in0.0 mm 0.00 in0.0 mm
02:56 AM -3.0°F-19.4°C -4.9°F-20.5°C 91% 5.0 mph ESE8.0 kmh ESE -- 29.88 in1011.9 mb 0.00 in0.0 mm 0.00 in0.0 mm 0.00 in0.0 mm
02:57 AM -3.0°F-19.4°C -4.9°F-20.5°C 91% 6.0 mph ESE9.7 kmh ESE -- 29.88 in1011.9 mb 0.00 in0.0 mm 0.00 in0.0 mm 0.00 in0.0 mm
02:58 AM -3.0°F-19.4°C -4.9°F-20.5°C 91% 4.0 mph ESE6.4 kmh ESE -- 29.88 in1011.9 mb 0.00 in0.0 mm 0.00 in0.0 mm 0.00 in0.0 mm
02:59 AM -3.2°F-19.6°C -5.3°F-20.7°C 91% 6.0 mph ESE9.7 kmh ESE -- 29.88 in1011.9 mb 0.00 in0.0 mm 0.00 in0.0 mm 0.00 in0.0 mm
03:00 AM -3.2°F-19.6°C -5.3°F-20.7°C 91% 5.0 mph ESE8.0 kmh ESE -- 29.88 in1011.9 mb 0.00 in0.0 mm 0.00 in0.0 mm 0.00 in0.0 mm
03:01 AM -3.2°F-19.6°C -5.3°F-20.7°C 91% 7.0 mph ESE11.3 kmh ESE -- 29.88 in1011.9 mb 0.00 in0.0 mm 0.00 in0.0 mm 0.00 in0.0 mm
03:02 AM -3.2°F-19.6°C -5.3°F-20.7°C 91% 5.0 mph SE8.0 kmh SE -- 29.88 in1011.9 mb 0.00 in0.0 mm 0.00 in0.0 mm 0.00 in0.0 mm
03:03 AM -3.5°F-19.7°C -5.4°F-20.8°C 91% 6.0 mph SE9.7 kmh SE -- 29.89 in1012.2 mb 0.00 in0.0 mm 0.00 in0.0 mm 0.00 in0.0 mm
03:04 AM -3.5°F-19.7°C -5.4°F-20.8°C 91% 3.0 mph ESE4.8 kmh ESE -- 29.88 in1011.9 mb 0.00 in0.0 mm 0.00 in0.0 mm 0.00 in0.0 mm
03:05 AM -3.5°F-19.7°C -5.4°F-20.8°C 91% 6.0 mph ESE9.7 kmh ESE -- 29.88 in1011.9 mb 0.00 in0.0 mm 0.00 in0.0 mm 0.00 in0.0 mm
03:06 AM -3.5°F-19.7°C -5.4°F-20.8°C 91% 5.0 mph ENE8.0 kmh ENE -- 29.88 in1011.9 mb 0.00 in0.0 mm 0.00 in0.0 mm 0.00 in0.0 mm
03:07 AM -3.5°F-19.7°C -5.4°F-20.8°C 91% 5.0 mph ESE8.0 kmh ESE -- 29.88 in1011.9 mb 0.00 in0.0 mm 0.00 in0.0 mm 0.00 in0.0 mm
03:08 AM -3.5°F-19.7°C -5.4°F-20.8°C 91% 6.0 mph ESE9.7 kmh ESE -- 29.88 in1011.9 mb 0.00 in0.0 mm 0.00 in0.0 mm 0.00 in0.0 mm
03:09 AM -3.5°F-19.7°C -5.4°F-20.8°C 91% 4.0 mph ESE6.4 kmh ESE -- 29.88 in1011.9 mb 0.00 in0.0 mm 0.00 in0.0 mm 0.00 in0.0 mm
03:10 AM -3.5°F-19.7°C -5.4°F-20.8°C 91% 5.0 mph ESE8.0 kmh ESE -- 29.88 in1011.9 mb 0.00 in0.0 mm 0.00 in0.0 mm 0.00 in0.0 mm
03:11 AM -3.5°F-19.7°C -5.4°F-20.8°C 91% 3.0 mph ESE4.8 kmh ESE -- 29.88 in1011.9 mb 0.00 in0.0 mm 0.00 in0.0 mm 0.00 in0.0 mm
03:12 AM -3.5°F-19.7°C -5.4°F-20.8°C 91% 4.0 mph E6.4 kmh E -- 29.88 in1011.9 mb 0.00 in0.0 mm 0.00 in0.0 mm 0.00 in0.0 mm
03:13 AM -3.5°F-19.7°C -5.4°F-20.8°C 91% 6.0 mph ESE9.7 kmh ESE -- 29.88 in1011.9 mb 0.00 in0.0 mm 0.00 in0.0 mm 0.00 in0.0 mm
03:15 AM -3.5°F-19.7°C -5.4°F-20.8°C 91% 5.0 mph ESE8.0 kmh ESE -- 29.88 in1011.9 mb 0.00 in0.0 mm 0.00 in0.0 mm 0.00 in0.0 mm
03:17 AM -3.5°F-19.7°C -5.4°F-20.8°C 91% 5.0 mph E8.0 kmh E -- 29.88 in1011.9 mb 0.00 in0.0 mm 0.00 in0.0 mm 0.00 in0.0 mm
03:18 AM -3.5°F-19.7°C -5.4°F-20.8°C 91% 5.0 mph ESE8.0 kmh ESE -- 29.88 in1011.9 mb 0.00 in0.0 mm 0.00 in0.0 mm 0.00 in0.0 mm
03:19 AM -3.5°F-19.7°C -5.4°F-20.8°C 91% 4.0 mph ESE6.4 kmh ESE -- 29.88 in1011.9 mb 0.00 in0.0 mm 0.00 in0.0 mm 0.00 in0.0 mm
03:20 AM -3.5°F-19.7°C -5.4°F-20.8°C 91% 5.0 mph ESE8.0 kmh ESE -- 29.88 in1011.9 mb 0.00 in0.0 mm 0.00 in0.0 mm 0.00 in0.0 mm
03:21 AM -3.5°F-19.7°C -5.4°F-20.8°C 91% 4.0 mph S6.4 kmh S -- 29.88 in1011.9 mb 0.00 in0.0 mm 0.00 in0.0 mm 0.00 in0.0 mm
03:22 AM -3.5°F-19.7°C -5.4°F-20.8°C 91% 6.0 mph E9.7 kmh E -- 29.88 in1011.9 mb 0.00 in0.0 mm 0.00 in0.0 mm 0.00 in0.0 mm
03:23 AM -3.5°F-19.7°C -5.4°F-20.8°C 91% 9.0 mph ESE14.5 kmh ESE -- 29.88 in1011.9 mb 0.00 in0.0 mm 0.00 in0.0 mm 0.00 in0.0 mm
03:24 AM -3.5°F-19.7°C -5.4°F-20.8°C 91% 4.0 mph ESE6.4 kmh ESE -- 29.88 in1011.9 mb 0.00 in0.0 mm 0.00 in0.0 mm 0.00 in0.0 mm
03:25 AM -3.5°F-19.7°C -5.4°F-20.8°C 91% 5.0 mph ESE8.0 kmh ESE -- 29.88 in1011.9 mb 0.00 in0.0 mm 0.00 in0.0 mm 0.00 in0.0 mm
03:26 AM -3.5°F-19.7°C -5.4°F-20.8°C 91% 7.0 mph ESE11.3 kmh ESE -- 29.87 in1011.5 mb 0.00 in0.0 mm 0.00 in0.0 mm 0.00 in0.0 mm
03:27 AM -3.7°F-19.8°C -5.6°F-20.9°C 91% 5.0 mph ESE8.0 kmh ESE -- 29.88 in1011.9 mb 0.00 in0.0 mm 0.00 in0.0 mm 0.00 in0.0 mm
03:28 AM -3.7°F-19.8°C -5.6°F-20.9°C 91% 5.0 mph SE8.0 kmh SE -- 29.87 in1011.5 mb 0.00 in0.0 mm 0.00 in0.0 mm 0.00 in0.0 mm
03:29 AM -3.7°F-19.8°C -5.6°F-20.9°C 91% 4.0 mph ESE6.4 kmh ESE -- 29.87 in1011.5 mb 0.00 in0.0 mm 0.00 in0.0 mm 0.00 in0.0 mm
03:30 AM -3.7°F-19.8°C -5.6°F-20.9°C 91% 4.0 mph SE6.4 kmh SE -- 29.87 in1011.5 mb 0.00 in0.0 mm 0.00 in0.0 mm 0.00 in0.0 mm
03:31 AM -4.0°F-20.0°C -6.0°F-21.1°C 91% 5.0 mph ESE8.0 kmh ESE -- 29.87 in1011.5 mb 0.00 in0.0 mm 0.00 in0.0 mm 0.00 in0.0 mm
03:32 AM -4.0°F-20.0°C -6.0°F-21.1°C 91% 6.0 mph SE9.7 kmh SE -- 29.87 in1011.5 mb 0.00 in0.0 mm 0.00 in0.0 mm 0.00 in0.0 mm
03:33 AM -4.0°F-20.0°C -6.0°F-21.1°C 91% 6.0 mph ESE9.7 kmh ESE -- 29.87 in1011.5 mb 0.00 in0.0 mm 0.00 in0.0 mm 0.00 in0.0 mm
03:35 AM -4.0°F-20.0°C -6.0°F-21.1°C 91% 6.0 mph ESE9.7 kmh ESE -- 29.86 in1011.2 mb 0.00 in0.0 mm 0.00 in0.0 mm 0.00 in0.0 mm
03:37 AM -4.1°F-20.1°C -6.2°F-21.2°C 91% 6.0 mph E9.7 kmh E -- 29.87 in1011.5 mb 0.00 in0.0 mm 0.00 in0.0 mm 0.00 in0.0 mm
03:38 AM -4.1°F-20.1°C -6.2°F-21.2°C 91% 8.0 mph ESE12.9 kmh ESE -- 29.87 in1011.5 mb 0.00 in0.0 mm 0.00 in0.0 mm 0.00 in0.0 mm
03:39 AM -4.1°F-20.1°C -6.2°F-21.2°C 91% 7.0 mph ESE11.3 kmh ESE -- 29.87 in1011.5 mb 0.00 in0.0 mm 0.00 in0.0 mm 0.00 in0.0 mm
03:40 AM -4.1°F-20.1°C -6.2°F-21.2°C 91% 6.0 mph E9.7 kmh E -- 29.87 in1011.5 mb 0.00 in0.0 mm 0.00 in0.0 mm 0.00 in0.0 mm
03:41 AM -4.1°F-20.1°C -6.2°F-21.2°C 91% 6.0 mph ESE9.7 kmh ESE -- 29.86 in1011.2 mb 0.00 in0.0 mm 0.00 in0.0 mm 0.00 in0.0 mm
03:42 AM -4.1°F-20.1°C -6.2°F-21.2°C 91% 8.0 mph E12.9 kmh E -- 29.87 in1011.5 mb 0.00 in0.0 mm 0.00 in0.0 mm 0.00 in0.0 mm
03:43 AM -4.1°F-20.1°C -6.2°F-21.2°C 91% 7.0 mph ESE11.3 kmh ESE -- 29.86 in1011.2 mb 0.00 in0.0 mm 0.00 in0.0 mm 0.00 in0.0 mm
03:44 AM -4.1°F-20.1°C -6.2°F-21.2°C 91% 5.0 mph E8.0 kmh E -- 29.86 in1011.2 mb 0.00 in0.0 mm 0.00 in0.0 mm 0.00 in0.0 mm
03:45 AM -4.1°F-20.1°C -6.2°F-21.2°C 91% 5.0 mph ESE8.0 kmh ESE -- 29.87 in1011.5 mb 0.00 in0.0 mm 0.00 in0.0 mm 0.00 in0.0 mm
03:46 AM -4.1°F-20.1°C -6.2°F-21.2°C 91% 4.0 mph SSE6.4 kmh SSE -- 29.86 in1011.2 mb 0.00 in0.0 mm 0.00 in0.0 mm 0.00 in0.0 mm
03:47 AM -4.1°F-20.1°C -6.2°F-21.2°C 91% 6.0 mph SE9.7 kmh SE -- 29.86 in1011.2 mb 0.00 in0.0 mm 0.00 in0.0 mm 0.00 in0.0 mm
03:48 AM -4.1°F-20.1°C -6.2°F-21.2°C 91% 6.0 mph ESE9.7 kmh ESE -- 29.86 in1011.2 mb 0.00 in0.0 mm 0.00 in0.0 mm 0.00 in0.0 mm
03:49 AM -4.4°F-20.2°C -6.3°F-21.3°C 91% 6.0 mph ESE9.7 kmh ESE -- 29.86 in1011.2 mb 0.00 in0.0 mm 0.00 in0.0 mm 0.00 in0.0 mm
03:50 AM -4.4°F-20.2°C -6.3°F-21.3°C 91% 5.0 mph ESE8.0 kmh ESE -- 29.86 in1011.2 mb 0.00 in0.0 mm 0.00 in0.0 mm 0.00 in0.0 mm
03:52 AM -4.4°F-20.2°C -6.3°F-21.3°C 91% 6.0 mph SE9.7 kmh SE -- 29.86 in1011.2 mb 0.00 in0.0 mm 0.00 in0.0 mm 0.00 in0.0 mm
03:53 AM -4.4°F-20.2°C -6.3°F-21.3°C 91% 5.0 mph ESE8.0 kmh ESE -- 29.86 in1011.2 mb 0.00 in0.0 mm 0.00 in0.0 mm 0.00 in0.0 mm
03:54 AM -4.4°F-20.2°C -6.3°F-21.3°C 91% 7.0 mph ESE11.3 kmh ESE -- 29.86 in1011.2 mb 0.00 in0.0 mm 0.00 in0.0 mm 0.00 in0.0 mm
03:55 AM -4.4°F-20.2°C -6.3°F-21.3°C 91% 6.0 mph SE9.7 kmh SE -- 29.87 in1011.5 mb 0.00 in0.0 mm 0.00 in0.0 mm 0.00 in0.0 mm
03:56 AM -4.4°F-20.2°C -6.3°F-21.3°C 91% 7.0 mph SSE11.3 kmh SSE -- 29.87 in1011.5 mb 0.00 in0.0 mm 0.00 in0.0 mm 0.00 in0.0 mm
03:57 AM -4.4°F-20.2°C -6.3°F-21.3°C 91% 6.0 mph ESE9.7 kmh ESE -- 29.87 in1011.5 mb 0.00 in0.0 mm 0.00 in0.0 mm 0.00 in0.0 mm
03:58 AM -4.4°F-20.2°C -6.3°F-21.3°C 91% 4.0 mph E6.4 kmh E -- 29.86 in1011.2 mb 0.00 in0.0 mm 0.00 in0.0 mm 0.00 in0.0 mm
03:59 AM -4.4°F-20.2°C -6.3°F-21.3°C 91% 5.0 mph E8.0 kmh E -- 29.87 in1011.5 mb 0.00 in0.0 mm 0.00 in0.0 mm 0.00 in0.0 mm
04:00 AM -4.4°F-20.2°C -6.3°F-21.3°C 91% 4.0 mph E6.4 kmh E -- 29.87 in1011.5 mb 0.00 in0.0 mm 0.00 in0.0 mm 0.00 in0.0 mm
04:01 AM -4.4°F-20.2°C -6.3°F-21.3°C 91% 4.0 mph E6.4 kmh E -- 29.86 in1011.2 mb 0.00 in0.0 mm 0.00 in0.0 mm 0.00 in0.0 mm
04:02 AM -4.4°F-20.2°C -6.3°F-21.3°C 91% 5.0 mph E8.0 kmh E -- 29.86 in1011.2 mb 0.00 in0.0 mm 0.00 in0.0 mm 0.00 in0.0 mm
04:03 AM -4.4°F-20.2°C -6.3°F-21.3°C 91% 5.0 mph ESE8.0 kmh ESE -- 29.86 in1011.2 mb 0.00 in0.0 mm 0.00 in0.0 mm 0.00 in0.0 mm
04:04 AM -4.4°F-20.2°C -6.3°F-21.3°C 91% 5.0 mph SE8.0 kmh SE -- 29.86 in1011.2 mb 0.00 in0.0 mm 0.00 in0.0 mm 0.00 in0.0 mm
04:05 AM -4.4°F-20.2°C -6.3°F-21.3°C 91% 6.0 mph ESE9.7 kmh ESE -- 29.86 in1011.2 mb 0.00 in0.0 mm 0.00 in0.0 mm 0.00 in0.0 mm
04:06 AM -4.4°F-20.2°C -6.3°F-21.3°C 91% 5.0 mph ESE8.0 kmh ESE -- 29.86 in1011.2 mb 0.00 in0.0 mm 0.00 in0.0 mm 0.00 in0.0 mm
04:07 AM -4.4°F-20.2°C -6.3°F-21.3°C 91% 4.0 mph ESE6.4 kmh ESE -- 29.86 in1011.2 mb 0.00 in0.0 mm 0.00 in0.0 mm 0.00 in0.0 mm
04:09 AM -4.4°F-20.2°C -6.3°F-21.3°C 91% 3.0 mph ESE4.8 kmh ESE -- 29.86 in1011.2 mb 0.00 in0.0 mm 0.00 in0.0 mm 0.00 in0.0 mm
04:10 AM -4.4°F-20.2°C -6.3°F-21.3°C 91% 5.0 mph SE8.0 kmh SE -- 29.86 in1011.2 mb 0.00 in0.0 mm 0.00 in0.0 mm 0.00 in0.0 mm
04:11 AM -4.4°F-20.2°C -6.3°F-21.3°C 91% 2.0 mph ESE3.2 kmh ESE -- 29.86 in1011.2 mb 0.00 in0.0 mm 0.00 in0.0 mm 0.00 in0.0 mm
04:12 AM -4.5°F-20.3°C -6.5°F-21.4°C 91% 4.0 mph ESE6.4 kmh ESE -- 29.86 in1011.2 mb 0.00 in0.0 mm 0.00 in0.0 mm 0.00 in0.0 mm
04:13 AM -4.5°F-20.3°C -6.5°F-21.4°C 91% 2.0 mph SE3.2 kmh SE -- 29.86 in1011.2 mb 0.00 in0.0 mm 0.00 in0.0 mm 0.00 in0.0 mm
04:14 AM -4.5°F-20.3°C -6.5°F-21.4°C 91% 3.0 mph ESE4.8 kmh ESE -- 29.86 in1011.2 mb 0.00 in0.0 mm 0.00 in0.0 mm 0.00 in0.0 mm
04:15 AM -4.5°F-20.3°C -6.5°F-21.4°C 91% 3.0 mph SSE4.8 kmh SSE -- 29.86 in1011.2 mb 0.00 in0.0 mm 0.00 in0.0 mm 0.00 in0.0 mm
04:16 AM -4.5°F-20.3°C -6.5°F-21.4°C 91% 3.0 mph ESE4.8 kmh ESE -- 29.86 in1011.2 mb 0.00 in0.0 mm 0.00 in0.0 mm 0.00 in0.0 mm
04:17 AM -4.5°F-20.3°C -6.5°F-21.4°C 91% 2.0 mph ESE3.2 kmh ESE -- 29.86 in1011.2 mb 0.00 in0.0 mm 0.00 in0.0 mm 0.00 in0.0 mm
04:18 AM -4.5°F-20.3°C -6.5°F-21.4°C 91% 3.0 mph ESE4.8 kmh ESE -- 29.86 in1011.2 mb 0.00 in0.0 mm 0.00 in0.0 mm 0.00 in0.0 mm
04:19 AM -4.6°F-20.3°C -6.5°F-21.4°C 91% 3.0 mph ESE4.8 kmh ESE -- 29.86 in1011.2 mb 0.00 in0.0 mm 0.00 in0.0 mm 0.00 in0.0 mm
04:22 AM -4.6°F-20.3°C -6.5°F-21.4°C 91% 3.0 mph SSE4.8 kmh SSE -- 29.86 in1011.2 mb 0.00 in0.0 mm 0.00 in0.0 mm 0.00 in0.0 mm
04:23 AM -4.6°F-20.3°C -6.5°F-21.4°C 91% 3.0 mph ESE4.8 kmh ESE -- 29.85 in1010.8 mb 0.00 in0.0 mm 0.00 in0.0 mm 0.00 in0.0 mm
04:24 AM -4.6°F-20.3°C -6.5°F-21.4°C 91% 7.0 mph E11.3 kmh E -- 29.85 in1010.8 mb 0.00 in0.0 mm 0.00 in0.0 mm 0.00 in0.0 mm
04:25 AM -4.6°F-20.3°C -6.5°F-21.4°C 91% 4.0 mph ESE6.4 kmh ESE -- 29.85 in1010.8 mb 0.00 in0.0 mm 0.00 in0.0 mm 0.00 in0.0 mm
04:27 AM -4.7°F-20.4°C -6.7°F-21.5°C 91% 4.0 mph ESE6.4 kmh ESE -- 29.85 in1010.8 mb 0.00 in0.0 mm 0.00 in0.0 mm 0.00 in0.0 mm
04:28 AM -4.6°F-20.3°C -6.5°F-21.4°C 91% 5.0 mph ESE8.0 kmh ESE -- 29.85 in1010.8 mb 0.00 in0.0 mm 0.00 in0.0 mm 0.00 in0.0 mm
04:29 AM -4.6°F-20.3°C -6.5°F-21.4°C 91% 4.0 mph E6.4 kmh E -- 29.85 in1010.8 mb 0.00 in0.0 mm 0.00 in0.0 mm 0.00 in0.0 mm
04:30 AM -4.6°F-20.3°C -6.5°F-21.4°C 91% 4.0 mph ESE6.4 kmh ESE -- 29.85 in1010.8 mb 0.00 in0.0 mm 0.00 in0.0 mm 0.00 in0.0 mm
04:31 AM -4.6°F-20.3°C -6.5°F-21.4°C 91% 6.0 mph E9.7 kmh E -- 29.85 in1010.8 mb 0.00 in0.0 mm 0.00 in0.0 mm 0.00 in0.0 mm
04:32 AM -4.6°F-20.3°C -6.5°F-21.4°C 91% 4.0 mph ESE6.4 kmh ESE -- 29.85 in1010.8 mb 0.00 in0.0 mm 0.00 in0.0 mm 0.00 in0.0 mm
04:35 AM -4.6°F-20.3°C -6.5°F-21.4°C 91% 5.0 mph ESE8.0 kmh ESE -- 29.85 in1010.8 mb 0.00 in0.0 mm 0.00 in0.0 mm 0.00 in0.0 mm
04:36 AM -4.6°F-20.3°C -6.5°F-21.4°C 91% 4.0 mph ESE6.4 kmh ESE -- 29.85 in1010.8 mb 0.00 in0.0 mm 0.00 in0.0 mm 0.00 in0.0 mm
04:37 AM -4.6°F-20.3°C -6.5°F-21.4°C 91% 3.0 mph SE4.8 kmh SE -- 29.85 in1010.8 mb 0.00 in0.0 mm 0.00 in0.0 mm 0.00 in0.0 mm
04:38 AM -4.6°F-20.3°C -6.5°F-21.4°C 91% 3.0 mph ESE4.8 kmh ESE -- 29.85 in1010.8 mb 0.00 in0.0 mm 0.00 in0.0 mm 0.00 in0.0 mm
04:39 AM -4.6°F-20.3°C -6.5°F-21.4°C 91% 3.0 mph SE4.8 kmh SE -- 29.85 in1010.8 mb 0.00 in0.0 mm 0.00 in0.0 mm 0.00 in0.0 mm
04:40 AM -4.9°F-20.5°C -6.9°F-21.6°C 91% 4.0 mph ESE6.4 kmh ESE -- 29.85 in1010.8 mb 0.00 in0.0 mm 0.00 in0.0 mm 0.00 in0.0 mm
04:41 AM -4.9°F-20.5°C -6.9°F-21.6°C 91% 3.0 mph ESE4.8 kmh ESE -- 29.85 in1010.8 mb 0.00 in0.0 mm 0.00 in0.0 mm 0.00 in0.0 mm
04:42 AM -4.9°F-20.5°C -6.9°F-21.6°C 91% 3.0 mph E4.8 kmh E -- 29.85 in1010.8 mb 0.00 in0.0 mm 0.00 in0.0 mm 0.00 in0.0 mm
04:43 AM -4.9°F-20.5°C -6.9°F-21.6°C 91% 4.0 mph ESE6.4 kmh ESE -- 29.85 in1010.8 mb 0.00 in0.0 mm 0.00 in0.0 mm 0.00 in0.0 mm
04:44 AM -4.9°F-20.5°C -6.9°F-21.6°C 91% 3.0 mph ESE4.8 kmh ESE -- 29.85 in1010.8 mb 0.00 in0.0 mm 0.00 in0.0 mm 0.00 in0.0 mm
04:45 AM -4.9°F-20.5°C -6.9°F-21.6°C 91% 2.0 mph ESE3.2 kmh ESE -- 29.85 in1010.8 mb 0.00 in0.0 mm 0.00 in0.0 mm 0.00 in0.0 mm
04:46 AM -5.0°F-20.6°C -7.1°F-21.7°C 91% 5.0 mph ESE8.0 kmh ESE -- 29.85 in1010.8 mb 0.00 in0.0 mm 0.00 in0.0 mm 0.00 in0.0 mm
04:47 AM -5.0°F-20.6°C -7.1°F-21.7°C 91% 2.0 mph SSE3.2 kmh SSE -- 29.85 in1010.8 mb 0.00 in0.0 mm 0.00 in0.0 mm 0.00 in0.0 mm
04:48 AM -5.0°F-20.6°C -7.1°F-21.7°C 91% 4.0 mph ESE6.4 kmh ESE -- 29.85 in1010.8 mb 0.00 in0.0 mm 0.00 in0.0 mm 0.00 in0.0 mm
04:49 AM -5.0°F-20.6°C -7.1°F-21.7°C 91% 3.0 mph ESE4.8 kmh ESE -- 29.84 in1010.5 mb 0.00 in0.0 mm 0.00 in0.0 mm 0.00 in0.0 mm
04:50 AM -5.0°F-20.6°C -7.1°F-21.7°C 91% 4.0 mph SSE6.4 kmh SSE -- 29.85 in1010.8 mb 0.00 in0.0 mm 0.00 in0.0 mm 0.00 in0.0 mm
04:51 AM -5.0°F-20.6°C -7.1°F-21.7°C 91% 2.0 mph ESE3.2 kmh ESE -- 29.84 in1010.5 mb 0.00 in0.0 mm 0.00 in0.0 mm 0.00 in0.0 mm
04:52 AM -5.0°F-20.6°C -7.1°F-21.7°C 91% 2.0 mph E3.2 kmh E -- 29.84 in1010.5 mb 0.00 in0.0 mm 0.00 in0.0 mm 0.00 in0.0 mm
04:53 AM -5.3°F-20.7°C -7.2°F-21.8°C 91% 2.0 mph ENE3.2 kmh ENE -- 29.84 in1010.5 mb 0.00 in0.0 mm 0.00 in0.0 mm 0.00 in0.0 mm
04:54 AM -5.3°F-20.7°C -7.2°F-21.8°C 91% 2.0 mph SE3.2 kmh SE -- 29.84 in1010.5 mb 0.00 in0.0 mm 0.00 in0.0 mm 0.00 in0.0 mm
04:55 AM -5.3°F-20.7°C -7.2°F-21.8°C 91% 1.0 mph ESE1.6 kmh ESE -- 29.84 in1010.5 mb 0.00 in0.0 mm 0.00 in0.0 mm 0.00 in0.0 mm
04:57 AM -5.3°F-20.7°C -7.2°F-21.8°C 91% 1.0 mph E1.6 kmh E -- 29.84 in1010.5 mb 0.00 in0.0 mm 0.00 in0.0 mm 0.00 in0.0 mm
04:58 AM -5.3°F-20.7°C -7.2°F-21.8°C 91% 1.0 mph SE1.6 kmh SE -- 29.84 in1010.5 mb 0.00 in0.0 mm 0.00 in0.0 mm 0.00 in0.0 mm
04:59 AM -5.3°F-20.7°C -7.2°F-21.8°C 91% 2.0 mph SSE3.2 kmh SSE -- 29.84 in1010.5 mb 0.00 in0.0 mm 0.00 in0.0 mm 0.00 in0.0 mm
05:00 AM -5.3°F-20.7°C -7.2°F-21.8°C 91% 1.0 mph ESE1.6 kmh ESE -- 29.84 in1010.5 mb 0.00 in0.0 mm 0.00 in0.0 mm 0.00 in0.0 mm
05:01 AM -5.4°F-20.8°C -7.6°F-22.0°C 90% 2.0 mph ESE3.2 kmh ESE -- 29.84 in1010.5 mb 0.00 in0.0 mm 0.00 in0.0 mm 0.00 in0.0 mm
05:02 AM -5.4°F-20.8°C -7.6°F-22.0°C 90% Calm Calm -- 29.84 in1010.5 mb 0.00 in0.0 mm 0.00 in0.0 mm 0.00 in0.0 mm
05:03 AM -5.4°F-20.8°C -7.6°F-22.0°C 90% 3.0 mph ESE4.8 kmh ESE -- 29.84 in1010.5 mb 0.00 in0.0 mm 0.00 in0.0 mm 0.00 in0.0 mm
05:04 AM -5.4°F-20.8°C -7.6°F-22.0°C 90% 2.0 mph E3.2 kmh E -- 29.84 in1010.5 mb 0.00 in0.0 mm 0.00 in0.0 mm 0.00 in0.0 mm
05:06 AM -5.4°F-20.8°C -7.6°F-22.0°C 90% 1.0 mph E1.6 kmh E -- 29.84 in1010.5 mb 0.00 in0.0 mm 0.00 in0.0 mm 0.00 in0.0 mm
05:07 AM -5.4°F-20.8°C -7.6°F-22.0°C 90% 2.0 mph ENE3.2 kmh ENE -- 29.84 in1010.5 mb 0.00 in0.0 mm 0.00 in0.0 mm 0.00 in0.0 mm
05:09 AM -5.4°F-20.8°C -7.6°F-22.0°C 90% Calm Calm -- 29.84 in1010.5 mb 0.00 in0.0 mm 0.00 in0.0 mm 0.00 in0.0 mm
05:10 AM -5.4°F-20.8°C -7.6°F-22.0°C 90% 2.0 mph ESE3.2 kmh ESE -- 29.84 in1010.5 mb 0.00 in0.0 mm 0.00 in0.0 mm 0.00 in0.0 mm
05:13 AM -5.5°F-20.8°C -7.6°F-22.0°C 90% 3.0 mph ESE4.8 kmh ESE -- 29.84 in1010.5 mb 0.00 in0.0 mm 0.00 in0.0 mm 0.00 in0.0 mm
05:14 AM -5.5°F-20.8°C -7.6°F-22.0°C 90% 3.0 mph E4.8 kmh E -- 29.84 in1010.5 mb 0.00 in0.0 mm 0.00 in0.0 mm 0.00 in0.0 mm
05:15 AM -5.5°F-20.8°C -7.6°F-22.0°C 90% 2.0 mph ESE3.2 kmh ESE -- 29.84 in1010.5 mb 0.00 in0.0 mm 0.00 in0.0 mm 0.00 in0.0 mm
05:16 AM -5.5°F-20.8°C -7.6°F-22.0°C 90% 4.0 mph E6.4 kmh E -- 29.84 in1010.5 mb 0.00 in0.0 mm 0.00 in0.0 mm 0.00 in0.0 mm
05:17 AM -5.5°F-20.8°C -7.4°F-21.9°C 91% 3.0 mph SSE4.8 kmh SSE -- 29.83 in1010.2 mb 0.00 in0.0 mm 0.00 in0.0 mm 0.00 in0.0 mm
05:18 AM -5.5°F-20.8°C -7.4°F-21.9°C 91% 2.0 mph SSE3.2 kmh SSE -- 29.84 in1010.5 mb 0.00 in0.0 mm 0.00 in0.0 mm 0.00 in0.0 mm
05:19 AM -5.5°F-20.8°C -7.4°F-21.9°C 91% 4.0 mph ESE6.4 kmh ESE -- 29.84 in1010.5 mb 0.00 in0.0 mm 0.00 in0.0 mm 0.00 in0.0 mm
05:20 AM -5.4°F-20.8°C -7.4°F-21.9°C 91% 4.0 mph ENE6.4 kmh ENE -- 29.84 in1010.5 mb 0.00 in0.0 mm 0.00 in0.0 mm 0.00 in0.0 mm
05:21 AM -5.4°F-20.8°C -7.4°F-21.9°C 91% 3.0 mph ESE4.8 kmh ESE -- 29.83 in1010.2 mb 0.00 in0.0 mm 0.00 in0.0 mm 0.00 in0.0 mm
05:23 AM -5.4°F-20.8°C -7.4°F-21.9°C 91% 4.0 mph ESE6.4 kmh ESE -- 29.84 in1010.5 mb 0.00 in0.0 mm 0.00 in0.0 mm 0.00 in0.0 mm
05:24 AM -5.4°F-20.8°C -7.4°F-21.9°C 91% 2.0 mph ESE3.2 kmh ESE -- 29.84 in1010.5 mb 0.00 in0.0 mm 0.00 in0.0 mm 0.00 in0.0 mm
05:25 AM -5.4°F-20.8°C -7.4°F-21.9°C 91% 3.0 mph E4.8 kmh E -- 29.83 in1010.2 mb 0.00 in0.0 mm 0.00 in0.0 mm 0.00 in0.0 mm
05:26 AM -5.4°F-20.8°C -7.4°F-21.9°C 91% 2.0 mph SE3.2 kmh SE -- 29.83 in1010.2 mb 0.00 in0.0 mm 0.00 in0.0 mm 0.00 in0.0 mm
05:27 AM -5.4°F-20.8°C -7.4°F-21.9°C 91% 3.0 mph SE4.8 kmh SE -- 29.83 in1010.2 mb 0.00 in0.0 mm 0.00 in0.0 mm 0.00 in0.0 mm
05:28 AM -5.4°F-20.8°C -7.4°F-21.9°C 91% 2.0 mph SE3.2 kmh SE -- 29.83 in1010.2 mb 0.00 in0.0 mm 0.00 in0.0 mm 0.00 in0.0 mm
05:29 AM -5.4°F-20.8°C -7.4°F-21.9°C 91% 4.0 mph ESE6.4 kmh ESE -- 29.83 in1010.2 mb 0.00 in0.0 mm 0.00 in0.0 mm 0.00 in0.0 mm
05:30 AM -5.3°F-20.7°C -7.2°F-21.8°C 91% 3.0 mph E4.8 kmh E -- 29.83 in1010.2 mb 0.00 in0.0 mm 0.00 in0.0 mm 0.00 in0.0 mm
05:31 AM -5.3°F-20.7°C -7.2°F-21.8°C 91% 2.0 mph ESE3.2 kmh ESE -- 29.83 in1010.2 mb 0.00 in0.0 mm 0.00 in0.0 mm 0.00 in0.0 mm
05:32 AM -5.3°F-20.7°C -7.2°F-21.8°C 91% 2.0 mph E3.2 kmh E -- 29.83 in1010.2 mb 0.00 in0.0 mm 0.00 in0.0 mm 0.00 in0.0 mm
05:33 AM -5.3°F-20.7°C -7.2°F-21.8°C 91% 3.0 mph ESE4.8 kmh ESE -- 29.83 in1010.2 mb 0.00 in0.0 mm 0.00 in0.0 mm 0.00 in0.0 mm
05:34 AM -5.3°F-20.7°C -7.2°F-21.8°C 91% 3.0 mph E4.8 kmh E -- 29.83 in1010.2 mb 0.00 in0.0 mm 0.00 in0.0 mm 0.00 in0.0 mm
05:35 AM -5.3°F-20.7°C -7.2°F-21.8°C 91% 3.0 mph ESE4.8 kmh ESE -- 29.83 in1010.2 mb 0.00 in0.0 mm 0.00 in0.0 mm 0.00 in0.0 mm
05:36 AM -5.0°F-20.6°C -7.1°F-21.7°C 91% 4.0 mph ESE6.4 kmh ESE -- 29.83 in1010.2 mb 0.00 in0.0 mm 0.00 in0.0 mm 0.00 in0.0 mm
05:37 AM -5.0°F-20.6°C -7.1°F-21.7°C 91% 3.0 mph ESE4.8 kmh ESE -- 29.83 in1010.2 mb 0.00 in0.0 mm 0.00 in0.0 mm 0.00 in0.0 mm
05:38 AM -5.0°F-20.6°C -7.1°F-21.7°C 91% 4.0 mph E6.4 kmh E -- 29.83 in1010.2 mb 0.00 in0.0 mm 0.00 in0.0 mm 0.00 in0.0 mm
05:39 AM -5.0°F-20.6°C -7.1°F-21.7°C 91% 3.0 mph E4.8 kmh E -- 29.83 in1010.2 mb 0.00 in0.0 mm 0.00 in0.0 mm 0.00 in0.0 mm
05:41 AM -5.0°F-20.6°C -7.1°F-21.7°C 91% 5.0 mph ESE8.0 kmh ESE -- 29.83 in1010.2 mb 0.00 in0.0 mm 0.00 in0.0 mm 0.00 in0.0 mm
05:42 AM -5.0°F-20.6°C -7.1°F-21.7°C 91% 3.0 mph E4.8 kmh E -- 29.83 in1010.2 mb 0.00 in0.0 mm 0.00 in0.0 mm 0.00 in0.0 mm
05:43 AM -5.0°F-20.6°C -7.1°F-21.7°C 91% 4.0 mph ESE6.4 kmh ESE -- 29.82 in1009.8 mb 0.00 in0.0 mm 0.00 in0.0 mm 0.00 in0.0 mm
05:44 AM -5.0°F-20.6°C -7.1°F-21.7°C 91% 3.0 mph E4.8 kmh E -- 29.82 in1009.8 mb 0.00 in0.0 mm 0.00 in0.0 mm 0.00 in0.0 mm
05:45 AM -5.0°F-20.6°C -7.1°F-21.7°C 91% 3.0 mph ESE4.8 kmh ESE -- 29.83 in1010.2 mb 0.00 in0.0 mm 0.00 in0.0 mm 0.00 in0.0 mm
05:46 AM -5.0°F-20.6°C -7.1°F-21.7°C 91% 2.0 mph ESE3.2 kmh ESE -- 29.83 in1010.2 mb 0.00 in0.0 mm 0.00 in0.0 mm 0.00 in0.0 mm
05:47 AM -5.0°F-20.6°C -7.1°F-21.7°C 91% 5.0 mph SE8.0 kmh SE -- 29.83 in1010.2 mb 0.00 in0.0 mm 0.00 in0.0 mm 0.00 in0.0 mm
05:48 AM -5.0°F-20.6°C -7.1°F-21.7°C 91% 3.0 mph ESE4.8 kmh ESE -- 29.83 in1010.2 mb 0.00 in0.0 mm 0.00 in0.0 mm 0.00 in0.0 mm
05:49 AM -5.0°F-20.6°C -7.1°F-21.7°C 91% 3.0 mph E4.8 kmh E -- 29.82 in1009.8 mb 0.00 in0.0 mm 0.00 in0.0 mm 0.00 in0.0 mm
05:50 AM -5.0°F-20.6°C -7.1°F-21.7°C 91% 3.0 mph ENE4.8 kmh ENE -- 29.82 in1009.8 mb 0.00 in0.0 mm 0.00 in0.0 mm 0.00 in0.0 mm
05:51 AM -5.0°F-20.6°C -7.1°F-21.7°C 91% 4.0 mph ESE6.4 kmh ESE -- 29.82 in1009.8 mb 0.00 in0.0 mm 0.00 in0.0 mm 0.00 in0.0 mm
05:52 AM -5.0°F-20.6°C -7.1°F-21.7°C 91% 2.0 mph ESE3.2 kmh ESE -- 29.82 in1009.8 mb 0.00 in0.0 mm 0.00 in0.0 mm 0.00 in0.0 mm
05:53 AM -5.0°F-20.6°C -7.1°F-21.7°C 91% 3.0 mph ESE4.8 kmh ESE -- 29.82 in1009.8 mb 0.00 in0.0 mm 0.00 in0.0 mm 0.00 in0.0 mm
05:54 AM -5.0°F-20.6°C -7.1°F-21.7°C 91% 5.0 mph E8.0 kmh E -- 29.82 in1009.8 mb 0.00 in0.0 mm 0.00 in0.0 mm 0.00 in0.0 mm
05:56 AM -5.0°F-20.6°C -7.1°F-21.7°C 91% 4.0 mph ENE6.4 kmh ENE -- 29.82 in1009.8 mb 0.00 in0.0 mm 0.00 in0.0 mm 0.00 in0.0 mm
05:57 AM -5.0°F-20.6°C -7.1°F-21.7°C 91% 4.0 mph NE6.4 kmh NE -- 29.82 in1009.8 mb 0.00 in0.0 mm 0.00 in0.0 mm 0.00 in0.0 mm
05:58 AM -5.0°F-20.6°C -7.1°F-21.7°C 91% 4.0 mph ESE6.4 kmh ESE -- 29.82 in1009.8 mb 0.00 in0.0 mm 0.00 in0.0 mm 0.00 in0.0 mm
05:59 AM -5.0°F-20.6°C -7.1°F-21.7°C 91% 6.0 mph ESE9.7 kmh ESE -- 29.82 in1009.8 mb 0.00 in0.0 mm 0.00 in0.0 mm 0.00 in0.0 mm
06:00 AM -5.0°F-20.6°C -7.1°F-21.7°C 91% 3.0 mph ESE4.8 kmh ESE -- 29.83 in1010.2 mb 0.00 in0.0 mm 0.00 in0.0 mm 0.00 in0.0 mm
06:01 AM -5.0°F-20.6°C -7.1°F-21.7°C 91% 3.0 mph E4.8 kmh E -- 29.82 in1009.8 mb 0.00 in0.0 mm 0.00 in0.0 mm 0.00 in0.0 mm
06:02 AM -5.0°F-20.6°C -7.1°F-21.7°C 91% 3.0 mph ESE4.8 kmh ESE -- 29.82 in1009.8 mb 0.00 in0.0 mm 0.00 in0.0 mm 0.00 in0.0 mm
06:03 AM -5.0°F-20.6°C -7.1°F-21.7°C 91% 2.0 mph ESE3.2 kmh ESE -- 29.82 in1009.8 mb 0.00 in0.0 mm 0.00 in0.0 mm 0.00 in0.0 mm
06:05 AM -5.0°F-20.6°C -7.1°F-21.7°C 91% 3.0 mph E4.8 kmh E -- 29.82 in1009.8 mb 0.00 in0.0 mm 0.00 in0.0 mm 0.00 in0.0 mm
06:07 AM -5.0°F-20.6°C -7.1°F-21.7°C 91% 4.0 mph E6.4 kmh E -- 29.83 in1010.2 mb 0.00 in0.0 mm 0.00 in0.0 mm 0.00 in0.0 mm
06:08 AM -5.3°F-20.7°C -7.2°F-21.8°C 91% 3.0 mph E4.8 kmh E -- 29.83 in1010.2 mb 0.00 in0.0 mm 0.00 in0.0 mm 0.00 in0.0 mm
06:09 AM -5.3°F-20.7°C -7.2°F-21.8°C 91% 4.0 mph E6.4 kmh E -- 29.82 in1009.8 mb 0.00 in0.0 mm 0.00 in0.0 mm 0.00 in0.0 mm
06:10 AM -5.3°F-20.7°C -7.2°F-21.8°C 91% 3.0 mph ESE4.8 kmh ESE -- 29.82 in1009.8 mb 0.00 in0.0 mm 0.00 in0.0 mm 0.00 in0.0 mm
06:11 AM -5.4°F-20.8°C -7.4°F-21.9°C 91% 3.0 mph ESE4.8 kmh ESE -- 29.82 in1009.8 mb 0.00 in0.0 mm 0.00 in0.0 mm 0.00 in0.0 mm
06:12 AM -5.4°F-20.8°C -7.6°F-22.0°C 90% 2.0 mph E3.2 kmh E -- 29.82 in1009.8 mb 0.00 in0.0 mm 0.00 in0.0 mm 0.00 in0.0 mm
06:13 AM -5.4°F-20.8°C -7.6°F-22.0°C 90% 2.0 mph ESE3.2 kmh ESE -- 29.82 in1009.8 mb 0.00 in0.0 mm 0.00 in0.0 mm 0.00 in0.0 mm
06:14 AM -5.4°F-20.8°C -7.6°F-22.0°C 90% 4.0 mph E6.4 kmh E -- 29.82 in1009.8 mb 0.00 in0.0 mm 0.00 in0.0 mm 0.00 in0.0 mm
06:15 AM -5.5°F-20.8°C -7.6°F-22.0°C 90% 4.0 mph ESE6.4 kmh ESE -- 29.82 in1009.8 mb 0.00 in0.0 mm 0.00 in0.0 mm 0.00 in0.0 mm
06:16 AM -5.5°F-20.8°C -7.6°F-22.0°C 90% 4.0 mph E6.4 kmh E -- 29.82 in1009.8 mb 0.00 in0.0 mm 0.00 in0.0 mm 0.00 in0.0 mm
06:17 AM -5.5°F-20.8°C -7.6°F-22.0°C 90% 5.0 mph E8.0 kmh E -- 29.83 in1010.2 mb 0.00 in0.0 mm 0.00 in0.0 mm 0.00 in0.0 mm
06:18 AM -5.5°F-20.8°C -7.6°F-22.0°C 90% 4.0 mph ESE6.4 kmh ESE -- 29.82 in1009.8 mb 0.00 in0.0 mm 0.00 in0.0 mm 0.00 in0.0 mm
06:19 AM -5.3°F-20.7°C -7.2°F-21.8°C 91% 4.0 mph ESE6.4 kmh ESE -- 29.82 in1009.8 mb 0.00 in0.0 mm 0.00 in0.0 mm 0.00 in0.0 mm
06:20 AM -5.5°F-20.8°C -7.6°F-22.0°C 90% 3.0 mph SSE4.8 kmh SSE -- 29.82 in1009.8 mb 0.00 in0.0 mm 0.00 in0.0 mm 0.00 in0.0 mm
06:21 AM -5.5°F-20.8°C -7.6°F-22.0°C 90% 4.0 mph ESE6.4 kmh ESE -- 29.82 in1009.8 mb 0.00 in0.0 mm 0.00 in0.0 mm 0.00 in0.0 mm
06:22 AM -5.5°F-20.8°C -7.6°F-22.0°C 90% 4.0 mph E6.4 kmh E -- 29.82 in1009.8 mb 0.00 in0.0 mm 0.00 in0.0 mm 0.00 in0.0 mm
06:23 AM -5.5°F-20.8°C -7.6°F-22.0°C 90% 3.0 mph E4.8 kmh E -- 29.83 in1010.2 mb 0.00 in0.0 mm 0.00 in0.0 mm 0.00 in0.0 mm
06:24 AM -5.5°F-20.8°C -7.6°F-22.0°C 90% 2.0 mph ESE3.2 kmh ESE -- 29.83 in1010.2 mb 0.00 in0.0 mm 0.00 in0.0 mm 0.00 in0.0 mm
06:26 AM -5.5°F-20.8°C -7.6°F-22.0°C 90% 3.0 mph SE4.8 kmh SE -- 29.83 in1010.2 mb 0.00 in0.0 mm 0.00 in0.0 mm 0.00 in0.0 mm
06:27 AM -5.6°F-20.9°C -7.8°F-22.1°C 90% 3.0 mph SE4.8 kmh SE -- 29.83 in1010.2 mb 0.00 in0.0 mm 0.00 in0.0 mm 0.00 in0.0 mm
06:28 AM -5.8°F-21.0°C -8.0°F-22.2°C 90% 3.0 mph SE4.8 kmh SE -- 29.83 in1010.2 mb 0.00 in0.0 mm 0.00 in0.0 mm 0.00 in0.0 mm
06:29 AM -5.8°F-21.0°C -8.0°F-22.2°C 90% 2.0 mph ESE3.2 kmh ESE -- 29.83 in1010.2 mb 0.00 in0.0 mm 0.00 in0.0 mm 0.00 in0.0 mm
06:30 AM -5.8°F-21.0°C -8.0°F-22.2°C 90% 3.0 mph ESE4.8 kmh ESE -- 29.83 in1010.2 mb 0.00 in0.0 mm 0.00 in0.0 mm 0.00 in0.0 mm
06:31 AM -6.0°F-21.1°C -8.2°F-22.3°C 90% 3.0 mph ESE4.8 kmh ESE -- 29.82 in1009.8 mb 0.00 in0.0 mm 0.00 in0.0 mm 0.00 in0.0 mm
06:32 AM -6.0°F-21.1°C -8.2°F-22.3°C 90% 2.0 mph SE3.2 kmh SE -- 29.82 in1009.8 mb 0.00 in0.0 mm 0.00 in0.0 mm 0.00 in0.0 mm
06:33 AM -6.0°F-21.1°C -8.2°F-22.3°C 90% 3.0 mph ESE4.8 kmh ESE -- 29.82 in1009.8 mb 0.00 in0.0 mm 0.00 in0.0 mm 0.00 in0.0 mm
06:35 AM -6.0°F-21.1°C -8.2°F-22.3°C 90% 4.0 mph ESE6.4 kmh ESE -- 29.82 in1009.8 mb 0.00 in0.0 mm 0.00 in0.0 mm 0.00 in0.0 mm
06:36 AM -6.0°F-21.1°C -8.2°F-22.3°C 90% 2.0 mph E3.2 kmh E -- 29.83 in1010.2 mb 0.00 in0.0 mm 0.00 in0.0 mm 0.00 in0.0 mm
06:37 AM -6.1°F-21.2°C -8.3°F-22.4°C 90% 3.0 mph ESE4.8 kmh ESE -- 29.82 in1009.8 mb 0.00 in0.0 mm 0.00 in0.0 mm 0.00 in0.0 mm
06:39 AM -6.1°F-21.2°C -8.3°F-22.4°C 90% 3.0 mph SE4.8 kmh SE -- 29.82 in1009.8 mb 0.00 in0.0 mm 0.00 in0.0 mm 0.00 in0.0 mm
06:40 AM -6.1°F-21.2°C -8.3°F-22.4°C 90% 3.0 mph ESE4.8 kmh ESE -- 29.82 in1009.8 mb 0.00 in0.0 mm 0.00 in0.0 mm 0.00 in0.0 mm
06:41 AM -6.1°F-21.2°C -8.3°F-22.4°C 90% 2.0 mph SSE3.2 kmh SSE -- 29.82 in1009.8 mb 0.00 in0.0 mm 0.00 in0.0 mm 0.00 in0.0 mm
06:42 AM -6.3°F-21.3°C -8.5°F-22.5°C 90% 3.0 mph E4.8 kmh E -- 29.82 in1009.8 mb 0.00 in0.0 mm 0.00 in0.0 mm 0.00 in0.0 mm
06:43 AM -6.3°F-21.3°C -8.5°F-22.5°C 90% 3.0 mph ESE4.8 kmh ESE -- 29.82 in1009.8 mb 0.00 in0.0 mm 0.00 in0.0 mm 0.00 in0.0 mm
06:44 AM -6.3°F-21.3°C -8.5°F-22.5°C 90% 2.0 mph ESE3.2 kmh ESE -- 29.82 in1009.8 mb 0.00 in0.0 mm 0.00 in0.0 mm 0.00 in0.0 mm
06:46 AM -6.3°F-21.3°C -8.5°F-22.5°C 90% 1.0 mph ESE1.6 kmh ESE -- 29.82 in1009.8 mb 0.00 in0.0 mm 0.00 in0.0 mm 0.00 in0.0 mm
06:47 AM -6.5°F-21.4°C -8.7°F-22.6°C 90% 1.0 mph ESE1.6 kmh ESE -- 29.82 in1009.8 mb 0.00 in0.0 mm 0.00 in0.0 mm 0.00 in0.0 mm
06:48 AM -6.5°F-21.4°C -8.7°F-22.6°C 90% Calm Calm -- 29.82 in1009.8 mb 0.00 in0.0 mm 0.00 in0.0 mm 0.00 in0.0 mm
06:49 AM -6.5°F-21.4°C -8.7°F-22.6°C 90% 2.0 mph ESE3.2 kmh ESE -- 29.82 in1009.8 mb 0.00 in0.0 mm 0.00 in0.0 mm 0.00 in0.0 mm
06:50 AM -6.6°F-21.4°C -8.7°F-22.6°C 90% 2.0 mph ESE3.2 kmh ESE -- 29.82 in1009.8 mb 0.00 in0.0 mm 0.00 in0.0 mm 0.00 in0.0 mm
06:52 AM -6.6°F-21.4°C -8.7°F-22.6°C 90% 3.0 mph ESE4.8 kmh ESE -- 29.82 in1009.8 mb 0.00 in0.0 mm 0.00 in0.0 mm 0.00 in0.0 mm
06:54 AM -6.9°F-21.6°C -9.1°F-22.8°C 90% 3.0 mph ESE4.8 kmh ESE -- 29.82 in1009.8 mb 0.00 in0.0 mm 0.00 in0.0 mm 0.00 in0.0 mm
06:58 AM -6.9°F-21.6°C -9.1°F-22.8°C 90% 3.0 mph E4.8 kmh E -- 29.82 in1009.8 mb 0.00 in0.0 mm 0.00 in0.0 mm 0.00 in0.0 mm
06:59 AM -6.9°F-21.6°C -9.1°F-22.8°C 90% 3.0 mph SE4.8 kmh SE -- 29.82 in1009.8 mb 0.00 in0.0 mm 0.00 in0.0 mm 0.00 in0.0 mm
07:00 AM -6.9°F-21.6°C -9.1°F-22.8°C 90% 2.0 mph ESE3.2 kmh ESE -- 29.82 in1009.8 mb 0.00 in0.0 mm 0.00 in0.0 mm 0.00 in0.0 mm
07:01 AM -6.9°F-21.6°C -9.1°F-22.8°C 90% 3.0 mph ESE4.8 kmh ESE -- 29.82 in1009.8 mb 0.00 in0.0 mm 0.00 in0.0 mm 0.00 in0.0 mm
07:02 AM -6.9°F-21.6°C -9.1°F-22.8°C 90% 2.0 mph SE3.2 kmh SE -- 29.82 in1009.8 mb 0.00 in0.0 mm 0.00 in0.0 mm 0.00 in0.0 mm
07:03 AM -6.9°F-21.6°C -9.1°F-22.8°C 90% 3.0 mph SSE4.8 kmh SSE -- 29.82 in1009.8 mb 0.00 in0.0 mm 0.00 in0.0 mm 0.00 in0.0 mm
07:04 AM -7.0°F-21.7°C -9.2°F-22.9°C 90% 3.0 mph SE4.8 kmh SE -- 29.82 in1009.8 mb 0.00 in0.0 mm 0.00 in0.0 mm 0.00 in0.0 mm
07:05 AM -7.0°F-21.7°C -9.2°F-22.9°C 90% 3.0 mph ESE4.8 kmh ESE -- 29.82 in1009.8 mb 0.00 in0.0 mm 0.00 in0.0 mm 0.00 in0.0 mm
07:06 AM -7.0°F-21.7°C -9.2°F-22.9°C 90% 3.0 mph SE4.8 kmh SE -- 29.82 in1009.8 mb 0.00 in0.0 mm 0.00 in0.0 mm 0.00 in0.0 mm
07:08 AM -7.0°F-21.7°C -9.2°F-22.9°C 90% 2.0 mph SE3.2 kmh SE -- 29.82 in1009.8 mb 0.00 in0.0 mm 0.00 in0.0 mm 0.00 in0.0 mm
07:09 AM -7.0°F-21.7°C -9.2°F-22.9°C 90% 3.0 mph ESE4.8 kmh ESE -- 29.82 in1009.8 mb 0.00 in0.0 mm 0.00 in0.0 mm 0.00 in0.0 mm
07:10 AM -7.0°F-21.7°C -9.2°F-22.9°C 90% 2.0 mph ESE3.2 kmh ESE -- 29.82 in1009.8 mb 0.00 in0.0 mm 0.00 in0.0 mm 0.00 in0.0 mm
07:13 AM -7.0°F-21.7°C -9.2°F-22.9°C 90% 1.0 mph E1.6 kmh E -- 29.82 in1009.8 mb 0.00 in0.0 mm 0.00 in0.0 mm 0.00 in0.0 mm
07:14 AM -7.0°F-21.7°C -9.2°F-22.9°C 90% 2.0 mph SE3.2 kmh SE -- 29.82 in1009.8 mb 0.00 in0.0 mm 0.00 in0.0 mm 0.00 in0.0 mm
07:15 AM -7.1°F-21.7°C -9.2°F-22.9°C 90% 2.0 mph E3.2 kmh E -- 29.81 in1009.5 mb 0.00 in0.0 mm 0.00 in0.0 mm 0.00 in0.0 mm
07:16 AM -7.1°F-21.7°C -9.2°F-22.9°C 90% 3.0 mph E4.8 kmh E -- 29.81 in1009.5 mb 0.00 in0.0 mm 0.00 in0.0 mm 0.00 in0.0 mm
07:17 AM -7.1°F-21.7°C -9.2°F-22.9°C 90% 3.0 mph ESE4.8 kmh ESE -- 29.82 in1009.8 mb 0.00 in0.0 mm 0.00 in0.0 mm 0.00 in0.0 mm
07:18 AM -7.1°F-21.7°C -9.2°F-22.9°C 90% 2.0 mph SE3.2 kmh SE -- 29.82 in1009.8 mb 0.00 in0.0 mm 0.00 in0.0 mm 0.00 in0.0 mm
07:19 AM -7.1°F-21.7°C -9.2°F-22.9°C 90% 2.0 mph SE3.2 kmh SE -- 29.81 in1009.5 mb 0.00 in0.0 mm 0.00 in0.0 mm 0.00 in0.0 mm
07:20 AM -7.1°F-21.7°C -9.2°F-22.9°C 90% 3.0 mph ESE4.8 kmh ESE -- 29.81 in1009.5 mb 0.00 in0.0 mm 0.00 in0.0 mm 0.00 in0.0 mm
07:21 AM -7.1°F-21.7°C -9.2°F-22.9°C 90% 2.0 mph ESE3.2 kmh ESE -- 29.81 in1009.5 mb 0.00 in0.0 mm 0.00 in0.0 mm 0.00 in0.0 mm
07:23 AM -7.1°F-21.7°C -9.2°F-22.9°C 90% 2.0 mph SSE3.2 kmh SSE -- 29.81 in1009.5 mb 0.00 in0.0 mm 0.00 in0.0 mm 0.00 in0.0 mm
07:24 AM -7.1°F-21.7°C -9.2°F-22.9°C 90% 2.0 mph ESE3.2 kmh ESE -- 29.81 in1009.5 mb 0.00 in0.0 mm 0.00 in0.0 mm 0.00 in0.0 mm
07:25 AM -7.1°F-21.7°C -9.2°F-22.9°C 90% 3.0 mph ESE4.8 kmh ESE -- 29.81 in1009.5 mb 0.00 in0.0 mm 0.00 in0.0 mm 0.00 in0.0 mm
07:26 AM -7.1°F-21.7°C -9.2°F-22.9°C 90% 2.0 mph ESE3.2 kmh ESE -- 29.81 in1009.5 mb 0.00 in0.0 mm 0.00 in0.0 mm 0.00 in0.0 mm
07:31 AM -7.4°F-21.9°C -9.6°F-23.1°C 90% 2.0 mph ESE3.2 kmh ESE -- 29.81 in1009.5 mb 0.00 in0.0 mm 0.00 in0.0 mm 0.00 in0.0 mm
07:32 AM -7.4°F-21.9°C -9.6°F-23.1°C 90% 3.0 mph SE4.8 kmh SE -- 29.81 in1009.5 mb 0.00 in0.0 mm 0.00 in0.0 mm 0.00 in0.0 mm
07:33 AM -7.4°F-21.9°C -9.6°F-23.1°C 90% 2.0 mph ESE3.2 kmh ESE -- 29.81 in1009.5 mb 0.00 in0.0 mm 0.00 in0.0 mm 0.00 in0.0 mm
07:34 AM -7.4°F-21.9°C -9.6°F-23.1°C 90% 3.0 mph ESE4.8 kmh ESE -- 29.81 in1009.5 mb 0.00 in0.0 mm 0.00 in0.0 mm 0.00 in0.0 mm
07:36 AM -7.4°F-21.9°C -9.6°F-23.1°C 90% 4.0 mph ESE6.4 kmh ESE -- 29.81 in1009.5 mb 0.00 in0.0 mm 0.00 in0.0 mm 0.00 in0.0 mm
07:37 AM -7.4°F-21.9°C -9.6°F-23.1°C 90% 2.0 mph ESE3.2 kmh ESE -- 29.81 in1009.5 mb 0.00 in0.0 mm 0.00 in0.0 mm 0.00 in0.0 mm
07:39 AM -7.4°F-21.9°C -9.6°F-23.1°C 90% 3.0 mph ESE4.8 kmh ESE -- 29.81 in1009.5 mb 0.00 in0.0 mm 0.00 in0.0 mm 0.00 in0.0 mm
07:40 AM -7.4°F-21.9°C -9.6°F-23.1°C 90% 3.0 mph SE4.8 kmh SE -- 29.81 in1009.5 mb 0.00 in0.0 mm 0.00 in0.0 mm 0.00 in0.0 mm
07:41 AM -7.4°F-21.9°C -9.6°F-23.1°C 90% 2.0 mph SSE3.2 kmh SSE -- 29.81 in1009.5 mb 0.00 in0.0 mm 0.00 in0.0 mm 0.00 in0.0 mm
07:42 AM -7.4°F-21.9°C -9.6°F-23.1°C 90% 2.0 mph ESE3.2 kmh ESE -- 29.81 in1009.5 mb 0.00 in0.0 mm 0.00 in0.0 mm 0.00 in0.0 mm
07:43 AM -7.4°F-21.9°C -9.6°F-23.1°C 90% 3.0 mph ESE4.8 kmh ESE -- 29.81 in1009.5 mb 0.00 in0.0 mm 0.00 in0.0 mm 0.00 in0.0 mm
07:45 AM -7.4°F-21.9°C -9.6°F-23.1°C 90% 4.0 mph ESE6.4 kmh ESE -- 29.81 in1009.5 mb 0.00 in0.0 mm 0.00 in0.0 mm 0.00 in0.0 mm
07:46 AM -7.4°F-21.9°C -9.6°F-23.1°C 90% 3.0 mph ESE4.8 kmh ESE -- 29.81 in1009.5 mb 0.00 in0.0 mm 0.00 in0.0 mm 0.00 in0.0 mm
07:47 AM -7.4°F-21.9°C -9.6°F-23.1°C 90% 4.0 mph ESE6.4 kmh ESE -- 29.81 in1009.5 mb 0.00 in0.0 mm 0.00 in0.0 mm 0.00 in0.0 mm
07:48 AM -7.4°F-21.9°C -9.6°F-23.1°C 90% 3.0 mph ESE4.8 kmh ESE -- 29.81 in1009.5 mb 0.00 in0.0 mm 0.00 in0.0 mm 0.00 in0.0 mm
07:49 AM -7.4°F-21.9°C -9.6°F-23.1°C 90% 4.0 mph ESE6.4 kmh ESE -- 29.81 in1009.5 mb 0.00 in0.0 mm 0.00 in0.0 mm 0.00 in0.0 mm
07:51 AM -7.4°F-21.9°C -9.6°F-23.1°C 90% 3.0 mph ESE4.8 kmh ESE -- 29.81 in1009.5 mb 0.00 in0.0 mm 0.00 in0.0 mm 0.00 in0.0 mm
07:53 AM -7.4°F-21.9°C -9.6°F-23.1°C 90% 4.0 mph SSE6.4 kmh SSE -- 29.81 in1009.5 mb 0.00 in0.0 mm 0.00 in0.0 mm 0.00 in0.0 mm
07:54 AM -7.4°F-21.9°C -9.6°F-23.1°C 90% 4.0 mph ESE6.4 kmh ESE -- 29.81 in1009.5 mb 0.00 in0.0 mm 0.00 in0.0 mm 0.00 in0.0 mm
07:55 AM -7.4°F-21.9°C -9.6°F-23.1°C 90% 3.0 mph ESE4.8 kmh ESE -- 29.81 in1009.5 mb 0.00 in0.0 mm 0.00 in0.0 mm 0.00 in0.0 mm
07:56 AM -7.4°F-21.9°C -9.6°F-23.1°C 90% 4.0 mph SE6.4 kmh SE -- 29.81 in1009.5 mb 0.00 in0.0 mm 0.00 in0.0 mm 0.00 in0.0 mm
07:57 AM -7.4°F-21.9°C -9.6°F-23.1°C 90% 3.0 mph SE4.8 kmh SE -- 29.80 in1009.1 mb 0.00 in0.0 mm 0.00 in0.0 mm 0.00 in0.0 mm
07:58 AM -7.4°F-21.9°C -9.6°F-23.1°C 90% 4.0 mph ESE6.4 kmh ESE -- 29.80 in1009.1 mb 0.00 in0.0 mm 0.00 in0.0 mm 0.00 in0.0 mm
07:59 AM -7.4°F-21.9°C -9.6°F-23.1°C 90% 5.0 mph ESE8.0 kmh ESE -- 29.80 in1009.1 mb 0.00 in0.0 mm 0.00 in0.0 mm 0.00 in0.0 mm
08:00 AM -7.4°F-21.9°C -9.6°F-23.1°C 90% 3.0 mph ESE4.8 kmh ESE -- 29.81 in1009.5 mb 0.00 in0.0 mm 0.00 in0.0 mm 0.00 in0.0 mm
08:01 AM -7.4°F-21.9°C -9.6°F-23.1°C 90% 4.0 mph ESE6.4 kmh ESE -- 29.81 in1009.5 mb 0.00 in0.0 mm 0.00 in0.0 mm 0.00 in0.0 mm
08:02 AM -7.4°F-21.9°C -9.6°F-23.1°C 90% 3.0 mph SSE4.8 kmh SSE -- 29.80 in1009.1 mb 0.00 in0.0 mm 0.00 in0.0 mm 0.00 in0.0 mm
08:03 AM -7.4°F-21.9°C -9.6°F-23.1°C 90% 5.0 mph SE8.0 kmh SE -- 29.80 in1009.1 mb 0.00 in0.0 mm 0.00 in0.0 mm 0.00 in0.0 mm
08:04 AM -7.4°F-21.9°C -9.6°F-23.1°C 90% 4.0 mph ESE6.4 kmh ESE -- 29.80 in1009.1 mb 0.00 in0.0 mm 0.00 in0.0 mm 0.00 in0.0 mm
08:05 AM -7.4°F-21.9°C -9.6°F-23.1°C 90% 4.0 mph SE6.4 kmh SE -- 29.80 in1009.1 mb 0.00 in0.0 mm 0.00 in0.0 mm 0.00 in0.0 mm
08:06 AM -7.4°F-21.9°C -9.6°F-23.1°C 90% 4.0 mph ESE6.4 kmh ESE -- 29.80 in1009.1 mb 0.00 in0.0 mm 0.00 in0.0 mm 0.00 in0.0 mm
08:09 AM -7.4°F-21.9°C -9.6°F-23.1°C 90% 5.0 mph ESE8.0 kmh ESE -- 29.80 in1009.1 mb 0.00 in0.0 mm 0.00 in0.0 mm 0.00 in0.0 mm
08:10 AM -7.4°F-21.9°C -9.6°F-23.1°C 90% 3.0 mph ESE4.8 kmh ESE -- 29.80 in1009.1 mb 0.00 in0.0 mm 0.00 in0.0 mm 0.00 in0.0 mm
08:11 AM -7.4°F-21.9°C -9.6°F-23.1°C 90% 5.0 mph ESE8.0 kmh ESE -- 29.80 in1009.1 mb 0.00 in0.0 mm 0.00 in0.0 mm 0.00 in0.0 mm
08:12 AM -7.4°F-21.9°C -9.6°F-23.1°C 90% 3.0 mph E4.8 kmh E -- 29.80 in1009.1 mb 0.00 in0.0 mm 0.00 in0.0 mm 0.00 in0.0 mm
08:13 AM -7.1°F-21.7°C -9.2°F-22.9°C 90% 4.0 mph ESE6.4 kmh ESE -- 29.80 in1009.1 mb 0.00 in0.0 mm 0.00 in0.0 mm 0.00 in0.0 mm
08:18 AM -7.1°F-21.7°C -9.2°F-22.9°C 90% 4.0 mph SE6.4 kmh SE -- 29.80 in1009.1 mb 0.00 in0.0 mm 0.00 in0.0 mm 0.00 in0.0 mm
08:19 AM -7.1°F-21.7°C -9.2°F-22.9°C 90% 4.0 mph ESE6.4 kmh ESE -- 29.80 in1009.1 mb 0.00 in0.0 mm 0.00 in0.0 mm 0.00 in0.0 mm
08:20 AM -7.1°F-21.7°C -9.2°F-22.9°C 90% 6.0 mph SE9.7 kmh SE -- 29.80 in1009.1 mb 0.00 in0.0 mm 0.00 in0.0 mm 0.00 in0.0 mm
08:21 AM -7.1°F-21.7°C -9.2°F-22.9°C 90% 3.0 mph SE4.8 kmh SE -- 29.80 in1009.1 mb 0.00 in0.0 mm 0.00 in0.0 mm 0.00 in0.0 mm
08:22 AM -7.1°F-21.7°C -9.2°F-22.9°C 90% 3.0 mph ESE4.8 kmh ESE -- 29.80 in1009.1 mb 0.00 in0.0 mm 0.00 in0.0 mm 0.00 in0.0 mm
08:23 AM -7.1°F-21.7°C -9.2°F-22.9°C 90% 4.0 mph SE6.4 kmh SE -- 29.81 in1009.5 mb 0.00 in0.0 mm 0.00 in0.0 mm 0.00 in0.0 mm
08:24 AM -7.1°F-21.7°C -9.2°F-22.9°C 90% 5.0 mph ESE8.0 kmh ESE -- 29.80 in1009.1 mb 0.00 in0.0 mm 0.00 in0.0 mm 0.00 in0.0 mm
08:25 AM -7.1°F-21.7°C -9.2°F-22.9°C 90% 4.0 mph ESE6.4 kmh ESE -- 29.80 in1009.1 mb 0.00 in0.0 mm 0.00 in0.0 mm 0.00 in0.0 mm
08:26 AM -7.1°F-21.7°C -9.2°F-22.9°C 90% 2.0 mph ESE3.2 kmh ESE -- 29.80 in1009.1 mb 0.00 in0.0 mm 0.00 in0.0 mm 0.00 in0.0 mm
08:27 AM -7.1°F-21.7°C -9.2°F-22.9°C 90% 3.0 mph ESE4.8 kmh ESE -- 29.80 in1009.1 mb 0.00 in0.0 mm 0.00 in0.0 mm 0.00 in0.0 mm
08:29 AM -7.1°F-21.7°C -9.2°F-22.9°C 90% 4.0 mph ESE6.4 kmh ESE -- 29.80 in1009.1 mb 0.00 in0.0 mm 0.00 in0.0 mm 0.00 in0.0 mm
08:30 AM -7.1°F-21.7°C -9.2°F-22.9°C 90% 5.0 mph ESE8.0 kmh ESE -- 29.80 in1009.1 mb 0.00 in0.0 mm 0.00 in0.0 mm 0.00 in0.0 mm
08:31 AM -7.1°F-21.7°C -9.2°F-22.9°C 90% 2.0 mph ESE3.2 kmh ESE -- 29.80 in1009.1 mb 0.00 in0.0 mm 0.00 in0.0 mm 0.00 in0.0 mm
08:33 AM -7.0°F-21.7°C -9.2°F-22.9°C 90% 3.0 mph SSE4.8 kmh SSE -- 29.80 in1009.1 mb 0.00 in0.0 mm 0.00 in0.0 mm 0.00 in0.0 mm
08:34 AM -7.0°F-21.7°C -9.2°F-22.9°C 90% 2.0 mph E3.2 kmh E -- 29.80 in1009.1 mb 0.00 in0.0 mm 0.00 in0.0 mm 0.00 in0.0 mm
08:35 AM -7.0°F-21.7°C -9.2°F-22.9°C 90% 2.0 mph ESE3.2 kmh ESE -- 29.80 in1009.1 mb 0.00 in0.0 mm 0.00 in0.0 mm 0.00 in0.0 mm
08:36 AM -6.9°F-21.6°C -9.1°F-22.8°C 90% 2.0 mph ESE3.2 kmh ESE -- 29.80 in1009.1 mb 0.00 in0.0 mm 0.00 in0.0 mm 0.00 in0.0 mm
08:37 AM -6.9°F-21.6°C -9.1°F-22.8°C 90% 3.0 mph SE4.8 kmh SE -- 29.79 in1008.8 mb 0.00 in0.0 mm 0.00 in0.0 mm 0.00 in0.0 mm
08:38 AM -6.6°F-21.4°C -8.7°F-22.6°C 90% 2.0 mph ESE3.2 kmh ESE -- 29.79 in1008.8 mb 0.00 in0.0 mm 0.00 in0.0 mm 0.00 in0.0 mm
08:39 AM -6.6°F-21.4°C -8.7°F-22.6°C 90% 4.0 mph SSE6.4 kmh SSE -- 29.79 in1008.8 mb 0.00 in0.0 mm 0.00 in0.0 mm 0.00 in0.0 mm
08:40 AM -6.5°F-21.4°C -8.7°F-22.6°C 90% 3.0 mph ESE4.8 kmh ESE -- 29.79 in1008.8 mb 0.00 in0.0 mm 0.00 in0.0 mm 0.00 in0.0 mm
08:41 AM -6.5°F-21.4°C -8.7°F-22.6°C 90% 5.0 mph SSE8.0 kmh SSE -- 29.79 in1008.8 mb 0.00 in0.0 mm 0.00 in0.0 mm 0.00 in0.0 mm
08:42 AM -6.3°F-21.3°C -8.5°F-22.5°C 90% 3.0 mph ESE4.8 kmh ESE -- 29.79 in1008.8 mb 0.00 in0.0 mm 0.00 in0.0 mm 0.00 in0.0 mm
08:43 AM -6.3°F-21.3°C -8.5°F-22.5°C 90% 4.0 mph ESE6.4 kmh ESE -- 29.79 in1008.8 mb 0.00 in0.0 mm 0.00 in0.0 mm 0.00 in0.0 mm
08:44 AM -6.1°F-21.2°C -8.3°F-22.4°C 90% 3.0 mph ESE4.8 kmh ESE -- 29.79 in1008.8 mb 0.00 in0.0 mm 0.00 in0.0 mm 0.00 in0.0 mm
08:45 AM -6.1°F-21.2°C -8.3°F-22.4°C 90% 2.0 mph E3.2 kmh E -- 29.79 in1008.8 mb 0.00 in0.0 mm 0.00 in0.0 mm 0.00 in0.0 mm
08:46 AM -6.1°F-21.2°C -8.3°F-22.4°C 90% 4.0 mph ESE6.4 kmh ESE -- 29.79 in1008.8 mb 0.00 in0.0 mm 0.00 in0.0 mm 0.00 in0.0 mm
08:47 AM -5.8°F-21.0°C -8.0°F-22.2°C 90% 4.0 mph ESE6.4 kmh ESE -- 29.79 in1008.8 mb 0.00 in0.0 mm 0.00 in0.0 mm 0.00 in0.0 mm
08:49 AM -5.8°F-21.0°C -8.0°F-22.2°C 90% 2.0 mph SE3.2 kmh SE -- 29.79 in1008.8 mb 0.00 in0.0 mm 0.00 in0.0 mm 0.00 in0.0 mm
08:50 AM -5.5°F-20.8°C -8.1°F-22.3°C 88% 3.0 mph SE4.8 kmh SE -- 29.79 in1008.8 mb 0.00 in0.0 mm 0.00 in0.0 mm 0.00 in0.0 mm
08:51 AM -5.4°F-20.8°C -8.1°F-22.3°C 88% 3.0 mph ESE4.8 kmh ESE -- 29.79 in1008.8 mb 0.00 in0.0 mm 0.00 in0.0 mm 0.00 in0.0 mm
08:52 AM -5.3°F-20.7°C -7.9°F-22.2°C 88% 4.0 mph ESE6.4 kmh ESE -- 29.79 in1008.8 mb 0.00 in0.0 mm 0.00 in0.0 mm 0.00 in0.0 mm
08:53 AM -5.0°F-20.6°C -7.7°F-22.1°C 88% 3.0 mph ESE4.8 kmh ESE -- 29.79 in1008.8 mb 0.00 in0.0 mm 0.00 in0.0 mm 0.00 in0.0 mm
08:54 AM -5.0°F-20.6°C -7.7°F-22.1°C 88% 4.0 mph SSE6.4 kmh SSE -- 29.79 in1008.8 mb 0.00 in0.0 mm 0.00 in0.0 mm 0.00 in0.0 mm
08:55 AM -5.0°F-20.6°C -7.7°F-22.1°C 88% 4.0 mph ESE6.4 kmh ESE -- 29.79 in1008.8 mb 0.00 in0.0 mm 0.00 in0.0 mm 0.00 in0.0 mm
08:56 AM -4.6°F-20.3°C -7.2°F-21.8°C 88% 4.0 mph E6.4 kmh E -- 29.79 in1008.8 mb 0.00 in0.0 mm 0.00 in0.0 mm 0.00 in0.0 mm
08:57 AM -4.5°F-20.3°C -7.2°F-21.8°C 88% 7.0 mph ESE11.3 kmh ESE -- 29.79 in1008.8 mb 0.00 in0.0 mm 0.00 in0.0 mm 0.00 in0.0 mm
08:58 AM -4.4°F-20.2°C -7.0°F-21.7°C 88% 4.0 mph ESE6.4 kmh ESE -- 29.79 in1008.8 mb 0.00 in0.0 mm 0.00 in0.0 mm 0.00 in0.0 mm
08:59 AM -4.4°F-20.2°C -7.5°F-21.9°C 86% 4.0 mph SSE6.4 kmh SSE -- 29.79 in1008.8 mb 0.00 in0.0 mm 0.00 in0.0 mm 0.00 in0.0 mm
09:00 AM -4.1°F-20.1°C -7.3°F-21.8°C 86% 6.0 mph ESE9.7 kmh ESE -- 29.79 in1008.8 mb 0.00 in0.0 mm 0.00 in0.0 mm 0.00 in0.0 mm
09:01 AM -4.0°F-20.0°C -7.2°F-21.8°C 86% 4.0 mph ESE6.4 kmh ESE -- 29.79 in1008.8 mb 0.00 in0.0 mm 0.00 in0.0 mm 0.00 in0.0 mm
09:02 AM -4.0°F-20.0°C -7.2°F-21.8°C 86% 6.0 mph ESE9.7 kmh ESE -- 29.79 in1008.8 mb 0.00 in0.0 mm 0.00 in0.0 mm 0.00 in0.0 mm
09:03 AM -3.7°F-19.8°C -6.8°F-21.6°C 86% 4.0 mph SE6.4 kmh SE -- 29.79 in1008.8 mb 0.00 in0.0 mm 0.00 in0.0 mm 0.00 in0.0 mm
09:04 AM -3.7°F-19.8°C -6.8°F-21.6°C 86% 6.0 mph ESE9.7 kmh ESE -- 29.79 in1008.8 mb 0.00 in0.0 mm 0.00 in0.0 mm 0.00 in0.0 mm
09:05 AM -3.5°F-19.7°C -6.6°F-21.4°C 86% 4.0 mph ESE6.4 kmh ESE -- 29.79 in1008.8 mb 0.00 in0.0 mm 0.00 in0.0 mm 0.00 in0.0 mm
09:06 AM -3.5°F-19.7°C -6.6°F-21.4°C 86% 6.0 mph ESE9.7 kmh ESE -- 29.79 in1008.8 mb 0.00 in0.0 mm 0.00 in0.0 mm 0.00 in0.0 mm
09:07 AM -3.5°F-19.7°C -6.6°F-21.4°C 86% 5.0 mph ESE8.0 kmh ESE -- 29.79 in1008.8 mb 0.00 in0.0 mm 0.00 in0.0 mm 0.00 in0.0 mm
09:08 AM -3.5°F-19.7°C -6.6°F-21.4°C 86% 3.0 mph ESE4.8 kmh ESE -- 29.80 in1009.1 mb 0.00 in0.0 mm 0.00 in0.0 mm 0.00 in0.0 mm
09:09 AM -2.9°F-19.4°C -6.1°F-21.2°C 86% 5.0 mph SSE8.0 kmh SSE -- 29.79 in1008.8 mb 0.00 in0.0 mm 0.00 in0.0 mm 0.00 in0.0 mm
09:10 AM -3.0°F-19.4°C -6.3°F-21.3°C 85% 5.0 mph ESE8.0 kmh ESE -- 29.79 in1008.8 mb 0.00 in0.0 mm 0.00 in0.0 mm 0.00 in0.0 mm
09:11 AM -3.5°F-19.7°C -6.9°F-21.6°C 85% 5.0 mph ESE8.0 kmh ESE -- 29.79 in1008.8 mb 0.00 in0.0 mm 0.00 in0.0 mm 0.00 in0.0 mm
09:12 AM -3.5°F-19.7°C -6.9°F-21.6°C 85% 6.0 mph ESE9.7 kmh ESE -- 29.79 in1008.8 mb 0.00 in0.0 mm 0.00 in0.0 mm 0.00 in0.0 mm
09:13 AM -3.5°F-19.7°C -6.9°F-21.6°C 85% 7.0 mph ESE11.3 kmh ESE -- 29.79 in1008.8 mb 0.00 in0.0 mm 0.00 in0.0 mm 0.00 in0.0 mm
09:14 AM -4.0°F-20.0°C -7.4°F-21.9°C 85% 4.0 mph E6.4 kmh E -- 29.79 in1008.8 mb 0.00 in0.0 mm 0.00 in0.0 mm 0.00 in0.0 mm
09:15 AM -4.1°F-20.1°C -7.6°F-22.0°C 85% 5.0 mph ESE8.0 kmh ESE -- 29.79 in1008.8 mb 0.00 in0.0 mm 0.00 in0.0 mm 0.00 in0.0 mm
09:16 AM -4.0°F-20.0°C -7.4°F-21.9°C 85% 4.0 mph ESE6.4 kmh ESE -- 29.79 in1008.8 mb 0.00 in0.0 mm 0.00 in0.0 mm 0.00 in0.0 mm
09:17 AM -4.1°F-20.1°C -7.6°F-22.0°C 85% 4.0 mph SE6.4 kmh SE -- 29.79 in1008.8 mb 0.00 in0.0 mm 0.00 in0.0 mm 0.00 in0.0 mm
09:18 AM -4.1°F-20.1°C -7.6°F-22.0°C 85% 5.0 mph SE8.0 kmh SE -- 29.79 in1008.8 mb 0.00 in0.0 mm 0.00 in0.0 mm 0.00 in0.0 mm
09:19 AM -4.4°F-20.2°C -7.8°F-22.1°C 85% 5.0 mph E8.0 kmh E -- 29.79 in1008.8 mb 0.00 in0.0 mm 0.00 in0.0 mm 0.00 in0.0 mm
09:20 AM -4.4°F-20.2°C -7.8°F-22.1°C 85% 4.0 mph ESE6.4 kmh ESE -- 29.79 in1008.8 mb 0.00 in0.0 mm 0.00 in0.0 mm 0.00 in0.0 mm
09:22 AM -4.1°F-20.1°C -7.3°F-21.8°C 86% 4.0 mph ESE6.4 kmh ESE -- 29.80 in1009.1 mb 0.00 in0.0 mm 0.00 in0.0 mm 0.00 in0.0 mm
09:23 AM -4.1°F-20.1°C -7.3°F-21.8°C 86% 4.0 mph SE6.4 kmh SE -- 29.80 in1009.1 mb 0.00 in0.0 mm 0.00 in0.0 mm 0.00 in0.0 mm
09:24 AM -3.7°F-19.8°C -6.8°F-21.6°C 86% 4.0 mph ESE6.4 kmh ESE -- 29.79 in1008.8 mb 0.00 in0.0 mm 0.00 in0.0 mm 0.00 in0.0 mm
09:25 AM -3.7°F-19.8°C -6.8°F-21.6°C 86% 3.0 mph ESE4.8 kmh ESE -- 29.79 in1008.8 mb 0.00 in0.0 mm 0.00 in0.0 mm 0.00 in0.0 mm
09:26 AM -2.9°F-19.4°C -6.3°F-21.3°C 85% 4.0 mph ESE6.4 kmh ESE -- 29.79 in1008.8 mb 0.00 in0.0 mm 0.00 in0.0 mm 0.00 in0.0 mm
09:27 AM -2.9°F-19.4°C -6.8°F-21.6°C 83% 4.0 mph SE6.4 kmh SE -- 29.79 in1008.8 mb 0.00 in0.0 mm 0.00 in0.0 mm 0.00 in0.0 mm
09:28 AM -2.9°F-19.4°C -6.8°F-21.6°C 83% 4.0 mph ESE6.4 kmh ESE -- 29.79 in1008.8 mb 0.00 in0.0 mm 0.00 in0.0 mm 0.00 in0.0 mm
09:29 AM -2.9°F-19.4°C -6.8°F-21.6°C 83% 4.0 mph SSE6.4 kmh SSE -- 29.80 in1009.1 mb 0.00 in0.0 mm 0.00 in0.0 mm 0.00 in0.0 mm
09:30 AM -3.0°F-19.4°C -6.8°F-21.6°C 83% 4.0 mph E6.4 kmh E -- 29.79 in1008.8 mb 0.00 in0.0 mm 0.00 in0.0 mm 0.00 in0.0 mm
09:31 AM -3.0°F-19.4°C -6.8°F-21.6°C 83% 4.0 mph SE6.4 kmh SE -- 29.79 in1008.8 mb 0.00 in0.0 mm 0.00 in0.0 mm 0.00 in0.0 mm
09:32 AM -3.0°F-19.4°C -6.8°F-21.6°C 83% 3.0 mph ESE4.8 kmh ESE -- 29.79 in1008.8 mb 0.00 in0.0 mm 0.00 in0.0 mm 0.00 in0.0 mm
09:33 AM -3.0°F-19.4°C -6.8°F-21.6°C 83% 4.0 mph SE6.4 kmh SE -- 29.79 in1008.8 mb 0.00 in0.0 mm 0.00 in0.0 mm 0.00 in0.0 mm
09:34 AM -3.0°F-19.4°C -6.8°F-21.6°C 83% 4.0 mph ESE6.4 kmh ESE -- 29.79 in1008.8 mb 0.00 in0.0 mm 0.00 in0.0 mm 0.00 in0.0 mm
09:35 AM -3.2°F-19.6°C -7.2°F-21.8°C 83% 4.0 mph SSE6.4 kmh SSE -- 29.80 in1009.1 mb 0.00 in0.0 mm 0.00 in0.0 mm 0.00 in0.0 mm
09:36 AM -3.2°F-19.6°C -7.2°F-21.8°C 83% 4.0 mph ESE6.4 kmh ESE -- 29.79 in1008.8 mb 0.00 in0.0 mm 0.00 in0.0 mm 0.00 in0.0 mm
09:37 AM -3.0°F-19.4°C -6.3°F-21.3°C 85% 4.0 mph ESE6.4 kmh ESE -- 29.79 in1008.8 mb 0.00 in0.0 mm 0.00 in0.0 mm 0.00 in0.0 mm
09:38 AM -3.0°F-19.4°C -6.3°F-21.3°C 85% 4.0 mph E6.4 kmh E -- 29.80 in1009.1 mb 0.00 in0.0 mm 0.00 in0.0 mm 0.00 in0.0 mm
09:39 AM -2.9°F-19.4°C -6.3°F-21.3°C 85% 3.0 mph E4.8 kmh E -- 29.80 in1009.1 mb 0.00 in0.0 mm 0.00 in0.0 mm 0.00 in0.0 mm
09:40 AM -2.9°F-19.4°C -6.3°F-21.3°C 85% 4.0 mph ESE6.4 kmh ESE -- 29.79 in1008.8 mb 0.00 in0.0 mm 0.00 in0.0 mm 0.00 in0.0 mm
09:41 AM -3.0°F-19.4°C -6.3°F-21.3°C 85% 3.0 mph SSE4.8 kmh SSE -- 29.79 in1008.8 mb 0.00 in0.0 mm 0.00 in0.0 mm 0.00 in0.0 mm
09:42 AM -3.0°F-19.4°C -6.3°F-21.3°C 85% 3.0 mph ESE4.8 kmh ESE -- 29.79 in1008.8 mb 0.00 in0.0 mm 0.00 in0.0 mm 0.00 in0.0 mm
09:43 AM -2.9°F-19.4°C -6.3°F-21.3°C 85% 4.0 mph E6.4 kmh E -- 29.79 in1008.8 mb 0.00 in0.0 mm 0.00 in0.0 mm 0.00 in0.0 mm
09:44 AM -2.9°F-19.4°C -6.3°F-21.3°C 85% 3.0 mph ESE4.8 kmh ESE -- 29.79 in1008.8 mb 0.00 in0.0 mm 0.00 in0.0 mm 0.00 in0.0 mm
09:46 AM -2.7°F-19.3°C -6.2°F-21.2°C 85% 3.0 mph SE4.8 kmh SE -- 29.79 in1008.8 mb 0.00 in0.0 mm 0.00 in0.0 mm 0.00 in0.0 mm
09:47 AM -2.7°F-19.3°C -6.2°F-21.2°C 85% 2.0 mph ESE3.2 kmh ESE -- 29.79 in1008.8 mb 0.00 in0.0 mm 0.00 in0.0 mm 0.00 in0.0 mm
09:48 AM -2.7°F-19.3°C -6.2°F-21.2°C 85% 3.0 mph ESE4.8 kmh ESE -- 29.79 in1008.8 mb 0.00 in0.0 mm 0.00 in0.0 mm 0.00 in0.0 mm
09:49 AM -2.5°F-19.2°C -5.7°F-20.9°C 86% 4.0 mph E6.4 kmh E -- 29.79 in1008.8 mb 0.00 in0.0 mm 0.00 in0.0 mm 0.00 in0.0 mm
09:50 AM -2.7°F-19.3°C -5.9°F-21.1°C 86% 3.0 mph SE4.8 kmh SE -- 29.79 in1008.8 mb 0.00 in0.0 mm 0.00 in0.0 mm 0.00 in0.0 mm
09:52 AM -2.4°F-19.1°C -5.6°F-20.9°C 86% 3.0 mph ESE4.8 kmh ESE -- 29.79 in1008.8 mb 0.00 in0.0 mm 0.00 in0.0 mm 0.00 in0.0 mm
09:53 AM -2.4°F-19.1°C -5.6°F-20.9°C 86% 3.0 mph ENE4.8 kmh ENE -- 29.80 in1009.1 mb 0.00 in0.0 mm 0.00 in0.0 mm 0.00 in0.0 mm
09:54 AM -2.0°F-18.9°C -5.2°F-20.7°C 86% 2.0 mph ESE3.2 kmh ESE -- 29.79 in1008.8 mb 0.00 in0.0 mm 0.00 in0.0 mm 0.00 in0.0 mm
09:55 AM -2.0°F-18.9°C -5.2°F-20.7°C 86% 4.0 mph ESE6.4 kmh ESE -- 29.79 in1008.8 mb 0.00 in0.0 mm 0.00 in0.0 mm 0.00 in0.0 mm
09:56 AM -1.7°F-18.7°C -4.9°F-20.5°C 86% 4.0 mph ESE6.4 kmh ESE -- 29.79 in1008.8 mb 0.00 in0.0 mm 0.00 in0.0 mm 0.00 in0.0 mm
09:57 AM -1.7°F-18.7°C -5.1°F-20.6°C 85% 3.0 mph ESE4.8 kmh ESE -- 29.79 in1008.8 mb 0.00 in0.0 mm 0.00 in0.0 mm 0.00 in0.0 mm
09:58 AM -1.7°F-18.7°C -5.1°F-20.6°C 85% 4.0 mph SE6.4 kmh SE -- 29.79 in1008.8 mb 0.00 in0.0 mm 0.00 in0.0 mm 0.00 in0.0 mm
09:59 AM -1.7°F-18.7°C -5.1°F-20.6°C 85% 2.0 mph SSE3.2 kmh SSE -- 29.79 in1008.8 mb 0.00 in0.0 mm 0.00 in0.0 mm 0.00 in0.0 mm
10:00 AM -1.7°F-18.7°C -5.1°F-20.6°C 85% 3.0 mph SE4.8 kmh SE -- 29.79 in1008.8 mb 0.00 in0.0 mm 0.00 in0.0 mm 0.00 in0.0 mm
10:01 AM -1.5°F-18.6°C -4.9°F-20.5°C 85% 3.0 mph ESE4.8 kmh ESE -- 29.79 in1008.8 mb 0.00 in0.0 mm 0.00 in0.0 mm 0.00 in0.0 mm
10:03 AM -1.2°F-18.4°C -4.6°F-20.3°C 85% 4.0 mph SSE6.4 kmh SSE -- 29.79 in1008.8 mb 0.00 in0.0 mm 0.00 in0.0 mm 0.00 in0.0 mm
10:04 AM -1.2°F-18.4°C -4.6°F-20.3°C 85% 5.0 mph ESE8.0 kmh ESE -- 29.79 in1008.8 mb 0.00 in0.0 mm 0.00 in0.0 mm 0.00 in0.0 mm
10:05 AM -1.1°F-18.4°C -4.6°F-20.3°C 85% 4.0 mph ESE6.4 kmh ESE -- 29.79 in1008.8 mb 0.00 in0.0 mm 0.00 in0.0 mm 0.00 in0.0 mm
10:06 AM -1.1°F-18.4°C -4.6°F-20.3°C 85% 2.0 mph ESE3.2 kmh ESE -- 29.79 in1008.8 mb 0.00 in0.0 mm 0.00 in0.0 mm 0.00 in0.0 mm
10:09 AM -0.9°F-18.3°C -4.4°F-20.2°C 85% 2.0 mph SSE3.2 kmh SSE -- 29.79 in1008.8 mb 0.00 in0.0 mm 0.00 in0.0 mm 0.00 in0.0 mm
10:10 AM -0.8°F-18.2°C -4.0°F-20.0°C 86% 6.0 mph ESE9.7 kmh ESE -- 29.79 in1008.8 mb 0.00 in0.0 mm 0.00 in0.0 mm 0.00 in0.0 mm
10:11 AM -0.6°F-18.1°C -3.8°F-19.9°C 86% 5.0 mph SSE8.0 kmh SSE -- 29.79 in1008.8 mb 0.00 in0.0 mm 0.00 in0.0 mm 0.00 in0.0 mm
10:12 AM -0.6°F-18.1°C -3.8°F-19.9°C 86% 4.0 mph SE6.4 kmh SE -- 29.79 in1008.8 mb 0.00 in0.0 mm 0.00 in0.0 mm 0.00 in0.0 mm
10:13 AM -0.6°F-18.1°C -3.8°F-19.9°C 86% 2.0 mph SSE3.2 kmh SSE -- 29.79 in1008.8 mb 0.00 in0.0 mm 0.00 in0.0 mm 0.00 in0.0 mm
10:14 AM -0.4°F-18.0°C -3.6°F-19.8°C 86% 4.0 mph SSE6.4 kmh SSE -- 29.78 in1008.5 mb 0.00 in0.0 mm 0.00 in0.0 mm 0.00 in0.0 mm
10:15 AM -0.4°F-18.0°C -3.6°F-19.8°C 86% 1.0 mph SSE1.6 kmh SSE -- 29.79 in1008.8 mb 0.00 in0.0 mm 0.00 in0.0 mm 0.00 in0.0 mm
10:16 AM -0.4°F-18.0°C -3.6°F-19.8°C 86% 2.0 mph ESE3.2 kmh ESE -- 29.79 in1008.8 mb 0.00 in0.0 mm 0.00 in0.0 mm 0.00 in0.0 mm
10:17 AM -0.2°F-17.9°C -3.4°F-19.7°C 86% 4.0 mph ESE6.4 kmh ESE -- 29.79 in1008.8 mb 0.00 in0.0 mm 0.00 in0.0 mm 0.00 in0.0 mm
10:18 AM 0.0°F-17.8°C -3.3°F-19.6°C 86% 4.0 mph S6.4 kmh S -- 29.79 in1008.8 mb 0.00 in0.0 mm 0.00 in0.0 mm 0.00 in0.0 mm
10:19 AM 0.0°F-17.8°C -3.3°F-19.6°C 86% 3.0 mph SE4.8 kmh SE -- 29.78 in1008.5 mb 0.00 in0.0 mm 0.00 in0.0 mm 0.00 in0.0 mm
10:20 AM 0.5°F-17.5°C -2.7°F-19.3°C 86% 4.0 mph ESE6.4 kmh ESE -- 29.78 in1008.5 mb 0.00 in0.0 mm 0.00 in0.0 mm 0.00 in0.0 mm
10:21 AM 0.7°F-17.4°C -2.6°F-19.2°C 86% 4.0 mph SE6.4 kmh SE -- 29.78 in1008.5 mb 0.00 in0.0 mm 0.00 in0.0 mm 0.00 in0.0 mm
10:22 AM 0.7°F-17.4°C -2.6°F-19.2°C 86% 5.0 mph SE8.0 kmh SE -- 29.78 in1008.5 mb 0.00 in0.0 mm 0.00 in0.0 mm 0.00 in0.0 mm
10:23 AM 0.7°F-17.4°C -2.6°F-19.2°C 86% 3.0 mph ESE4.8 kmh ESE -- 29.78 in1008.5 mb 0.00 in0.0 mm 0.00 in0.0 mm 0.00 in0.0 mm
10:24 AM 0.9°F-17.3°C -2.4°F-19.1°C 86% 6.0 mph ESE9.7 kmh ESE -- 29.78 in1008.5 mb 0.00 in0.0 mm 0.00 in0.0 mm 0.00 in0.0 mm
10:25 AM 1.2°F-17.1°C -2.3°F-19.1°C 85% 3.0 mph SSE4.8 kmh SSE -- 29.78 in1008.5 mb 0.00 in0.0 mm 0.00 in0.0 mm 0.00 in0.0 mm
10:26 AM 1.2°F-17.1°C -2.3°F-19.1°C 85% 4.0 mph ESE6.4 kmh ESE -- 29.78 in1008.5 mb 0.00 in0.0 mm 0.00 in0.0 mm 0.00 in0.0 mm
10:27 AM 1.2°F-17.1°C -2.3°F-19.1°C 85% 4.0 mph SSE6.4 kmh SSE -- 29.79 in1008.8 mb 0.00 in0.0 mm 0.00 in0.0 mm 0.00 in0.0 mm
10:28 AM 1.0°F-17.2°C -2.5°F-19.2°C 85% 4.0 mph SE6.4 kmh SE -- 29.79 in1008.8 mb 0.00 in0.0 mm 0.00 in0.0 mm 0.00 in0.0 mm
10:29 AM 1.0°F-17.2°C -2.5°F-19.2°C 85% 4.0 mph E6.4 kmh E -- 29.79 in1008.8 mb 0.00 in0.0 mm 0.00 in0.0 mm 0.00 in0.0 mm
10:30 AM 1.0°F-17.2°C -2.5°F-19.2°C 85% 5.0 mph SE8.0 kmh SE -- 29.79 in1008.8 mb 0.00 in0.0 mm 0.00 in0.0 mm 0.00 in0.0 mm
10:31 AM 1.0°F-17.2°C -2.5°F-19.2°C 85% 2.0 mph E3.2 kmh E -- 29.79 in1008.8 mb 0.00 in0.0 mm 0.00 in0.0 mm 0.00 in0.0 mm
10:32 AM 1.0°F-17.2°C -2.5°F-19.2°C 85% 4.0 mph SE6.4 kmh SE -- 29.79 in1008.8 mb 0.00 in0.0 mm 0.00 in0.0 mm 0.00 in0.0 mm
10:33 AM 1.0°F-17.2°C -2.5°F-19.2°C 85% 6.0 mph ESE9.7 kmh ESE -- 29.79 in1008.8 mb 0.00 in0.0 mm 0.00 in0.0 mm 0.00 in0.0 mm
10:34 AM 1.2°F-17.1°C -2.3°F-19.1°C 85% 5.0 mph ESE8.0 kmh ESE -- 29.79 in1008.8 mb 0.00 in0.0 mm 0.00 in0.0 mm 0.00 in0.0 mm
10:35 AM 1.3°F-17.1°C -2.3°F-19.1°C 85% 6.0 mph ESE9.7 kmh ESE -- 29.79 in1008.8 mb 0.00 in0.0 mm 0.00 in0.0 mm 0.00 in0.0 mm
10:36 AM 1.3°F-17.1°C -2.8°F-19.3°C 83% 4.0 mph ESE6.4 kmh ESE -- 29.79 in1008.8 mb 0.00 in0.0 mm 0.00 in0.0 mm 0.00 in0.0 mm
10:37 AM 1.5°F-16.9°C -2.4°F-19.1°C 83% 5.0 mph ESE8.0 kmh ESE -- 29.79 in1008.8 mb 0.00 in0.0 mm 0.00 in0.0 mm 0.00 in0.0 mm
10:38 AM 1.3°F-17.1°C -2.8°F-19.3°C 83% 6.0 mph ESE9.7 kmh ESE -- 29.78 in1008.5 mb 0.00 in0.0 mm 0.00 in0.0 mm 0.00 in0.0 mm
10:39 AM 1.7°F-16.8°C -2.3°F-19.1°C 83% 6.0 mph ESE9.7 kmh ESE -- 29.78 in1008.5 mb 0.00 in0.0 mm 0.00 in0.0 mm 0.00 in0.0 mm
10:40 AM 1.7°F-16.8°C -2.3°F-19.1°C 83% 5.0 mph ESE8.0 kmh ESE -- 29.79 in1008.8 mb 0.00 in0.0 mm 0.00 in0.0 mm 0.00 in0.0 mm
10:41 AM 1.9°F-16.7°C -2.1°F-18.9°C 83% 3.0 mph ESE4.8 kmh ESE -- 29.79 in1008.8 mb 0.00 in0.0 mm 0.00 in0.0 mm 0.00 in0.0 mm
10:42 AM 2.2°F-16.6°C -1.9°F-18.8°C 83% 4.0 mph ESE6.4 kmh ESE -- 29.79 in1008.8 mb 0.00 in0.0 mm 0.00 in0.0 mm 0.00 in0.0 mm
10:43 AM 2.2°F-16.6°C -1.9°F-18.8°C 83% 5.0 mph E8.0 kmh E -- 29.79 in1008.8 mb 0.00 in0.0 mm 0.00 in0.0 mm 0.00 in0.0 mm
10:44 AM 2.5°F-16.4°C -1.5°F-18.6°C 83% 6.0 mph ESE9.7 kmh ESE -- 29.79 in1008.8 mb 0.00 in0.0 mm 0.00 in0.0 mm 0.00 in0.0 mm
10:45 AM 2.5°F-16.4°C -1.5°F-18.6°C 83% 8.0 mph ESE12.9 kmh ESE -- 29.79 in1008.8 mb 0.00 in0.0 mm 0.00 in0.0 mm 0.00 in0.0 mm
10:46 AM 2.5°F-16.4°C -1.5°F-18.6°C 83% 6.0 mph E9.7 kmh E -- 29.79 in1008.8 mb 0.00 in0.0 mm 0.00 in0.0 mm 0.00 in0.0 mm
10:47 AM 2.5°F-16.4°C -1.5°F-18.6°C 83% 7.0 mph ESE11.3 kmh ESE -- 29.79 in1008.8 mb 0.00 in0.0 mm 0.00 in0.0 mm 0.00 in0.0 mm
10:49 AM 2.5°F-16.4°C -1.5°F-18.6°C 83% 6.0 mph ESE9.7 kmh ESE -- 29.79 in1008.8 mb 0.00 in0.0 mm 0.00 in0.0 mm 0.00 in0.0 mm
10:50 AM 2.5°F-16.4°C -1.5°F-18.6°C 83% 5.0 mph SSE8.0 kmh SSE -- 29.79 in1008.8 mb 0.00 in0.0 mm 0.00 in0.0 mm 0.00 in0.0 mm
10:51 AM 2.2°F-16.6°C -1.9°F-18.8°C 83% 7.0 mph ESE11.3 kmh ESE -- 29.79 in1008.8 mb 0.00 in0.0 mm 0.00 in0.0 mm 0.00 in0.0 mm
10:52 AM 2.2°F-16.6°C -1.9°F-18.8°C 83% 5.0 mph ESE8.0 kmh ESE -- 29.79 in1008.8 mb 0.00 in0.0 mm 0.00 in0.0 mm 0.00 in0.0 mm
10:53 AM 2.2°F-16.6°C -1.9°F-18.8°C 83% 7.0 mph SSE11.3 kmh SSE -- 29.79 in1008.8 mb 0.00 in0.0 mm 0.00 in0.0 mm 0.00 in0.0 mm
10:54 AM 2.2°F-16.6°C -1.9°F-18.8°C 83% 6.0 mph SE9.7 kmh SE -- 29.79 in1008.8 mb 0.00 in0.0 mm 0.00 in0.0 mm 0.00 in0.0 mm
10:55 AM 2.5°F-16.4°C -1.5°F-18.6°C 83% 5.0 mph SSE8.0 kmh SSE -- 29.78 in1008.5 mb 0.00 in0.0 mm 0.00 in0.0 mm 0.00 in0.0 mm
10:56 AM 2.5°F-16.4°C -1.5°F-18.6°C 83% 6.0 mph ESE9.7 kmh ESE -- 29.78 in1008.5 mb 0.00 in0.0 mm 0.00 in0.0 mm 0.00 in0.0 mm
10:57 AM 2.7°F-16.3°C -1.4°F-18.6°C 83% 5.0 mph ESE8.0 kmh ESE -- 29.79 in1008.8 mb 0.00 in0.0 mm 0.00 in0.0 mm 0.00 in0.0 mm
10:58 AM 2.7°F-16.3°C -1.4°F-18.6°C 83% 4.0 mph ESE6.4 kmh ESE -- 29.79 in1008.8 mb 0.00 in0.0 mm 0.00 in0.0 mm 0.00 in0.0 mm
10:59 AM 3.0°F-16.1°C -1.5°F-18.6°C 81% 2.0 mph SSE3.2 kmh SSE -- 29.79 in1008.8 mb 0.00 in0.0 mm 0.00 in0.0 mm 0.00 in0.0 mm
11:00 AM 3.1°F-16.1°C -1.5°F-18.6°C 81% 4.0 mph ESE6.4 kmh ESE -- 29.78 in1008.5 mb 0.00 in0.0 mm 0.00 in0.0 mm 0.00 in0.0 mm
11:01 AM 3.5°F-15.8°C -1.0°F-18.3°C 81% 4.0 mph SE6.4 kmh SE -- 29.79 in1008.8 mb 0.00 in0.0 mm 0.00 in0.0 mm 0.00 in0.0 mm
11:02 AM 3.5°F-15.8°C -1.0°F-18.3°C 81% 6.0 mph SSE9.7 kmh SSE -- 29.79 in1008.8 mb 0.00 in0.0 mm 0.00 in0.0 mm 0.00 in0.0 mm
11:03 AM 3.4°F-15.9°C -1.2°F-18.4°C 81% 4.0 mph ESE6.4 kmh ESE -- 29.79 in1008.8 mb 0.00 in0.0 mm 0.00 in0.0 mm 0.00 in0.0 mm
11:04 AM 3.4°F-15.9°C -1.2°F-18.4°C 81% 5.0 mph ESE8.0 kmh ESE -- 29.79 in1008.8 mb 0.00 in0.0 mm 0.00 in0.0 mm 0.00 in0.0 mm
11:05 AM 3.4°F-15.9°C -1.2°F-18.4°C 81% 5.0 mph SE8.0 kmh SE -- 29.79 in1008.8 mb 0.00 in0.0 mm 0.00 in0.0 mm 0.00 in0.0 mm
11:06 AM 3.1°F-16.1°C -1.5°F-18.6°C 81% 5.0 mph E8.0 kmh E -- 29.78 in1008.5 mb 0.00 in0.0 mm 0.00 in0.0 mm 0.00 in0.0 mm
11:07 AM 3.5°F-15.8°C -1.0°F-18.3°C 81% 4.0 mph E6.4 kmh E -- 29.78 in1008.5 mb 0.00 in0.0 mm 0.00 in0.0 mm 0.00 in0.0 mm
11:08 AM 3.5°F-15.8°C -1.0°F-18.3°C 81% 4.0 mph SSE6.4 kmh SSE -- 29.78 in1008.5 mb 0.00 in0.0 mm 0.00 in0.0 mm 0.00 in0.0 mm
11:09 AM 3.4°F-15.9°C -1.2°F-18.4°C 81% 2.0 mph ESE3.2 kmh ESE -- 29.79 in1008.8 mb 0.00 in0.0 mm 0.00 in0.0 mm 0.00 in0.0 mm
11:10 AM 3.5°F-15.8°C -1.0°F-18.3°C 81% 3.0 mph E4.8 kmh E -- 29.78 in1008.5 mb 0.00 in0.0 mm 0.00 in0.0 mm 0.00 in0.0 mm
11:11 AM 3.9°F-15.6°C -0.7°F-18.2°C 81% 5.0 mph E8.0 kmh E -- 29.78 in1008.5 mb 0.00 in0.0 mm 0.00 in0.0 mm 0.00 in0.0 mm
11:12 AM 4.0°F-15.6°C -0.7°F-18.2°C 81% 4.0 mph E6.4 kmh E -- 29.78 in1008.5 mb 0.00 in0.0 mm 0.00 in0.0 mm 0.00 in0.0 mm
11:13 AM 4.0°F-15.6°C -0.9°F-18.3°C 80% 3.0 mph E4.8 kmh E -- 29.78 in1008.5 mb 0.00 in0.0 mm 0.00 in0.0 mm 0.00 in0.0 mm
11:14 AM 3.9°F-15.6°C -0.9°F-18.3°C 80% 4.0 mph ENE6.4 kmh ENE -- 29.78 in1008.5 mb 0.00 in0.0 mm 0.00 in0.0 mm 0.00 in0.0 mm
11:15 AM 4.0°F-15.6°C -0.9°F-18.3°C 80% 4.0 mph E6.4 kmh E -- 29.78 in1008.5 mb 0.00 in0.0 mm 0.00 in0.0 mm 0.00 in0.0 mm
11:16 AM 4.3°F-15.4°C -0.6°F-18.1°C 80% 4.0 mph ENE6.4 kmh ENE -- 29.78 in1008.5 mb 0.00 in0.0 mm 0.00 in0.0 mm 0.00 in0.0 mm
11:17 AM 4.3°F-15.4°C -0.6°F-18.1°C 80% 4.0 mph NE6.4 kmh NE -- 29.78 in1008.5 mb 0.00 in0.0 mm 0.00 in0.0 mm 0.00 in0.0 mm
11:18 AM 4.5°F-15.3°C -0.7°F-18.2°C 79% 3.0 mph NE4.8 kmh NE -- 29.78 in1008.5 mb 0.00 in0.0 mm 0.00 in0.0 mm 0.00 in0.0 mm
11:19 AM 4.5°F-15.3°C -0.7°F-18.2°C 79% 5.0 mph E8.0 kmh E -- 29.78 in1008.5 mb 0.00 in0.0 mm 0.00 in0.0 mm 0.00 in0.0 mm
11:20 AM 4.5°F-15.3°C -0.7°F-18.2°C 79% 4.0 mph NNE6.4 kmh NNE -- 29.78 in1008.5 mb 0.00 in0.0 mm 0.00 in0.0 mm 0.00 in0.0 mm
11:21 AM 4.8°F-15.1°C -0.3°F-17.9°C 79% 3.0 mph ENE4.8 kmh ENE -- 29.78 in1008.5 mb 0.00 in0.0 mm 0.00 in0.0 mm 0.00 in0.0 mm
11:22 AM 4.8°F-15.1°C -0.3°F-17.9°C 79% 5.0 mph NE8.0 kmh NE -- 29.78 in1008.5 mb 0.00 in0.0 mm 0.00 in0.0 mm 0.00 in0.0 mm
11:23 AM 5.0°F-15.0°C -0.4°F-18.0°C 78% 5.0 mph NE8.0 kmh NE -- 29.78 in1008.5 mb 0.00 in0.0 mm 0.00 in0.0 mm 0.00 in0.0 mm
11:24 AM 5.1°F-14.9°C -0.2°F-17.9°C 78% 4.0 mph ENE6.4 kmh ENE -- 29.78 in1008.5 mb 0.00 in0.0 mm 0.00 in0.0 mm 0.00 in0.0 mm
11:25 AM 5.4°F-14.8°C -0.6°F-18.1°C 76% 4.0 mph NE6.4 kmh NE -- 29.78 in1008.5 mb 0.00 in0.0 mm 0.00 in0.0 mm 0.00 in0.0 mm
11:26 AM 5.4°F-14.8°C -0.6°F-18.1°C 76% 4.0 mph ENE6.4 kmh ENE -- 29.78 in1008.5 mb 0.00 in0.0 mm 0.00 in0.0 mm 0.00 in0.0 mm
11:27 AM 5.5°F-14.7°C -0.5°F-18.1°C 76% 4.0 mph NNE6.4 kmh NNE -- 29.78 in1008.5 mb 0.00 in0.0 mm 0.00 in0.0 mm 0.00 in0.0 mm
11:28 AM 5.6°F-14.7°C -0.5°F-18.1°C 76% 4.0 mph NE6.4 kmh NE -- 29.78 in1008.5 mb 0.00 in0.0 mm 0.00 in0.0 mm 0.00 in0.0 mm
11:29 AM 5.6°F-14.7°C -0.5°F-18.1°C 76% 5.0 mph ENE8.0 kmh ENE -- 29.78 in1008.5 mb 0.00 in0.0 mm 0.00 in0.0 mm 0.00 in0.0 mm
11:30 AM 5.9°F-14.5°C -0.4°F-18.0°C 75% 5.0 mph NE8.0 kmh NE -- 29.78 in1008.5 mb 0.00 in0.0 mm 0.00 in0.0 mm 0.00 in0.0 mm
11:31 AM 5.9°F-14.5°C -0.4°F-18.0°C 75% 4.0 mph E6.4 kmh E -- 29.78 in1008.5 mb 0.00 in0.0 mm 0.00 in0.0 mm 0.00 in0.0 mm
11:32 AM 5.9°F-14.5°C -0.4°F-18.0°C 75% 5.0 mph ENE8.0 kmh ENE -- 29.78 in1008.5 mb 0.00 in0.0 mm 0.00 in0.0 mm 0.00 in0.0 mm
11:33 AM 6.1°F-14.4°C -0.2°F-17.9°C 75% 5.0 mph E8.0 kmh E -- 29.78 in1008.5 mb 0.00 in0.0 mm 0.00 in0.0 mm 0.00 in0.0 mm
11:34 AM 6.1°F-14.4°C -0.2°F-17.9°C 75% 4.0 mph NE6.4 kmh NE -- 29.78 in1008.5 mb 0.00 in0.0 mm 0.00 in0.0 mm 0.00 in0.0 mm
11:35 AM 6.3°F-14.3°C 0.0°F-17.8°C 75% 6.0 mph NE9.7 kmh NE -- 29.78 in1008.5 mb 0.00 in0.0 mm 0.00 in0.0 mm 0.00 in0.0 mm
11:36 AM 6.3°F-14.3°C 0.0°F-17.8°C 75% 4.0 mph E6.4 kmh E -- 29.78 in1008.5 mb 0.00 in0.0 mm 0.00 in0.0 mm 0.00 in0.0 mm
11:37 AM 5.9°F-14.5°C -0.1°F-17.8°C 76% 3.0 mph ENE4.8 kmh ENE -- 29.78 in1008.5 mb 0.00 in0.0 mm 0.00 in0.0 mm 0.00 in0.0 mm
11:38 AM 6.3°F-14.3°C 0.0°F-17.8°C 75% 4.0 mph E6.4 kmh E -- 29.79 in1008.8 mb 0.00 in0.0 mm 0.00 in0.0 mm 0.00 in0.0 mm
11:39 AM 6.5°F-14.2°C 0.1°F-17.7°C 75% 5.0 mph NE8.0 kmh NE -- 29.78 in1008.5 mb 0.00 in0.0 mm 0.00 in0.0 mm 0.00 in0.0 mm
11:40 AM 6.5°F-14.2°C 0.1°F-17.7°C 75% 3.0 mph E4.8 kmh E -- 29.78 in1008.5 mb 0.00 in0.0 mm 0.00 in0.0 mm 0.00 in0.0 mm
11:41 AM 6.5°F-14.2°C 0.1°F-17.7°C 75% 2.0 mph E3.2 kmh E -- 29.78 in1008.5 mb 0.00 in0.0 mm 0.00 in0.0 mm 0.00 in0.0 mm
11:42 AM 6.8°F-14.0°C 0.5°F-17.5°C 75% 4.0 mph E6.4 kmh E -- 29.78 in1008.5 mb 0.00 in0.0 mm 0.00 in0.0 mm 0.00 in0.0 mm
11:43 AM 7.3°F-13.7°C 1.0°F-17.2°C 75% 6.0 mph E9.7 kmh E -- 29.78 in1008.5 mb 0.00 in0.0 mm 0.00 in0.0 mm 0.00 in0.0 mm
11:44 AM 7.3°F-13.7°C 1.0°F-17.2°C 75% 7.0 mph E11.3 kmh E -- 29.78 in1008.5 mb 0.00 in0.0 mm 0.00 in0.0 mm 0.00 in0.0 mm
11:45 AM 7.3°F-13.7°C 1.0°F-17.2°C 75% 6.0 mph E9.7 kmh E -- 29.78 in1008.5 mb 0.00 in0.0 mm 0.00 in0.0 mm 0.00 in0.0 mm
11:46 AM 7.0°F-13.9°C 0.7°F-17.4°C 75% 6.0 mph ESE9.7 kmh ESE -- 29.78 in1008.5 mb 0.00 in0.0 mm 0.00 in0.0 mm 0.00 in0.0 mm
11:47 AM 7.1°F-13.8°C 0.8°F-17.3°C 75% 5.0 mph E8.0 kmh E -- 29.78 in1008.5 mb 0.00 in0.0 mm 0.00 in0.0 mm 0.00 in0.0 mm
11:48 AM 7.3°F-13.7°C 1.0°F-17.2°C 75% 6.0 mph E9.7 kmh E -- 29.78 in1008.5 mb 0.00 in0.0 mm 0.00 in0.0 mm 0.00 in0.0 mm
11:50 AM 7.5°F-13.6°C 0.9°F-17.3°C 74% 5.0 mph ESE8.0 kmh ESE -- 29.78 in1008.5 mb 0.00 in0.0 mm 0.00 in0.0 mm 0.00 in0.0 mm
11:51 AM 7.5°F-13.6°C 0.9°F-17.3°C 74% 4.0 mph ESE6.4 kmh ESE -- 29.78 in1008.5 mb 0.00 in0.0 mm 0.00 in0.0 mm 0.00 in0.0 mm
11:52 AM 7.5°F-13.6°C 0.9°F-17.3°C 74% 3.0 mph ESE4.8 kmh ESE -- 29.78 in1008.5 mb 0.00 in0.0 mm 0.00 in0.0 mm 0.00 in0.0 mm
11:53 AM 7.5°F-13.6°C 0.9°F-17.3°C 74% 6.0 mph ENE9.7 kmh ENE -- 29.78 in1008.5 mb 0.00 in0.0 mm 0.00 in0.0 mm 0.00 in0.0 mm
11:54 AM 9.0°F-12.8°C 2.0°F-16.7°C 73% 4.0 mph E6.4 kmh E -- 29.78 in1008.5 mb 0.00 in0.0 mm 0.00 in0.0 mm 0.00 in0.0 mm
11:55 AM 9.5°F-12.5°C 1.9°F-16.7°C 71% 4.0 mph E6.4 kmh E -- 29.78 in1008.5 mb 0.00 in0.0 mm 0.00 in0.0 mm 0.00 in0.0 mm
11:56 AM 10.1°F-12.2°C 2.1°F-16.6°C 70% 5.0 mph ENE8.0 kmh ENE -- 29.78 in1008.5 mb 0.00 in0.0 mm 0.00 in0.0 mm 0.00 in0.0 mm
11:57 AM 10.8°F-11.8°C 2.5°F-16.4°C 69% 8.0 mph ENE12.9 kmh ENE -- 29.78 in1008.5 mb 0.00 in0.0 mm 0.00 in0.0 mm 0.00 in0.0 mm
11:58 AM 10.1°F-12.2°C 1.8°F-16.8°C 69% 4.0 mph ESE6.4 kmh ESE -- 29.78 in1008.5 mb 0.00 in0.0 mm 0.00 in0.0 mm 0.00 in0.0 mm
11:59 AM 10.0°F-12.2°C 2.1°F-16.6°C 70% 2.0 mph SE3.2 kmh SE -- 29.78 in1008.5 mb 0.00 in0.0 mm 0.00 in0.0 mm 0.00 in0.0 mm
12:00 PM 9.8°F-12.3°C 1.9°F-16.7°C 70% 4.0 mph SE6.4 kmh SE -- 29.78 in1008.5 mb 0.00 in0.0 mm 0.00 in0.0 mm 0.00 in0.0 mm
12:01 PM 8.8°F-12.9°C 1.2°F-17.1°C 71% 5.0 mph S8.0 kmh S -- 29.78 in1008.5 mb 0.00 in0.0 mm 0.00 in0.0 mm 0.00 in0.0 mm
12:02 PM 9.0°F-12.8°C 1.4°F-17.0°C 71% 3.0 mph ESE4.8 kmh ESE -- 29.78 in1008.5 mb 0.00 in0.0 mm 0.00 in0.0 mm 0.00 in0.0 mm
12:03 PM 9.3°F-12.6°C 1.7°F-16.8°C 71% 4.0 mph ESE6.4 kmh ESE -- 29.78 in1008.5 mb 0.00 in0.0 mm 0.00 in0.0 mm 0.00 in0.0 mm
12:04 PM 10.8°F-11.8°C 2.8°F-16.2°C 70% 6.0 mph E9.7 kmh E -- 29.78 in1008.5 mb 0.00 in0.0 mm 0.00 in0.0 mm 0.00 in0.0 mm
12:05 PM 11.6°F-11.3°C 3.4°F-15.9°C 69% 6.0 mph E9.7 kmh E -- 29.78 in1008.5 mb 0.00 in0.0 mm 0.00 in0.0 mm 0.00 in0.0 mm
12:06 PM 10.8°F-11.8°C 2.2°F-16.6°C 68% 2.0 mph SSE3.2 kmh SSE -- 29.78 in1008.5 mb 0.00 in0.0 mm 0.00 in0.0 mm 0.00 in0.0 mm
12:07 PM 10.8°F-11.8°C 2.2°F-16.6°C 68% 3.0 mph SSE4.8 kmh SSE -- 29.78 in1008.5 mb 0.00 in0.0 mm 0.00 in0.0 mm 0.00 in0.0 mm
12:08 PM 10.6°F-11.9°C 2.3°F-16.5°C 69% 6.0 mph SSE9.7 kmh SSE -- 29.78 in1008.5 mb 0.00 in0.0 mm 0.00 in0.0 mm 0.00 in0.0 mm
12:09 PM 10.1°F-12.2°C 1.8°F-16.8°C 69% 5.0 mph SSE8.0 kmh SSE -- 29.78 in1008.5 mb 0.00 in0.0 mm 0.00 in0.0 mm 0.00 in0.0 mm
12:10 PM 11.2°F-11.6°C 2.5°F-16.4°C 68% 3.0 mph ESE4.8 kmh ESE -- 29.78 in1008.5 mb 0.00 in0.0 mm 0.00 in0.0 mm 0.00 in0.0 mm
12:11 PM 11.4°F-11.4°C 2.2°F-16.6°C 66% 6.0 mph ESE9.7 kmh ESE -- 29.78 in1008.5 mb 0.00 in0.0 mm 0.00 in0.0 mm 0.00 in0.0 mm
12:12 PM 11.4°F-11.4°C 2.2°F-16.6°C 66% 6.0 mph SSE9.7 kmh SSE -- 29.78 in1008.5 mb 0.00 in0.0 mm 0.00 in0.0 mm 0.00 in0.0 mm
12:13 PM 11.1°F-11.6°C 1.5°F-16.9°C 65% 5.0 mph S8.0 kmh S -- 29.78 in1008.5 mb 0.00 in0.0 mm 0.00 in0.0 mm 0.00 in0.0 mm
12:14 PM 10.8°F-11.8°C 1.5°F-16.9°C 66% 4.0 mph ESE6.4 kmh ESE -- 29.78 in1008.5 mb 0.00 in0.0 mm 0.00 in0.0 mm 0.00 in0.0 mm
12:15 PM 10.3°F-12.1°C 2.0°F-16.7°C 69% 5.0 mph SE8.0 kmh SE -- 29.78 in1008.5 mb 0.00 in0.0 mm 0.00 in0.0 mm 0.00 in0.0 mm
12:16 PM 10.8°F-11.8°C 2.5°F-16.4°C 69% 5.0 mph E8.0 kmh E -- 29.78 in1008.5 mb 0.00 in0.0 mm 0.00 in0.0 mm 0.00 in0.0 mm
12:17 PM 12.0°F-11.1°C 2.7°F-16.3°C 66% 2.0 mph ENE3.2 kmh ENE -- 29.78 in1008.5 mb 0.00 in0.0 mm 0.00 in0.0 mm 0.00 in0.0 mm
12:18 PM 12.4°F-10.9°C 2.7°F-16.3°C 65% 4.0 mph SW6.4 kmh SW -- 29.78 in1008.5 mb 0.00 in0.0 mm 0.00 in0.0 mm 0.00 in0.0 mm
12:19 PM 10.6°F-11.9°C 2.0°F-16.7°C 68% 5.0 mph S8.0 kmh S -- 29.78 in1008.5 mb 0.00 in0.0 mm 0.00 in0.0 mm 0.00 in0.0 mm
12:20 PM 10.0°F-12.2°C 1.8°F-16.8°C 69% 3.0 mph SSE4.8 kmh SSE -- 29.78 in1008.5 mb 0.00 in0.0 mm 0.00 in0.0 mm 0.00 in0.0 mm
12:21 PM 10.1°F-12.2°C 2.1°F-16.6°C 70% 3.0 mph SE4.8 kmh SE -- 29.78 in1008.5 mb 0.00 in0.0 mm 0.00 in0.0 mm 0.00 in0.0 mm
12:22 PM 10.1°F-12.2°C 2.1°F-16.6°C 70% 4.0 mph WSW6.4 kmh WSW -- 29.77 in1008.1 mb 0.00 in0.0 mm 0.00 in0.0 mm 0.00 in0.0 mm
12:23 PM 9.8°F-12.3°C 1.9°F-16.7°C 70% 6.0 mph ESE9.7 kmh ESE -- 29.77 in1008.1 mb 0.00 in0.0 mm 0.00 in0.0 mm 0.00 in0.0 mm
12:24 PM 10.8°F-11.8°C 2.8°F-16.2°C 70% 5.0 mph SE8.0 kmh SE -- 29.78 in1008.5 mb 0.00 in0.0 mm 0.00 in0.0 mm 0.00 in0.0 mm
12:25 PM 10.3°F-12.1°C 2.0°F-16.7°C 69% 2.0 mph SSE3.2 kmh SSE -- 29.78 in1008.5 mb 0.00 in0.0 mm 0.00 in0.0 mm 0.00 in0.0 mm
12:26 PM 10.3°F-12.1°C 2.3°F-16.5°C 70% 3.0 mph ESE4.8 kmh ESE -- 29.77 in1008.1 mb 0.00 in0.0 mm 0.00 in0.0 mm 0.00 in0.0 mm
12:27 PM 10.6°F-11.9°C 2.6°F-16.3°C 70% 3.0 mph ESE4.8 kmh ESE -- 29.77 in1008.1 mb 0.00 in0.0 mm 0.00 in0.0 mm 0.00 in0.0 mm
12:28 PM 11.6°F-11.3°C 3.0°F-16.1°C 68% 5.0 mph E8.0 kmh E -- 29.77 in1008.1 mb 0.00 in0.0 mm 0.00 in0.0 mm 0.00 in0.0 mm
12:29 PM 12.5°F-10.8°C 3.2°F-16.0°C 66% 3.0 mph NNW4.8 kmh NNW -- 29.78 in1008.5 mb 0.00 in0.0 mm 0.00 in0.0 mm 0.00 in0.0 mm
12:30 PM 12.5°F-10.8°C 3.9°F-15.6°C 68% 4.0 mph ESE6.4 kmh ESE -- 29.78 in1008.5 mb 0.00 in0.0 mm 0.00 in0.0 mm 0.00 in0.0 mm
12:31 PM 12.2°F-11.0°C 2.9°F-16.2°C 66% 6.0 mph SSE9.7 kmh SSE -- 29.78 in1008.5 mb 0.00 in0.0 mm 0.00 in0.0 mm 0.00 in0.0 mm
12:32 PM 11.6°F-11.3°C 2.4°F-16.4°C 66% 4.0 mph ESE6.4 kmh ESE -- 29.77 in1008.1 mb 0.00 in0.0 mm 0.00 in0.0 mm 0.00 in0.0 mm
12:33 PM 13.6°F-10.2°C 4.3°F-15.4°C 66% 6.0 mph E9.7 kmh E -- 29.78 in1008.5 mb 0.00 in0.0 mm 0.00 in0.0 mm 0.00 in0.0 mm
12:34 PM 14.3°F-9.8°C 4.6°F-15.2°C 65% 6.0 mph ENE9.7 kmh ENE -- 29.78 in1008.5 mb 0.00 in0.0 mm 0.00 in0.0 mm 0.00 in0.0 mm
12:35 PM 14.5°F-9.7°C 4.1°F-15.5°C 63% 2.0 mph NE3.2 kmh NE -- 29.78 in1008.5 mb 0.00 in0.0 mm 0.00 in0.0 mm 0.00 in0.0 mm
12:36 PM 13.9°F-10.1°C 3.4°F-15.9°C 63% 4.0 mph ESE6.4 kmh ESE -- 29.78 in1008.5 mb 0.00 in0.0 mm 0.00 in0.0 mm 0.00 in0.0 mm
12:37 PM 12.6°F-10.8°C 2.9°F-16.2°C 65% 6.0 mph SSE9.7 kmh SSE -- 29.78 in1008.5 mb 0.00 in0.0 mm 0.00 in0.0 mm 0.00 in0.0 mm
12:38 PM 11.1°F-11.6°C 1.9°F-16.7°C 66% 4.0 mph SSE6.4 kmh SSE -- 29.78 in1008.5 mb 0.00 in0.0 mm 0.00 in0.0 mm 0.00 in0.0 mm
12:39 PM 10.6°F-11.9°C 2.3°F-16.5°C 69% 1.0 mph S1.6 kmh S -- 29.78 in1008.5 mb 0.00 in0.0 mm 0.00 in0.0 mm 0.00 in0.0 mm
12:40 PM 10.6°F-11.9°C 2.3°F-16.5°C 69% 1.0 mph S1.6 kmh S -- 29.77 in1008.1 mb 0.00 in0.0 mm 0.00 in0.0 mm 0.00 in0.0 mm
12:41 PM 10.8°F-11.8°C 2.8°F-16.2°C 70% 2.0 mph S3.2 kmh S -- 29.77 in1008.1 mb 0.00 in0.0 mm 0.00 in0.0 mm 0.00 in0.0 mm
12:42 PM 12.2°F-11.0°C 3.9°F-15.6°C 69% 4.0 mph NE6.4 kmh NE -- 29.78 in1008.5 mb 0.00 in0.0 mm 0.00 in0.0 mm 0.00 in0.0 mm
12:43 PM 12.5°F-10.8°C 3.9°F-15.6°C 68% 4.0 mph ENE6.4 kmh ENE -- 29.78 in1008.5 mb 0.00 in0.0 mm 0.00 in0.0 mm 0.00 in0.0 mm
12:44 PM 13.5°F-10.3°C 3.8°F-15.7°C 65% 3.0 mph NE4.8 kmh NE -- 29.78 in1008.5 mb 0.00 in0.0 mm 0.00 in0.0 mm 0.00 in0.0 mm
12:45 PM 13.7°F-10.2°C 3.9°F-15.6°C 65% 2.0 mph NE3.2 kmh NE -- 29.78 in1008.5 mb 0.00 in0.0 mm 0.00 in0.0 mm 0.00 in0.0 mm
12:46 PM 13.6°F-10.2°C 3.9°F-15.6°C 65% 2.0 mph NNE3.2 kmh NNE -- 29.77 in1008.1 mb 0.00 in0.0 mm 0.00 in0.0 mm 0.00 in0.0 mm
12:47 PM 13.6°F-10.2°C 3.9°F-15.6°C 65% 2.0 mph NE3.2 kmh NE -- 29.78 in1008.5 mb 0.00 in0.0 mm 0.00 in0.0 mm 0.00 in0.0 mm
12:48 PM 13.7°F-10.2°C 3.9°F-15.6°C 65% 2.0 mph ESE3.2 kmh ESE -- 29.77 in1008.1 mb 0.00 in0.0 mm 0.00 in0.0 mm 0.00 in0.0 mm
12:49 PM 13.7°F-10.2°C 3.9°F-15.6°C 65% 3.0 mph ESE4.8 kmh ESE -- 29.78 in1008.5 mb 0.00 in0.0 mm 0.00 in0.0 mm 0.00 in0.0 mm
12:50 PM 14.7°F-9.6°C 4.3°F-15.4°C 63% 3.0 mph NE4.8 kmh NE -- 29.78 in1008.5 mb 0.00 in0.0 mm 0.00 in0.0 mm 0.00 in0.0 mm
12:51 PM 15.0°F-9.4°C 4.6°F-15.2°C 63% 3.0 mph E4.8 kmh E -- 29.78 in1008.5 mb 0.00 in0.0 mm 0.00 in0.0 mm 0.00 in0.0 mm
12:52 PM 15.0°F-9.4°C 4.6°F-15.2°C 63% 3.0 mph NNW4.8 kmh NNW -- 29.78 in1008.5 mb 0.00 in0.0 mm 0.00 in0.0 mm 0.00 in0.0 mm
12:53 PM 14.3°F-9.8°C 3.9°F-15.6°C 63% 3.0 mph NW4.8 kmh NW -- 29.78 in1008.5 mb 0.00 in0.0 mm 0.00 in0.0 mm 0.00 in0.0 mm
12:54 PM 14.1°F-9.9°C 3.8°F-15.7°C 63% 1.0 mph NNW1.6 kmh NNW -- 29.77 in1008.1 mb 0.00 in0.0 mm 0.00 in0.0 mm 0.00 in0.0 mm
12:55 PM 13.7°F-10.2°C 3.9°F-15.6°C 65% 2.0 mph WSW3.2 kmh WSW -- 29.77 in1008.1 mb 0.00 in0.0 mm 0.00 in0.0 mm 0.00 in0.0 mm
12:56 PM 13.9°F-10.1°C 4.1°F-15.5°C 65% 2.0 mph WSW3.2 kmh WSW -- 29.77 in1008.1 mb 0.00 in0.0 mm 0.00 in0.0 mm 0.00 in0.0 mm
12:57 PM 14.0°F-10.0°C 4.6°F-15.2°C 66% 2.0 mph 3.2 kmh -- 29.77 in1008.1 mb 0.00 in0.0 mm 0.00 in0.0 mm 0.00 in0.0 mm
12:58 PM 14.1°F-9.9°C 4.5°F-15.3°C 65% 2.0 mph WNW3.2 kmh WNW -- 29.77 in1008.1 mb 0.00 in0.0 mm 0.00 in0.0 mm 0.00 in0.0 mm
12:59 PM 15.2°F-9.3°C 4.8°F-15.1°C 63% 3.0 mph NNE4.8 kmh NNE -- 29.78 in1008.5 mb 0.00 in0.0 mm 0.00 in0.0 mm 0.00 in0.0 mm
01:00 PM 15.2°F-9.3°C 4.8°F-15.1°C 63% 2.0 mph NNE3.2 kmh NNE -- 29.77 in1008.1 mb 0.00 in0.0 mm 0.00 in0.0 mm 0.00 in0.0 mm
01:01 PM 15.3°F-9.3°C 4.1°F-15.5°C 61% 2.0 mph NE3.2 kmh NE -- 29.77 in1008.1 mb 0.00 in0.0 mm 0.00 in0.0 mm 0.00 in0.0 mm
01:02 PM 14.7°F-9.6°C 4.3°F-15.4°C 63% 2.0 mph W3.2 kmh W -- 29.77 in1008.1 mb 0.00 in0.0 mm 0.00 in0.0 mm 0.00 in0.0 mm
01:03 PM 14.1°F-9.9°C 3.8°F-15.7°C 63% 2.0 mph NNE3.2 kmh NNE -- 29.77 in1008.1 mb 0.00 in0.0 mm 0.00 in0.0 mm 0.00 in0.0 mm
01:04 PM 14.7°F-9.6°C 5.0°F-15.0°C 65% 3.0 mph ENE4.8 kmh ENE -- 29.77 in1008.1 mb 0.00 in0.0 mm 0.00 in0.0 mm 0.00 in0.0 mm
01:05 PM 14.9°F-9.5°C 4.5°F-15.3°C 63% 2.0 mph NNE3.2 kmh NNE -- 29.77 in1008.1 mb 0.00 in0.0 mm 0.00 in0.0 mm 0.00 in0.0 mm
01:06 PM 14.7°F-9.6°C 3.6°F-15.8°C 61% Calm Calm -- 29.77 in1008.1 mb 0.00 in0.0 mm 0.00 in0.0 mm 0.00 in0.0 mm
01:07 PM 14.3°F-9.8°C 3.9°F-15.6°C 63% 1.0 mph SE1.6 kmh SE -- 29.77 in1008.1 mb 0.00 in0.0 mm 0.00 in0.0 mm 0.00 in0.0 mm
01:08 PM 14.1°F-9.9°C 3.8°F-15.7°C 63% 3.0 mph E4.8 kmh E -- 29.78 in1008.5 mb 0.00 in0.0 mm 0.00 in0.0 mm 0.00 in0.0 mm
01:09 PM 15.0°F-9.4°C 4.6°F-15.2°C 63% 1.0 mph E1.6 kmh E -- 29.78 in1008.5 mb 0.00 in0.0 mm 0.00 in0.0 mm 0.00 in0.0 mm
01:10 PM 15.6°F-9.1°C 4.4°F-15.3°C 61% 2.0 mph ENE3.2 kmh ENE -- 29.77 in1008.1 mb 0.00 in0.0 mm 0.00 in0.0 mm 0.00 in0.0 mm
01:11 PM 15.9°F-8.9°C 4.8°F-15.1°C 61% 2.0 mph NE3.2 kmh NE -- 29.77 in1008.1 mb 0.00 in0.0 mm 0.00 in0.0 mm 0.00 in0.0 mm
01:12 PM 16.2°F-8.8°C 4.9°F-15.1°C 61% 4.0 mph NE6.4 kmh NE -- 29.78 in1008.5 mb 0.00 in0.0 mm 0.00 in0.0 mm 0.00 in0.0 mm
01:13 PM 16.2°F-8.8°C 4.9°F-15.1°C 61% 4.0 mph ENE6.4 kmh ENE -- 29.78 in1008.5 mb 0.00 in0.0 mm 0.00 in0.0 mm 0.00 in0.0 mm
01:14 PM 16.2°F-8.8°C 4.6°F-15.2°C 60% 2.0 mph NE3.2 kmh NE -- 29.78 in1008.5 mb 0.00 in0.0 mm 0.00 in0.0 mm 0.00 in0.0 mm
01:15 PM 15.2°F-9.3°C 4.1°F-15.5°C 61% Calm Calm -- 29.77 in1008.1 mb 0.00 in0.0 mm 0.00 in0.0 mm 0.00 in0.0 mm
01:16 PM 14.1°F-9.9°C 3.1°F-16.1°C 61% Calm Calm -- 29.77 in1008.1 mb 0.00 in0.0 mm 0.00 in0.0 mm 0.00 in0.0 mm
01:17 PM 13.6°F-10.2°C 3.3°F-15.9°C 63% Calm Calm -- 29.77 in1008.1 mb 0.00 in0.0 mm 0.00 in0.0 mm 0.00 in0.0 mm
01:18 PM 14.7°F-9.6°C 5.0°F-15.0°C 65% Calm Calm -- 29.77 in1008.1 mb 0.00 in0.0 mm 0.00 in0.0 mm 0.00 in0.0 mm
01:19 PM 14.7°F-9.6°C 5.0°F-15.0°C 65% Calm Calm -- 29.77 in1008.1 mb 0.00 in0.0 mm 0.00 in0.0 mm 0.00 in0.0 mm
01:20 PM 15.0°F-9.4°C 5.6°F-14.7°C 66% 2.0 mph NE3.2 kmh NE -- 29.77 in1008.1 mb 0.00 in0.0 mm 0.00 in0.0 mm 0.00 in0.0 mm
01:21 PM 15.2°F-9.3°C 5.8°F-14.6°C 66% 2.0 mph ENE3.2 kmh ENE -- 29.77 in1008.1 mb 0.00 in0.0 mm 0.00 in0.0 mm 0.00 in0.0 mm
01:22 PM 16.2°F-8.8°C 6.3°F-14.3°C 65% 4.0 mph ENE6.4 kmh ENE -- 29.77 in1008.1 mb 0.00 in0.0 mm 0.00 in0.0 mm 0.00 in0.0 mm
01:23 PM 16.2°F-8.8°C 6.3°F-14.3°C 65% 2.0 mph ENE3.2 kmh ENE -- 29.77 in1008.1 mb 0.00 in0.0 mm 0.00 in0.0 mm 0.00 in0.0 mm
01:24 PM 16.2°F-8.8°C 4.9°F-15.1°C 61% 2.0 mph ENE3.2 kmh ENE -- 29.77 in1008.1 mb 0.00 in0.0 mm 0.00 in0.0 mm 0.00 in0.0 mm
01:25 PM 15.3°F-9.3°C 4.1°F-15.5°C 61% 3.0 mph E4.8 kmh E -- 29.77 in1008.1 mb 0.00 in0.0 mm 0.00 in0.0 mm 0.00 in0.0 mm
01:26 PM 15.3°F-9.3°C 4.8°F-15.1°C 63% 3.0 mph NNE4.8 kmh NNE -- 29.77 in1008.1 mb 0.00 in0.0 mm 0.00 in0.0 mm 0.00 in0.0 mm
01:27 PM 15.6°F-9.1°C 5.1°F-14.9°C 63% 4.0 mph E6.4 kmh E -- 29.77 in1008.1 mb 0.00 in0.0 mm 0.00 in0.0 mm 0.00 in0.0 mm
01:28 PM 15.8°F-9.0°C 5.3°F-14.8°C 63% 2.0 mph ENE3.2 kmh ENE -- 29.77 in1008.1 mb 0.00 in0.0 mm 0.00 in0.0 mm 0.00 in0.0 mm
01:29 PM 15.9°F-8.9°C 5.5°F-14.7°C 63% 5.0 mph ENE8.0 kmh ENE -- 29.77 in1008.1 mb 0.00 in0.0 mm 0.00 in0.0 mm 0.00 in0.0 mm
01:30 PM 16.2°F-8.8°C 5.6°F-14.7°C 63% 5.0 mph E8.0 kmh E -- 29.77 in1008.1 mb 0.00 in0.0 mm 0.00 in0.0 mm 0.00 in0.0 mm
01:31 PM 16.2°F-8.8°C 4.9°F-15.1°C 61% 5.0 mph ENE8.0 kmh ENE -- 29.77 in1008.1 mb 0.00 in0.0 mm 0.00 in0.0 mm 0.00 in0.0 mm
01:32 PM 15.9°F-8.9°C 4.8°F-15.1°C 61% 4.0 mph NE6.4 kmh NE -- 29.77 in1008.1 mb 0.00 in0.0 mm 0.00 in0.0 mm 0.00 in0.0 mm
01:33 PM 15.6°F-9.1°C 5.1°F-14.9°C 63% 2.0 mph ENE3.2 kmh ENE -- 29.77 in1008.1 mb 0.00 in0.0 mm 0.00 in0.0 mm 0.00 in0.0 mm
01:34 PM 15.2°F-9.3°C 4.8°F-15.1°C 63% 1.0 mph NE1.6 kmh NE -- 29.77 in1008.1 mb 0.00 in0.0 mm 0.00 in0.0 mm 0.00 in0.0 mm
01:35 PM 15.0°F-9.4°C 4.6°F-15.2°C 63% 1.0 mph E1.6 kmh E -- 29.77 in1008.1 mb 0.00 in0.0 mm 0.00 in0.0 mm 0.00 in0.0 mm
01:36 PM 15.0°F-9.4°C 5.3°F-14.8°C 65% 1.0 mph NE1.6 kmh NE -- 29.77 in1008.1 mb 0.00 in0.0 mm 0.00 in0.0 mm 0.00 in0.0 mm
01:37 PM 15.8°F-9.0°C 6.0°F-14.4°C 65% 1.0 mph NE1.6 kmh NE -- 29.77 in1008.1 mb 0.00 in0.0 mm 0.00 in0.0 mm 0.00 in0.0 mm
01:38 PM 16.2°F-8.8°C 6.3°F-14.3°C 65% 2.0 mph ENE3.2 kmh ENE -- 29.77 in1008.1 mb 0.00 in0.0 mm 0.00 in0.0 mm 0.00 in0.0 mm
01:39 PM 16.9°F-8.4°C 6.3°F-14.3°C 63% 3.0 mph E4.8 kmh E -- 29.77 in1008.1 mb 0.00 in0.0 mm 0.00 in0.0 mm 0.00 in0.0 mm
01:40 PM 17.1°F-8.3°C 5.8°F-14.6°C 61% 4.0 mph NE6.4 kmh NE -- 29.77 in1008.1 mb 0.00 in0.0 mm 0.00 in0.0 mm 0.00 in0.0 mm
01:41 PM 16.7°F-8.5°C 5.4°F-14.8°C 61% 1.0 mph NNE1.6 kmh NNE -- 29.77 in1008.1 mb 0.00 in0.0 mm 0.00 in0.0 mm 0.00 in0.0 mm
01:42 PM 15.2°F-9.3°C 4.1°F-15.5°C 61% 1.0 mph NE1.6 kmh NE -- 29.77 in1008.1 mb 0.00 in0.0 mm 0.00 in0.0 mm 0.00 in0.0 mm
01:43 PM 15.2°F-9.3°C 4.1°F-15.5°C 61% 2.0 mph NE3.2 kmh NE -- 29.77 in1008.1 mb 0.00 in0.0 mm 0.00 in0.0 mm 0.00 in0.0 mm
01:44 PM 15.6°F-9.1°C 5.1°F-14.9°C 63% 3.0 mph NE4.8 kmh NE -- 29.77 in1008.1 mb 0.00 in0.0 mm 0.00 in0.0 mm 0.00 in0.0 mm
01:45 PM 15.9°F-8.9°C 5.5°F-14.7°C 63% 4.0 mph ENE6.4 kmh ENE -- 29.77 in1008.1 mb 0.00 in0.0 mm 0.00 in0.0 mm 0.00 in0.0 mm
01:46 PM 15.9°F-8.9°C 5.5°F-14.7°C 63% 4.0 mph SE6.4 kmh SE -- 29.77 in1008.1 mb 0.00 in0.0 mm 0.00 in0.0 mm 0.00 in0.0 mm
01:47 PM 15.9°F-8.9°C 5.5°F-14.7°C 63% 4.0 mph NE6.4 kmh NE -- 29.77 in1008.1 mb 0.00 in0.0 mm 0.00 in0.0 mm 0.00 in0.0 mm
01:48 PM 15.9°F-8.9°C 5.5°F-14.7°C 63% 3.0 mph E4.8 kmh E -- 29.77 in1008.1 mb 0.00 in0.0 mm 0.00 in0.0 mm 0.00 in0.0 mm
01:49 PM 15.6°F-9.1°C 5.1°F-14.9°C 63% 3.0 mph NNE4.8 kmh NNE -- 29.77 in1008.1 mb 0.00 in0.0 mm 0.00 in0.0 mm 0.00 in0.0 mm
01:50 PM 15.3°F-9.3°C 4.8°F-15.1°C 63% 3.0 mph E4.8 kmh E -- 29.77 in1008.1 mb 0.00 in0.0 mm 0.00 in0.0 mm 0.00 in0.0 mm
01:51 PM 15.3°F-9.3°C 4.8°F-15.1°C 63% 2.0 mph ENE3.2 kmh ENE -- 29.77 in1008.1 mb 0.00 in0.0 mm 0.00 in0.0 mm 0.00 in0.0 mm
01:52 PM 15.2°F-9.3°C 4.8°F-15.1°C 63% 3.0 mph NE4.8 kmh NE -- 29.77 in1008.1 mb 0.00 in0.0 mm 0.00 in0.0 mm 0.00 in0.0 mm
01:54 PM 15.0°F-9.4°C 4.6°F-15.2°C 63% 3.0 mph E4.8 kmh E -- 29.77 in1008.1 mb 0.00 in0.0 mm 0.00 in0.0 mm 0.00 in0.0 mm
01:55 PM 14.9°F-9.5°C 5.1°F-14.9°C 65% 3.0 mph ENE4.8 kmh ENE -- 29.77 in1008.1 mb 0.00 in0.0 mm 0.00 in0.0 mm 0.00 in0.0 mm
01:56 PM 14.7°F-9.6°C 5.0°F-15.0°C 65% 3.0 mph NE4.8 kmh NE -- 29.77 in1008.1 mb 0.00 in0.0 mm 0.00 in0.0 mm 0.00 in0.0 mm
01:57 PM 14.5°F-9.7°C 4.8°F-15.1°C 65% 2.0 mph ENE3.2 kmh ENE -- 29.77 in1008.1 mb 0.00 in0.0 mm 0.00 in0.0 mm 0.00 in0.0 mm
01:58 PM 14.3°F-9.8°C 5.0°F-15.0°C 66% 3.0 mph NNE4.8 kmh NNE -- 29.77 in1008.1 mb 0.00 in0.0 mm 0.00 in0.0 mm 0.00 in0.0 mm
01:59 PM 13.9°F-10.1°C 4.4°F-15.3°C 66% 2.0 mph NNE3.2 kmh NNE -- 29.77 in1008.1 mb 0.00 in0.0 mm 0.00 in0.0 mm 0.00 in0.0 mm
02:00 PM 14.1°F-9.9°C 4.8°F-15.1°C 66% 4.0 mph E6.4 kmh E -- 29.77 in1008.1 mb 0.00 in0.0 mm 0.00 in0.0 mm 0.00 in0.0 mm
02:01 PM 14.1°F-9.9°C 4.5°F-15.3°C 65% 3.0 mph NE4.8 kmh NE -- 29.77 in1008.1 mb 0.00 in0.0 mm 0.00 in0.0 mm 0.00 in0.0 mm
02:02 PM 14.3°F-9.8°C 4.6°F-15.2°C 65% 4.0 mph ENE6.4 kmh ENE -- 29.77 in1008.1 mb 0.00 in0.0 mm 0.00 in0.0 mm 0.00 in0.0 mm
02:03 PM 14.3°F-9.8°C 4.6°F-15.2°C 65% 4.0 mph E6.4 kmh E -- 29.77 in1008.1 mb 0.00 in0.0 mm 0.00 in0.0 mm 0.00 in0.0 mm
02:04 PM 14.3°F-9.8°C 4.6°F-15.2°C 65% 6.0 mph ENE9.7 kmh ENE -- 29.77 in1008.1 mb 0.00 in0.0 mm 0.00 in0.0 mm 0.00 in0.0 mm
02:05 PM 14.1°F-9.9°C 4.5°F-15.3°C 65% 4.0 mph NE6.4 kmh NE -- 29.77 in1008.1 mb 0.00 in0.0 mm 0.00 in0.0 mm 0.00 in0.0 mm
02:06 PM 14.1°F-9.9°C 4.5°F-15.3°C 65% 5.0 mph NE8.0 kmh NE -- 29.77 in1008.1 mb 0.00 in0.0 mm 0.00 in0.0 mm 0.00 in0.0 mm
02:07 PM 14.3°F-9.8°C 4.6°F-15.2°C 65% 4.0 mph NE6.4 kmh NE -- 29.77 in1008.1 mb 0.00 in0.0 mm 0.00 in0.0 mm 0.00 in0.0 mm
02:08 PM 14.3°F-9.8°C 4.6°F-15.2°C 65% 3.0 mph E4.8 kmh E -- 29.77 in1008.1 mb 0.00 in0.0 mm 0.00 in0.0 mm 0.00 in0.0 mm
02:09 PM 14.3°F-9.8°C 4.6°F-15.2°C 65% 4.0 mph NNE6.4 kmh NNE -- 29.77 in1008.1 mb 0.00 in0.0 mm 0.00 in0.0 mm 0.00 in0.0 mm
02:10 PM 14.1°F-9.9°C 4.5°F-15.3°C 65% 2.0 mph NE3.2 kmh NE -- 29.77 in1008.1 mb 0.00 in0.0 mm 0.00 in0.0 mm 0.00 in0.0 mm
02:11 PM 13.9°F-10.1°C 4.1°F-15.5°C 65% 5.0 mph NE8.0 kmh NE -- 29.77 in1008.1 mb 0.00 in0.0 mm 0.00 in0.0 mm 0.00 in0.0 mm
02:12 PM 13.9°F-10.1°C 4.1°F-15.5°C 65% 4.0 mph NE6.4 kmh NE -- 29.76 in1007.8 mb 0.00 in0.0 mm 0.00 in0.0 mm 0.00 in0.0 mm
02:13 PM 13.9°F-10.1°C 4.1°F-15.5°C 65% 2.0 mph NE3.2 kmh NE -- 29.77 in1008.1 mb 0.00 in0.0 mm 0.00 in0.0 mm 0.00 in0.0 mm
02:14 PM 13.7°F-10.2°C 3.9°F-15.6°C 65% 4.0 mph E6.4 kmh E -- 29.76 in1007.8 mb 0.00 in0.0 mm 0.00 in0.0 mm 0.00 in0.0 mm
02:15 PM 13.9°F-10.1°C 4.4°F-15.3°C 66% 4.0 mph E6.4 kmh E -- 29.76 in1007.8 mb 0.00 in0.0 mm 0.00 in0.0 mm 0.00 in0.0 mm
02:16 PM 14.1°F-9.9°C 4.5°F-15.3°C 65% 3.0 mph ENE4.8 kmh ENE -- 29.76 in1007.8 mb 0.00 in0.0 mm 0.00 in0.0 mm 0.00 in0.0 mm
02:17 PM 14.3°F-9.8°C 4.6°F-15.2°C 65% 2.0 mph NNE3.2 kmh NNE -- 29.76 in1007.8 mb 0.00 in0.0 mm 0.00 in0.0 mm 0.00 in0.0 mm
02:18 PM 14.5°F-9.7°C 4.8°F-15.1°C 65% 4.0 mph NNE6.4 kmh NNE -- 29.76 in1007.8 mb 0.00 in0.0 mm 0.00 in0.0 mm 0.00 in0.0 mm
02:20 PM 14.3°F-9.8°C 4.6°F-15.2°C 65% 2.0 mph NNE3.2 kmh NNE -- 29.76 in1007.8 mb 0.00 in0.0 mm 0.00 in0.0 mm 0.00 in0.0 mm
02:21 PM 14.1°F-9.9°C 4.8°F-15.1°C 66% 4.0 mph NNE6.4 kmh NNE -- 29.76 in1007.8 mb 0.00 in0.0 mm 0.00 in0.0 mm 0.00 in0.0 mm
02:22 PM 14.5°F-9.7°C 5.1°F-14.9°C 66% 4.0 mph NE6.4 kmh NE -- 29.76 in1007.8 mb 0.00 in0.0 mm 0.00 in0.0 mm 0.00 in0.0 mm
02:23 PM 14.9°F-9.5°C 5.1°F-14.9°C 65% 3.0 mph NNE4.8 kmh NNE -- 29.76 in1007.8 mb 0.00 in0.0 mm 0.00 in0.0 mm 0.00 in0.0 mm
02:24 PM 14.3°F-9.8°C 4.6°F-15.2°C 65% 2.0 mph NNE3.2 kmh NNE -- 29.76 in1007.8 mb 0.00 in0.0 mm 0.00 in0.0 mm 0.00 in0.0 mm
02:25 PM 14.3°F-9.8°C 4.6°F-15.2°C 65% 3.0 mph WNW4.8 kmh WNW -- 29.76 in1007.8 mb 0.00 in0.0 mm 0.00 in0.0 mm 0.00 in0.0 mm
02:26 PM 13.9°F-10.1°C 4.4°F-15.3°C 66% 2.0 mph ENE3.2 kmh ENE -- 29.76 in1007.8 mb 0.00 in0.0 mm 0.00 in0.0 mm 0.00 in0.0 mm
02:27 PM 14.3°F-9.8°C 5.0°F-15.0°C 66% 2.0 mph NE3.2 kmh NE -- 29.76 in1007.8 mb 0.00 in0.0 mm 0.00 in0.0 mm 0.00 in0.0 mm
02:28 PM 14.5°F-9.7°C 5.1°F-14.9°C 66% 4.0 mph NE6.4 kmh NE -- 29.76 in1007.8 mb 0.00 in0.0 mm 0.00 in0.0 mm 0.00 in0.0 mm
02:29 PM 14.5°F-9.7°C 4.8°F-15.1°C 65% 3.0 mph NNE4.8 kmh NNE -- 29.76 in1007.8 mb 0.00 in0.0 mm 0.00 in0.0 mm 0.00 in0.0 mm
02:30 PM 14.5°F-9.7°C 4.8°F-15.1°C 65% 4.0 mph NW6.4 kmh NW -- 29.76 in1007.8 mb 0.00 in0.0 mm 0.00 in0.0 mm 0.00 in0.0 mm
02:31 PM 13.7°F-10.2°C 3.9°F-15.6°C 65% 2.0 mph 3.2 kmh -- 29.76 in1007.8 mb 0.00 in0.0 mm 0.00 in0.0 mm 0.00 in0.0 mm
02:32 PM 13.7°F-10.2°C 4.3°F-15.4°C 66% 2.0 mph NNW3.2 kmh NNW -- 29.76 in1007.8 mb 0.00 in0.0 mm 0.00 in0.0 mm 0.00 in0.0 mm
02:33 PM 13.7°F-10.2°C 4.9°F-15.1°C 68% 2.0 mph NW3.2 kmh NW -- 29.76 in1007.8 mb 0.00 in0.0 mm 0.00 in0.0 mm 0.00 in0.0 mm
02:34 PM 13.9°F-10.1°C 5.1°F-14.9°C 68% 2.0 mph WNW3.2 kmh WNW -- 29.76 in1007.8 mb 0.00 in0.0 mm 0.00 in0.0 mm 0.00 in0.0 mm
02:35 PM 14.1°F-9.9°C 5.4°F-14.8°C 68% 3.0 mph NNW4.8 kmh NNW -- 29.76 in1007.8 mb 0.00 in0.0 mm 0.00 in0.0 mm 0.00 in0.0 mm
02:36 PM 14.7°F-9.6°C 5.3°F-14.8°C 66% 4.0 mph ENE6.4 kmh ENE -- 29.76 in1007.8 mb 0.00 in0.0 mm 0.00 in0.0 mm 0.00 in0.0 mm
02:37 PM 15.0°F-9.4°C 5.3°F-14.8°C 65% 2.0 mph 3.2 kmh -- 29.76 in1007.8 mb 0.00 in0.0 mm 0.00 in0.0 mm 0.00 in0.0 mm
02:38 PM 14.9°F-9.5°C 5.1°F-14.9°C 65% 3.0 mph NNE4.8 kmh NNE -- 29.76 in1007.8 mb 0.00 in0.0 mm 0.00 in0.0 mm 0.00 in0.0 mm
02:39 PM 15.6°F-9.1°C 5.1°F-14.9°C 63% 2.0 mph NNE3.2 kmh NNE -- 29.76 in1007.8 mb 0.00 in0.0 mm 0.00 in0.0 mm 0.00 in0.0 mm
02:40 PM 15.6°F-9.1°C 5.1°F-14.9°C 63% 2.0 mph NE3.2 kmh NE -- 29.76 in1007.8 mb 0.00 in0.0 mm 0.00 in0.0 mm 0.00 in0.0 mm
02:41 PM 15.2°F-9.3°C 4.8°F-15.1°C 63% 3.0 mph E4.8 kmh E -- 29.76 in1007.8 mb 0.00 in0.0 mm 0.00 in0.0 mm 0.00 in0.0 mm
02:42 PM 15.6°F-9.1°C 5.1°F-14.9°C 63% 2.0 mph NE3.2 kmh NE -- 29.76 in1007.8 mb 0.00 in0.0 mm 0.00 in0.0 mm 0.00 in0.0 mm
02:43 PM 15.3°F-9.3°C 4.8°F-15.1°C 63% 2.0 mph NNE3.2 kmh NNE -- 29.76 in1007.8 mb 0.00 in0.0 mm 0.00 in0.0 mm 0.00 in0.0 mm
02:44 PM 15.3°F-9.3°C 5.5°F-14.7°C 65% 1.0 mph NNE1.6 kmh NNE -- 29.76 in1007.8 mb 0.00 in0.0 mm 0.00 in0.0 mm 0.00 in0.0 mm
02:45 PM 15.2°F-9.3°C 4.8°F-15.1°C 63% 1.0 mph NNW1.6 kmh NNW -- 29.76 in1007.8 mb 0.00 in0.0 mm 0.00 in0.0 mm 0.00 in0.0 mm
02:47 PM 15.3°F-9.3°C 5.5°F-14.7°C 65% 3.0 mph NNW4.8 kmh NNW -- 29.76 in1007.8 mb 0.00 in0.0 mm 0.00 in0.0 mm 0.00 in0.0 mm
02:48 PM 15.3°F-9.3°C 5.5°F-14.7°C 65% 1.0 mph NW1.6 kmh NW -- 29.75 in1007.5 mb 0.00 in0.0 mm 0.00 in0.0 mm 0.00 in0.0 mm
02:49 PM 15.0°F-9.4°C 5.3°F-14.8°C 65% 2.0 mph W3.2 kmh W -- 29.75 in1007.5 mb 0.00 in0.0 mm 0.00 in0.0 mm 0.00 in0.0 mm
02:50 PM 14.9°F-9.5°C 5.1°F-14.9°C 65% 2.0 mph NNW3.2 kmh NNW -- 29.76 in1007.8 mb 0.00 in0.0 mm 0.00 in0.0 mm 0.00 in0.0 mm
02:51 PM 14.7°F-9.6°C 5.3°F-14.8°C 66% Calm Calm -- 29.76 in1007.8 mb 0.00 in0.0 mm 0.00 in0.0 mm 0.00 in0.0 mm
02:52 PM 14.7°F-9.6°C 5.3°F-14.8°C 66% 2.0 mph NW3.2 kmh NW -- 29.75 in1007.5 mb 0.00 in0.0 mm 0.00 in0.0 mm 0.00 in0.0 mm
02:53 PM 14.9°F-9.5°C 5.1°F-14.9°C 65% 2.0 mph W3.2 kmh W -- 29.75 in1007.5 mb 0.00 in0.0 mm 0.00 in0.0 mm 0.00 in0.0 mm
02:54 PM 15.3°F-9.3°C 5.8°F-14.6°C 66% 2.0 mph NE3.2 kmh NE -- 29.75 in1007.5 mb 0.00 in0.0 mm 0.00 in0.0 mm 0.00 in0.0 mm
02:55 PM 16.2°F-8.8°C 6.3°F-14.3°C 65% 2.0 mph 3.2 kmh -- 29.75 in1007.5 mb 0.00 in0.0 mm 0.00 in0.0 mm 0.00 in0.0 mm
02:56 PM 16.4°F-8.7°C 5.8°F-14.6°C 63% Calm Calm -- 29.75 in1007.5 mb 0.00 in0.0 mm 0.00 in0.0 mm 0.00 in0.0 mm
02:57 PM 15.9°F-8.9°C 5.5°F-14.7°C 63% 2.0 mph NW3.2 kmh NW -- 29.75 in1007.5 mb 0.00 in0.0 mm 0.00 in0.0 mm 0.00 in0.0 mm
02:58 PM 15.8°F-9.0°C 6.0°F-14.4°C 65% 3.0 mph NW4.8 kmh NW -- 29.75 in1007.5 mb 0.00 in0.0 mm 0.00 in0.0 mm 0.00 in0.0 mm
02:59 PM 15.6°F-9.1°C 5.8°F-14.6°C 65% 1.0 mph NW1.6 kmh NW -- 29.75 in1007.5 mb 0.00 in0.0 mm 0.00 in0.0 mm 0.00 in0.0 mm
03:00 PM 15.6°F-9.1°C 5.8°F-14.6°C 65% 1.0 mph E1.6 kmh E -- 29.75 in1007.5 mb 0.00 in0.0 mm 0.00 in0.0 mm 0.00 in0.0 mm
03:01 PM 16.4°F-8.7°C 5.8°F-14.6°C 63% 2.0 mph ENE3.2 kmh ENE -- 29.75 in1007.5 mb 0.00 in0.0 mm 0.00 in0.0 mm 0.00 in0.0 mm
03:02 PM 16.5°F-8.6°C 6.3°F-14.3°C 64% 2.0 mph E3.2 kmh E -- 29.75 in1007.5 mb 0.00 in0.0 mm 0.00 in0.0 mm 0.00 in0.0 mm
03:03 PM 16.9°F-8.4°C 5.6°F-14.7°C 61% 1.0 mph WSW1.6 kmh WSW -- 29.75 in1007.5 mb 0.00 in0.0 mm 0.00 in0.0 mm 0.00 in0.0 mm
03:04 PM 16.4°F-8.7°C 6.5°F-14.2°C 65% 4.0 mph NW6.4 kmh NW -- 29.75 in1007.5 mb 0.00 in0.0 mm 0.00 in0.0 mm 0.00 in0.0 mm
03:05 PM 16.2°F-8.8°C 6.3°F-14.3°C 65% 2.0 mph NW3.2 kmh NW -- 29.75 in1007.5 mb 0.00 in0.0 mm 0.00 in0.0 mm 0.00 in0.0 mm
03:06 PM 16.2°F-8.8°C 6.3°F-14.3°C 65% 3.0 mph NNE4.8 kmh NNE -- 29.75 in1007.5 mb 0.00 in0.0 mm 0.00 in0.0 mm 0.00 in0.0 mm
03:07 PM 16.4°F-8.7°C 6.5°F-14.2°C 65% 4.0 mph ESE6.4 kmh ESE -- 29.75 in1007.5 mb 0.00 in0.0 mm 0.00 in0.0 mm 0.00 in0.0 mm
03:08 PM 16.7°F-8.5°C 6.2°F-14.3°C 63% 2.0 mph NNE3.2 kmh NNE -- 29.75 in1007.5 mb 0.00 in0.0 mm 0.00 in0.0 mm 0.00 in0.0 mm
03:09 PM 16.9°F-8.4°C 6.3°F-14.3°C 63% 3.0 mph NNE4.8 kmh NNE -- 29.75 in1007.5 mb 0.00 in0.0 mm 0.00 in0.0 mm 0.00 in0.0 mm
03:10 PM 17.1°F-8.3°C 5.8°F-14.6°C 61% 2.0 mph NE3.2 kmh NE -- 29.75 in1007.5 mb 0.00 in0.0 mm 0.00 in0.0 mm 0.00 in0.0 mm
03:11 PM 16.7°F-8.5°C 5.4°F-14.8°C 61% 2.0 mph NNW3.2 kmh NNW -- 29.75 in1007.5 mb 0.00 in0.0 mm 0.00 in0.0 mm 0.00 in0.0 mm
03:12 PM 16.9°F-8.4°C 6.3°F-14.3°C 63% 2.0 mph NNE3.2 kmh NNE -- 29.75 in1007.5 mb 0.00 in0.0 mm 0.00 in0.0 mm 0.00 in0.0 mm
03:13 PM 17.1°F-8.3°C 5.8°F-14.6°C 61% Calm Calm -- 29.75 in1007.5 mb 0.00 in0.0 mm 0.00 in0.0 mm 0.00 in0.0 mm
03:14 PM 16.9°F-8.4°C 6.3°F-14.3°C 63% 2.0 mph NW3.2 kmh NW -- 29.75 in1007.5 mb 0.00 in0.0 mm 0.00 in0.0 mm 0.00 in0.0 mm
03:15 PM 16.4°F-8.7°C 5.8°F-14.6°C 63% 1.0 mph WNW1.6 kmh WNW -- 29.75 in1007.5 mb 0.00 in0.0 mm 0.00 in0.0 mm 0.00 in0.0 mm
03:16 PM 15.9°F-8.9°C 6.2°F-14.3°C 65% 1.0 mph WNW1.6 kmh WNW -- 29.76 in1007.8 mb 0.00 in0.0 mm 0.00 in0.0 mm 0.00 in0.0 mm
03:17 PM 16.2°F-8.8°C 6.3°F-14.3°C 65% 3.0 mph NNW4.8 kmh NNW -- 29.76 in1007.8 mb 0.00 in0.0 mm 0.00 in0.0 mm 0.00 in0.0 mm
03:18 PM 16.2°F-8.8°C 6.3°F-14.3°C 65% 3.0 mph WNW4.8 kmh WNW -- 29.75 in1007.5 mb 0.00 in0.0 mm 0.00 in0.0 mm 0.00 in0.0 mm
03:19 PM 16.2°F-8.8°C 6.7°F-14.1°C 66% 4.0 mph WNW6.4 kmh WNW -- 29.75 in1007.5 mb 0.00 in0.0 mm 0.00 in0.0 mm 0.00 in0.0 mm
03:20 PM 16.2°F-8.8°C 6.3°F-14.3°C 65% 5.0 mph W8.0 kmh W -- 29.75 in1007.5 mb 0.00 in0.0 mm 0.00 in0.0 mm 0.00 in0.0 mm
03:21 PM 15.9°F-8.9°C 6.2°F-14.3°C 65% 3.0 mph W4.8 kmh W -- 29.75 in1007.5 mb 0.00 in0.0 mm 0.00 in0.0 mm 0.00 in0.0 mm
03:22 PM 16.2°F-8.8°C 5.6°F-14.7°C 63% 5.0 mph W8.0 kmh W -- 29.75 in1007.5 mb 0.00 in0.0 mm 0.00 in0.0 mm 0.00 in0.0 mm
03:23 PM 15.9°F-8.9°C 5.5°F-14.7°C 63% 5.0 mph W8.0 kmh W -- 29.75 in1007.5 mb 0.00 in0.0 mm 0.00 in0.0 mm 0.00 in0.0 mm
03:24 PM 15.6°F-9.1°C 5.1°F-14.9°C 63% 5.0 mph W8.0 kmh W -- 29.75 in1007.5 mb 0.00 in0.0 mm 0.00 in0.0 mm 0.00 in0.0 mm
03:25 PM 15.6°F-9.1°C 5.8°F-14.6°C 65% 3.0 mph W4.8 kmh W -- 29.75 in1007.5 mb 0.00 in0.0 mm 0.00 in0.0 mm 0.00 in0.0 mm
03:28 PM 15.2°F-9.3°C 5.5°F-14.7°C 65% 4.0 mph NW6.4 kmh NW -- 29.75 in1007.5 mb 0.00 in0.0 mm 0.00 in0.0 mm 0.00 in0.0 mm
03:29 PM 15.0°F-9.4°C 5.3°F-14.8°C 65% 2.0 mph W3.2 kmh W -- 29.75 in1007.5 mb 0.00 in0.0 mm 0.00 in0.0 mm 0.00 in0.0 mm
03:30 PM 15.0°F-9.4°C 5.6°F-14.7°C 66% 4.0 mph W6.4 kmh W -- 29.76 in1007.8 mb 0.00 in0.0 mm 0.00 in0.0 mm 0.00 in0.0 mm
03:31 PM 15.6°F-9.1°C 6.8°F-14.0°C 68% 4.0 mph NW6.4 kmh NW -- 29.76 in1007.8 mb 0.00 in0.0 mm 0.00 in0.0 mm 0.00 in0.0 mm
03:32 PM 15.6°F-9.1°C 5.8°F-14.6°C 65% 5.0 mph NW8.0 kmh NW -- 29.75 in1007.5 mb 0.00 in0.0 mm 0.00 in0.0 mm 0.00 in0.0 mm
03:33 PM 15.9°F-8.9°C 6.5°F-14.2°C 66% 3.0 mph NW4.8 kmh NW -- 29.75 in1007.5 mb 0.00 in0.0 mm 0.00 in0.0 mm 0.00 in0.0 mm
03:34 PM 15.8°F-9.0°C 6.0°F-14.4°C 65% 3.0 mph WNW4.8 kmh WNW -- 29.75 in1007.5 mb 0.00 in0.0 mm 0.00 in0.0 mm 0.00 in0.0 mm
03:35 PM 15.8°F-9.0°C 6.0°F-14.4°C 65% 2.0 mph W3.2 kmh W -- 29.75 in1007.5 mb 0.00 in0.0 mm 0.00 in0.0 mm 0.00 in0.0 mm
03:36 PM 16.2°F-8.8°C 6.7°F-14.1°C 66% 4.0 mph WNW6.4 kmh WNW -- 29.75 in1007.5 mb 0.00 in0.0 mm 0.00 in0.0 mm 0.00 in0.0 mm
03:37 PM 16.2°F-8.8°C 6.7°F-14.1°C 66% 4.0 mph NW6.4 kmh NW -- 29.75 in1007.5 mb 0.00 in0.0 mm 0.00 in0.0 mm 0.00 in0.0 mm
03:38 PM 16.2°F-8.8°C 6.3°F-14.3°C 65% 4.0 mph NW6.4 kmh NW -- 29.75 in1007.5 mb 0.00 in0.0 mm 0.00 in0.0 mm 0.00 in0.0 mm
03:39 PM 15.9°F-8.9°C 6.2°F-14.3°C 65% 3.0 mph WNW4.8 kmh WNW -- 29.76 in1007.8 mb 0.00 in0.0 mm 0.00 in0.0 mm 0.00 in0.0 mm
03:40 PM 15.9°F-8.9°C 6.2°F-14.3°C 65% 4.0 mph NW6.4 kmh NW -- 29.75 in1007.5 mb 0.00 in0.0 mm 0.00 in0.0 mm 0.00 in0.0 mm
03:41 PM 15.9°F-8.9°C 6.2°F-14.3°C 65% 3.0 mph WNW4.8 kmh WNW -- 29.75 in1007.5 mb 0.00 in0.0 mm 0.00 in0.0 mm 0.00 in0.0 mm
03:42 PM 16.0°F-8.9°C 6.2°F-14.3°C 65% 4.0 mph WNW6.4 kmh WNW -- 29.75 in1007.5 mb 0.00 in0.0 mm 0.00 in0.0 mm 0.00 in0.0 mm
03:43 PM 16.2°F-8.8°C 6.7°F-14.1°C 66% 3.0 mph NNE4.8 kmh NNE -- 29.75 in1007.5 mb 0.00 in0.0 mm 0.00 in0.0 mm 0.00 in0.0 mm
03:44 PM 16.2°F-8.8°C 6.3°F-14.3°C 65% 3.0 mph NNW4.8 kmh NNW -- 29.75 in1007.5 mb 0.00 in0.0 mm 0.00 in0.0 mm 0.00 in0.0 mm
03:45 PM 16.2°F-8.8°C 6.3°F-14.3°C 65% 4.0 mph NNW6.4 kmh NNW -- 29.75 in1007.5 mb 0.00 in0.0 mm 0.00 in0.0 mm 0.00 in0.0 mm
03:46 PM 16.2°F-8.8°C 6.3°F-14.3°C 65% 4.0 mph WNW6.4 kmh WNW -- 29.75 in1007.5 mb 0.00 in0.0 mm 0.00 in0.0 mm 0.00 in0.0 mm
03:47 PM 16.2°F-8.8°C 5.6°F-14.7°C 63% 5.0 mph WNW8.0 kmh WNW -- 29.75 in1007.5 mb 0.00 in0.0 mm 0.00 in0.0 mm 0.00 in0.0 mm
03:48 PM 16.2°F-8.8°C 5.6°F-14.7°C 63% 4.0 mph WNW6.4 kmh WNW -- 29.75 in1007.5 mb 0.00 in0.0 mm 0.00 in0.0 mm 0.00 in0.0 mm
03:49 PM 16.2°F-8.8°C 5.6°F-14.7°C 63% 3.0 mph WNW4.8 kmh WNW -- 29.75 in1007.5 mb 0.00 in0.0 mm 0.00 in0.0 mm 0.00 in0.0 mm
03:50 PM 16.2°F-8.8°C 6.3°F-14.3°C 65% 4.0 mph WNW6.4 kmh WNW -- 29.75 in1007.5 mb 0.00 in0.0 mm 0.00 in0.0 mm 0.00 in0.0 mm
03:51 PM 16.2°F-8.8°C 6.3°F-14.3°C 65% 5.0 mph NNW8.0 kmh NNW -- 29.75 in1007.5 mb 0.00 in0.0 mm 0.00 in0.0 mm 0.00 in0.0 mm
03:52 PM 16.2°F-8.8°C 6.3°F-14.3°C 65% 2.0 mph W3.2 kmh W -- 29.75 in1007.5 mb 0.00 in0.0 mm 0.00 in0.0 mm 0.00 in0.0 mm
03:53 PM 16.2°F-8.8°C 7.3°F-13.7°C 68% 3.0 mph 4.8 kmh -- 29.75 in1007.5 mb 0.00 in0.0 mm 0.00 in0.0 mm 0.00 in0.0 mm
03:54 PM 16.4°F-8.7°C 7.5°F-13.6°C 68% 4.0 mph WNW6.4 kmh WNW -- 29.75 in1007.5 mb 0.00 in0.0 mm 0.00 in0.0 mm 0.00 in0.0 mm
03:55 PM 16.2°F-8.8°C 6.3°F-14.3°C 65% 4.0 mph NW6.4 kmh NW -- 29.75 in1007.5 mb 0.00 in0.0 mm 0.00 in0.0 mm 0.00 in0.0 mm
03:56 PM 16.2°F-8.8°C 6.3°F-14.3°C 65% 2.0 mph NNW3.2 kmh NNW -- 29.75 in1007.5 mb 0.00 in0.0 mm 0.00 in0.0 mm 0.00 in0.0 mm
03:57 PM 16.2°F-8.8°C 6.3°F-14.3°C 65% 6.0 mph NNW9.7 kmh NNW -- 29.75 in1007.5 mb 0.00 in0.0 mm 0.00 in0.0 mm 0.00 in0.0 mm
03:58 PM 16.4°F-8.7°C 6.5°F-14.2°C 65% 5.0 mph NW8.0 kmh NW -- 29.75 in1007.5 mb 0.00 in0.0 mm 0.00 in0.0 mm 0.00 in0.0 mm
03:59 PM 16.2°F-8.8°C 6.3°F-14.3°C 65% 3.0 mph NW4.8 kmh NW -- 29.75 in1007.5 mb 0.00 in0.0 mm 0.00 in0.0 mm 0.00 in0.0 mm
04:00 PM 16.4°F-8.7°C 6.8°F-14.0°C 66% 3.0 mph NNW4.8 kmh NNW -- 29.75 in1007.5 mb 0.00 in0.0 mm 0.00 in0.0 mm 0.00 in0.0 mm
04:01 PM 16.4°F-8.7°C 6.8°F-14.0°C 66% 4.0 mph W6.4 kmh W -- 29.74 in1007.1 mb 0.00 in0.0 mm 0.00 in0.0 mm 0.00 in0.0 mm
04:02 PM 16.4°F-8.7°C 6.5°F-14.2°C 65% 4.0 mph SW6.4 kmh SW -- 29.74 in1007.1 mb 0.00 in0.0 mm 0.00 in0.0 mm 0.00 in0.0 mm
04:03 PM 16.2°F-8.8°C 6.3°F-14.3°C 65% 3.0 mph W4.8 kmh W -- 29.74 in1007.1 mb 0.00 in0.0 mm 0.00 in0.0 mm 0.00 in0.0 mm
04:04 PM 15.9°F-8.9°C 6.5°F-14.2°C 66% 4.0 mph W6.4 kmh W -- 29.75 in1007.5 mb 0.00 in0.0 mm 0.00 in0.0 mm 0.00 in0.0 mm
04:05 PM 15.9°F-8.9°C 7.2°F-13.8°C 68% 3.0 mph SW4.8 kmh SW -- 29.75 in1007.5 mb 0.00 in0.0 mm 0.00 in0.0 mm 0.00 in0.0 mm
04:06 PM 16.2°F-8.8°C 6.7°F-14.1°C 66% 4.0 mph W6.4 kmh W -- 29.75 in1007.5 mb 0.00 in0.0 mm 0.00 in0.0 mm 0.00 in0.0 mm
04:07 PM 15.9°F-8.9°C 6.5°F-14.2°C 66% 2.0 mph WNW3.2 kmh WNW -- 29.75 in1007.5 mb 0.00 in0.0 mm 0.00 in0.0 mm 0.00 in0.0 mm
04:08 PM 16.2°F-8.8°C 6.7°F-14.1°C 66% 5.0 mph WNW8.0 kmh WNW -- 29.75 in1007.5 mb 0.00 in0.0 mm 0.00 in0.0 mm 0.00 in0.0 mm
04:09 PM 16.2°F-8.8°C 6.3°F-14.3°C 65% 5.0 mph NW8.0 kmh NW -- 29.75 in1007.5 mb 0.00 in0.0 mm 0.00 in0.0 mm 0.00 in0.0 mm
04:11 PM 15.8°F-9.0°C 6.0°F-14.4°C 65% 5.0 mph WNW8.0 kmh WNW -- 29.75 in1007.5 mb 0.00 in0.0 mm 0.00 in0.0 mm 0.00 in0.0 mm
04:12 PM 15.6°F-9.1°C 5.8°F-14.6°C 65% 5.0 mph NW8.0 kmh NW -- 29.75 in1007.5 mb 0.00 in0.0 mm 0.00 in0.0 mm 0.00 in0.0 mm
04:13 PM 15.6°F-9.1°C 5.8°F-14.6°C 65% 4.0 mph WNW6.4 kmh WNW -- 29.74 in1007.1 mb 0.00 in0.0 mm 0.00 in0.0 mm 0.00 in0.0 mm
04:14 PM 15.8°F-9.0°C 7.0°F-13.9°C 68% 5.0 mph W8.0 kmh W -- 29.74 in1007.1 mb 0.00 in0.0 mm 0.00 in0.0 mm 0.00 in0.0 mm
04:15 PM 15.6°F-9.1°C 6.8°F-14.0°C 68% 4.0 mph NW6.4 kmh NW -- 29.74 in1007.1 mb 0.00 in0.0 mm 0.00 in0.0 mm 0.00 in0.0 mm
04:16 PM 15.3°F-9.3°C 6.8°F-14.0°C 69% 5.0 mph W8.0 kmh W -- 29.75 in1007.5 mb 0.00 in0.0 mm 0.00 in0.0 mm 0.00 in0.0 mm
04:17 PM 15.2°F-9.3°C 6.5°F-14.2°C 68% 5.0 mph NNW8.0 kmh NNW -- 29.75 in1007.5 mb 0.00 in0.0 mm 0.00 in0.0 mm 0.00 in0.0 mm
04:18 PM 15.2°F-9.3°C 6.8°F-14.0°C 69% 5.0 mph W8.0 kmh W -- 29.75 in1007.5 mb 0.00 in0.0 mm 0.00 in0.0 mm 0.00 in0.0 mm
04:19 PM 15.2°F-9.3°C 6.8°F-14.0°C 69% 4.0 mph WNW6.4 kmh WNW -- 29.75 in1007.5 mb 0.00 in0.0 mm 0.00 in0.0 mm 0.00 in0.0 mm
04:20 PM 15.0°F-9.4°C 6.6°F-14.1°C 69% 5.0 mph WNW8.0 kmh WNW -- 29.75 in1007.5 mb 0.00 in0.0 mm 0.00 in0.0 mm 0.00 in0.0 mm
04:21 PM 15.2°F-9.3°C 7.1°F-13.8°C 70% 4.0 mph NNW6.4 kmh NNW -- 29.75 in1007.5 mb 0.00 in0.0 mm 0.00 in0.0 mm 0.00 in0.0 mm
04:22 PM 15.0°F-9.4°C 7.0°F-13.9°C 70% 4.0 mph WNW6.4 kmh WNW -- 29.75 in1007.5 mb 0.00 in0.0 mm 0.00 in0.0 mm 0.00 in0.0 mm
04:23 PM 15.0°F-9.4°C 7.0°F-13.9°C 70% 6.0 mph W9.7 kmh W -- 29.75 in1007.5 mb 0.00 in0.0 mm 0.00 in0.0 mm 0.00 in0.0 mm
04:24 PM 15.0°F-9.4°C 7.0°F-13.9°C 70% 5.0 mph W8.0 kmh W -- 29.75 in1007.5 mb 0.00 in0.0 mm 0.00 in0.0 mm 0.00 in0.0 mm
04:25 PM 15.0°F-9.4°C 7.0°F-13.9°C 70% 4.0 mph WNW6.4 kmh WNW -- 29.75 in1007.5 mb 0.00 in0.0 mm 0.00 in0.0 mm 0.00 in0.0 mm
04:26 PM 14.7°F-9.6°C 6.3°F-14.3°C 69% 2.0 mph WSW3.2 kmh WSW -- 29.75 in1007.5 mb 0.00 in0.0 mm 0.00 in0.0 mm 0.00 in0.0 mm
04:27 PM 14.9°F-9.5°C 6.8°F-14.0°C 70% 3.0 mph NW4.8 kmh NW -- 29.75 in1007.5 mb 0.00 in0.0 mm 0.00 in0.0 mm 0.00 in0.0 mm
04:28 PM 14.9°F-9.5°C 7.1°F-13.8°C 71% 4.0 mph NNW6.4 kmh NNW -- 29.75 in1007.5 mb 0.00 in0.0 mm 0.00 in0.0 mm 0.00 in0.0 mm
04:29 PM 14.9°F-9.5°C 7.1°F-13.8°C 71% 3.0 mph NW4.8 kmh NW -- 29.75 in1007.5 mb 0.00 in0.0 mm 0.00 in0.0 mm 0.00 in0.0 mm
04:30 PM 14.9°F-9.5°C 7.1°F-13.8°C 71% 4.0 mph W6.4 kmh W -- 29.75 in1007.5 mb 0.00 in0.0 mm 0.00 in0.0 mm 0.00 in0.0 mm
04:31 PM 15.0°F-9.4°C 7.3°F-13.7°C 71% 4.0 mph W6.4 kmh W -- 29.75 in1007.5 mb 0.00 in0.0 mm 0.00 in0.0 mm 0.00 in0.0 mm
04:32 PM 15.0°F-9.4°C 7.0°F-13.9°C 70% 5.0 mph W8.0 kmh W -- 29.75 in1007.5 mb 0.00 in0.0 mm 0.00 in0.0 mm 0.00 in0.0 mm
04:33 PM 15.0°F-9.4°C 7.0°F-13.9°C 70% 4.0 mph W6.4 kmh W -- 29.75 in1007.5 mb 0.00 in0.0 mm 0.00 in0.0 mm 0.00 in0.0 mm
04:34 PM 14.7°F-9.6°C 6.6°F-14.1°C 70% 6.0 mph WSW9.7 kmh WSW -- 29.75 in1007.5 mb 0.00 in0.0 mm 0.00 in0.0 mm 0.00 in0.0 mm
04:35 PM 14.7°F-9.6°C 6.6°F-14.1°C 70% 2.0 mph WNW3.2 kmh WNW -- 29.75 in1007.5 mb 0.00 in0.0 mm 0.00 in0.0 mm 0.00 in0.0 mm
04:36 PM 14.7°F-9.6°C 6.6°F-14.1°C 70% 6.0 mph WNW9.7 kmh WNW -- 29.75 in1007.5 mb 0.00 in0.0 mm 0.00 in0.0 mm 0.00 in0.0 mm
04:37 PM 14.5°F-9.7°C 6.4°F-14.2°C 70% 5.0 mph WSW8.0 kmh WSW -- 29.75 in1007.5 mb 0.00 in0.0 mm 0.00 in0.0 mm 0.00 in0.0 mm
04:38 PM 14.3°F-9.8°C 6.3°F-14.3°C 70% 5.0 mph WSW8.0 kmh WSW -- 29.75 in1007.5 mb 0.00 in0.0 mm 0.00 in0.0 mm 0.00 in0.0 mm
04:39 PM 14.3°F-9.8°C 6.3°F-14.3°C 70% 5.0 mph WNW8.0 kmh WNW -- 29.75 in1007.5 mb 0.00 in0.0 mm 0.00 in0.0 mm 0.00 in0.0 mm
04:40 PM 14.1°F-9.9°C 6.1°F-14.4°C 70% 4.0 mph WNW6.4 kmh WNW -- 29.75 in1007.5 mb 0.00 in0.0 mm 0.00 in0.0 mm 0.00 in0.0 mm
04:41 PM 14.1°F-9.9°C 6.4°F-14.2°C 71% 3.0 mph W4.8 kmh W -- 29.75 in1007.5 mb 0.00 in0.0 mm 0.00 in0.0 mm 0.00 in0.0 mm
04:42 PM 14.1°F-9.9°C 6.1°F-14.4°C 70% 2.0 mph WSW3.2 kmh WSW -- 29.75 in1007.5 mb 0.00 in0.0 mm 0.00 in0.0 mm 0.00 in0.0 mm
04:43 PM 14.3°F-9.8°C 6.3°F-14.3°C 70% 5.0 mph W8.0 kmh W -- 29.75 in1007.5 mb 0.00 in0.0 mm 0.00 in0.0 mm 0.00 in0.0 mm
04:44 PM 14.3°F-9.8°C 6.3°F-14.3°C 70% 4.0 mph WNW6.4 kmh WNW -- 29.75 in1007.5 mb 0.00 in0.0 mm 0.00 in0.0 mm 0.00 in0.0 mm
04:45 PM 14.1°F-9.9°C 6.1°F-14.4°C 70% 3.0 mph W4.8 kmh W -- 29.75 in1007.5 mb 0.00 in0.0 mm 0.00 in0.0 mm 0.00 in0.0 mm
04:46 PM 14.1°F-9.9°C 6.4°F-14.2°C 71% 2.0 mph W3.2 kmh W -- 29.76 in1007.8 mb 0.00 in0.0 mm 0.00 in0.0 mm 0.00 in0.0 mm
04:47 PM 14.3°F-9.8°C 6.6°F-14.1°C 71% 6.0 mph W9.7 kmh W -- 29.76 in1007.8 mb 0.00 in0.0 mm 0.00 in0.0 mm 0.00 in0.0 mm
04:48 PM 14.3°F-9.8°C 6.6°F-14.1°C 71% 5.0 mph WNW8.0 kmh WNW -- 29.75 in1007.5 mb 0.00 in0.0 mm 0.00 in0.0 mm 0.00 in0.0 mm
04:49 PM 14.1°F-9.9°C 6.1°F-14.4°C 70% 3.0 mph W4.8 kmh W -- 29.75 in1007.5 mb 0.00 in0.0 mm 0.00 in0.0 mm 0.00 in0.0 mm
04:50 PM 14.3°F-9.8°C 7.2°F-13.8°C 73% 2.0 mph W3.2 kmh W -- 29.75 in1007.5 mb 0.00 in0.0 mm 0.00 in0.0 mm 0.00 in0.0 mm
04:51 PM 14.5°F-9.7°C 7.4°F-13.7°C 73% 3.0 mph W4.8 kmh W -- 29.75 in1007.5 mb 0.00 in0.0 mm 0.00 in0.0 mm 0.00 in0.0 mm
04:52 PM 14.5°F-9.7°C 6.7°F-14.1°C 71% 4.0 mph W6.4 kmh W -- 29.75 in1007.5 mb 0.00 in0.0 mm 0.00 in0.0 mm 0.00 in0.0 mm
04:53 PM 14.5°F-9.7°C 6.4°F-14.2°C 70% 6.0 mph W9.7 kmh W -- 29.75 in1007.5 mb 0.00 in0.0 mm 0.00 in0.0 mm 0.00 in0.0 mm
04:54 PM 14.1°F-9.9°C 6.1°F-14.4°C 70% 5.0 mph WNW8.0 kmh WNW -- 29.75 in1007.5 mb 0.00 in0.0 mm 0.00 in0.0 mm 0.00 in0.0 mm
04:55 PM 13.9°F-10.1°C 5.7°F-14.6°C 70% 5.0 mph WNW8.0 kmh WNW -- 29.75 in1007.5 mb 0.00 in0.0 mm 0.00 in0.0 mm 0.00 in0.0 mm
04:56 PM 13.7°F-10.2°C 5.6°F-14.7°C 70% 4.0 mph NE6.4 kmh NE -- 29.75 in1007.5 mb 0.00 in0.0 mm 0.00 in0.0 mm 0.00 in0.0 mm
04:57 PM 13.9°F-10.1°C 6.1°F-14.4°C 71% 5.0 mph WNW8.0 kmh WNW -- 29.75 in1007.5 mb 0.00 in0.0 mm 0.00 in0.0 mm 0.00 in0.0 mm
04:58 PM 13.9°F-10.1°C 6.1°F-14.4°C 71% 7.0 mph NW11.3 kmh NW -- 29.75 in1007.5 mb 0.00 in0.0 mm 0.00 in0.0 mm 0.00 in0.0 mm
04:59 PM 13.9°F-10.1°C 5.7°F-14.6°C 70% 4.0 mph NW6.4 kmh NW -- 29.75 in1007.5 mb 0.00 in0.0 mm 0.00 in0.0 mm 0.00 in0.0 mm
05:00 PM 13.7°F-10.2°C 5.9°F-14.5°C 71% 4.0 mph W6.4 kmh W -- 29.75 in1007.5 mb 0.00 in0.0 mm 0.00 in0.0 mm 0.00 in0.0 mm
05:01 PM 13.7°F-10.2°C 6.5°F-14.2°C 73% 1.0 mph W1.6 kmh W -- 29.75 in1007.5 mb 0.00 in0.0 mm 0.00 in0.0 mm 0.00 in0.0 mm
05:02 PM 13.9°F-10.1°C 6.7°F-14.1°C 73% 3.0 mph NNW4.8 kmh NNW -- 29.75 in1007.5 mb 0.00 in0.0 mm 0.00 in0.0 mm 0.00 in0.0 mm
05:03 PM 13.9°F-10.1°C 6.7°F-14.1°C 73% 5.0 mph W8.0 kmh W -- 29.75 in1007.5 mb 0.00 in0.0 mm 0.00 in0.0 mm 0.00 in0.0 mm
05:04 PM 13.9°F-10.1°C 6.1°F-14.4°C 71% 4.0 mph W6.4 kmh W -- 29.75 in1007.5 mb 0.00 in0.0 mm 0.00 in0.0 mm 0.00 in0.0 mm
05:05 PM 13.9°F-10.1°C 6.1°F-14.4°C 71% 2.0 mph W3.2 kmh W -- 29.75 in1007.5 mb 0.00 in0.0 mm 0.00 in0.0 mm 0.00 in0.0 mm
05:06 PM 14.1°F-9.9°C 7.0°F-13.9°C 73% 2.0 mph W3.2 kmh W -- 29.75 in1007.5 mb 0.00 in0.0 mm 0.00 in0.0 mm 0.00 in0.0 mm
05:07 PM 14.3°F-9.8°C 7.2°F-13.8°C 73% 3.0 mph W4.8 kmh W -- 29.75 in1007.5 mb 0.00 in0.0 mm 0.00 in0.0 mm 0.00 in0.0 mm
05:08 PM 14.7°F-9.6°C 6.9°F-13.9°C 71% 5.0 mph WNW8.0 kmh WNW -- 29.75 in1007.5 mb 0.00 in0.0 mm 0.00 in0.0 mm 0.00 in0.0 mm
05:09 PM 14.7°F-9.6°C 6.6°F-14.1°C 70% 5.0 mph W8.0 kmh W -- 29.75 in1007.5 mb 0.00 in0.0 mm 0.00 in0.0 mm 0.00 in0.0 mm
05:10 PM 14.9°F-9.5°C 6.8°F-14.0°C 70% 5.0 mph NNW8.0 kmh NNW -- 29.75 in1007.5 mb 0.00 in0.0 mm 0.00 in0.0 mm 0.00 in0.0 mm
05:11 PM 14.9°F-9.5°C 6.8°F-14.0°C 70% 5.0 mph NW8.0 kmh NW -- 29.75 in1007.5 mb 0.00 in0.0 mm 0.00 in0.0 mm 0.00 in0.0 mm
05:12 PM 15.0°F-9.4°C 6.6°F-14.1°C 69% 4.0 mph WNW6.4 kmh WNW -- 29.75 in1007.5 mb 0.00 in0.0 mm 0.00 in0.0 mm 0.00 in0.0 mm
05:13 PM 15.0°F-9.4°C 6.3°F-14.3°C 68% 4.0 mph WNW6.4 kmh WNW -- 29.75 in1007.5 mb 0.00 in0.0 mm 0.00 in0.0 mm 0.00 in0.0 mm
05:14 PM 15.3°F-9.3°C 6.8°F-14.0°C 69% 5.0 mph W8.0 kmh W -- 29.75 in1007.5 mb 0.00 in0.0 mm 0.00 in0.0 mm 0.00 in0.0 mm
05:15 PM 15.8°F-9.0°C 7.3°F-13.7°C 69% 6.0 mph WNW9.7 kmh WNW -- 29.74 in1007.1 mb 0.00 in0.0 mm 0.00 in0.0 mm 0.00 in0.0 mm
05:16 PM 16.2°F-8.8°C 7.3°F-13.7°C 68% 6.0 mph NNW9.7 kmh NNW -- 29.75 in1007.5 mb 0.00 in0.0 mm 0.00 in0.0 mm 0.00 in0.0 mm
05:17 PM 16.7°F-8.5°C 6.9°F-13.9°C 65% 4.0 mph WNW6.4 kmh WNW -- 29.74 in1007.1 mb 0.00 in0.0 mm 0.00 in0.0 mm 0.00 in0.0 mm
05:18 PM 16.7°F-8.5°C 6.9°F-13.9°C 65% 4.0 mph WNW6.4 kmh WNW -- 29.75 in1007.5 mb 0.00 in0.0 mm 0.00 in0.0 mm 0.00 in0.0 mm
05:19 PM 17.1°F-8.3°C 7.5°F-13.6°C 66% 5.0 mph WNW8.0 kmh WNW -- 29.75 in1007.5 mb 0.00 in0.0 mm 0.00 in0.0 mm 0.00 in0.0 mm
05:20 PM 17.2°F-8.2°C 7.7°F-13.5°C 66% 5.0 mph WNW8.0 kmh WNW -- 29.75 in1007.5 mb 0.00 in0.0 mm 0.00 in0.0 mm 0.00 in0.0 mm
05:21 PM 17.1°F-8.3°C 7.2°F-13.8°C 65% 4.0 mph WNW6.4 kmh WNW -- 29.75 in1007.5 mb 0.00 in0.0 mm 0.00 in0.0 mm 0.00 in0.0 mm
05:22 PM 16.4°F-8.7°C 7.5°F-13.6°C 68% 3.0 mph WNW4.8 kmh WNW -- 29.75 in1007.5 mb 0.00 in0.0 mm 0.00 in0.0 mm 0.00 in0.0 mm
05:23 PM 16.4°F-8.7°C 7.5°F-13.6°C 68% 2.0 mph NE3.2 kmh NE -- 29.75 in1007.5 mb 0.00 in0.0 mm 0.00 in0.0 mm 0.00 in0.0 mm
05:24 PM 16.9°F-8.4°C 8.4°F-13.1°C 69% 4.0 mph NNW6.4 kmh NNW -- 29.75 in1007.5 mb 0.00 in0.0 mm 0.00 in0.0 mm 0.00 in0.0 mm
05:25 PM 17.1°F-8.3°C 8.2°F-13.2°C 68% 4.0 mph NNW6.4 kmh NNW -- 29.74 in1007.1 mb 0.00 in0.0 mm 0.00 in0.0 mm 0.00 in0.0 mm
05:26 PM 17.4°F-8.1°C 7.9°F-13.4°C 66% 4.0 mph NW6.4 kmh NW -- 29.75 in1007.5 mb 0.00 in0.0 mm 0.00 in0.0 mm 0.00 in0.0 mm
05:27 PM 17.4°F-8.1°C 7.9°F-13.4°C 66% 4.0 mph NNW6.4 kmh NNW -- 29.74 in1007.1 mb 0.00 in0.0 mm 0.00 in0.0 mm 0.00 in0.0 mm
05:28 PM 17.7°F-7.9°C 7.9°F-13.4°C 65% 5.0 mph NW8.0 kmh NW -- 29.74 in1007.1 mb 0.00 in0.0 mm 0.00 in0.0 mm 0.00 in0.0 mm
05:29 PM 17.9°F-7.8°C 8.1°F-13.3°C 65% 6.0 mph NW9.7 kmh NW -- 29.74 in1007.1 mb 0.00 in0.0 mm 0.00 in0.0 mm 0.00 in0.0 mm
05:30 PM 17.7°F-7.9°C 7.2°F-13.8°C 63% 3.0 mph NW4.8 kmh NW -- 29.75 in1007.5 mb 0.00 in0.0 mm 0.00 in0.0 mm 0.00 in0.0 mm
05:31 PM 17.5°F-8.1°C 7.5°F-13.6°C 65% 5.0 mph NW8.0 kmh NW -- 29.75 in1007.5 mb 0.00 in0.0 mm 0.00 in0.0 mm 0.00 in0.0 mm
05:33 PM 16.9°F-8.4°C 7.0°F-13.9°C 65% 5.0 mph WNW8.0 kmh WNW -- 29.75 in1007.5 mb 0.00 in0.0 mm 0.00 in0.0 mm 0.00 in0.0 mm
05:34 PM 16.4°F-8.7°C 6.8°F-14.0°C 66% 3.0 mph NW4.8 kmh NW -- 29.75 in1007.5 mb 0.00 in0.0 mm 0.00 in0.0 mm 0.00 in0.0 mm
05:35 PM 16.7°F-8.5°C 7.2°F-13.8°C 66% 6.0 mph WNW9.7 kmh WNW -- 29.75 in1007.5 mb 0.00 in0.0 mm 0.00 in0.0 mm 0.00 in0.0 mm
05:36 PM 17.1°F-8.3°C 7.5°F-13.6°C 66% 6.0 mph WNW9.7 kmh WNW -- 29.75 in1007.5 mb 0.00 in0.0 mm 0.00 in0.0 mm 0.00 in0.0 mm
05:37 PM 17.1°F-8.3°C 7.2°F-13.8°C 65% 3.0 mph WNW4.8 kmh WNW -- 29.74 in1007.1 mb 0.00 in0.0 mm 0.00 in0.0 mm 0.00 in0.0 mm
05:38 PM 17.1°F-8.3°C 7.5°F-13.6°C 66% 4.0 mph WNW6.4 kmh WNW -- 29.75 in1007.5 mb 0.00 in0.0 mm 0.00 in0.0 mm 0.00 in0.0 mm
05:39 PM 16.9°F-8.4°C 7.4°F-13.7°C 66% 4.0 mph WNW6.4 kmh WNW -- 29.74 in1007.1 mb 0.00 in0.0 mm 0.00 in0.0 mm 0.00 in0.0 mm
05:40 PM 16.7°F-8.5°C 6.9°F-13.9°C 65% 3.0 mph WNW4.8 kmh WNW -- 29.74 in1007.1 mb 0.00 in0.0 mm 0.00 in0.0 mm 0.00 in0.0 mm
05:41 PM 16.9°F-8.4°C 7.4°F-13.7°C 66% 4.0 mph WNW6.4 kmh WNW -- 29.74 in1007.1 mb 0.00 in0.0 mm 0.00 in0.0 mm 0.00 in0.0 mm
05:42 PM 17.1°F-8.3°C 7.5°F-13.6°C 66% 5.0 mph NW8.0 kmh NW -- 29.74 in1007.1 mb 0.00 in0.0 mm 0.00 in0.0 mm 0.00 in0.0 mm
05:44 PM 16.7°F-8.5°C 7.2°F-13.8°C 66% 3.0 mph NNW4.8 kmh NNW -- 29.74 in1007.1 mb 0.00 in0.0 mm 0.00 in0.0 mm 0.00 in0.0 mm
05:45 PM 16.2°F-8.8°C 6.7°F-14.1°C 66% 3.0 mph 4.8 kmh -- 29.74 in1007.1 mb 0.00 in0.0 mm 0.00 in0.0 mm 0.00 in0.0 mm
05:46 PM 15.9°F-8.9°C 6.5°F-14.2°C 66% 1.0 mph NE1.6 kmh NE -- 29.74 in1007.1 mb 0.00 in0.0 mm 0.00 in0.0 mm 0.00 in0.0 mm
05:47 PM 16.2°F-8.8°C 7.3°F-13.7°C 68% 3.0 mph NE4.8 kmh NE -- 29.74 in1007.1 mb 0.00 in0.0 mm 0.00 in0.0 mm 0.00 in0.0 mm
05:48 PM 16.2°F-8.8°C 6.7°F-14.1°C 66% 5.0 mph NE8.0 kmh NE -- 29.74 in1007.1 mb 0.00 in0.0 mm 0.00 in0.0 mm 0.00 in0.0 mm
05:49 PM 16.2°F-8.8°C 6.7°F-14.1°C 66% 4.0 mph E6.4 kmh E -- 29.74 in1007.1 mb 0.00 in0.0 mm 0.00 in0.0 mm 0.00 in0.0 mm
05:50 PM 15.9°F-8.9°C 6.5°F-14.2°C 66% 5.0 mph ENE8.0 kmh ENE -- 29.74 in1007.1 mb 0.00 in0.0 mm 0.00 in0.0 mm 0.00 in0.0 mm
05:51 PM 15.8°F-9.0°C 6.3°F-14.3°C 66% 3.0 mph ENE4.8 kmh ENE -- 29.74 in1007.1 mb 0.00 in0.0 mm 0.00 in0.0 mm 0.00 in0.0 mm
05:52 PM 15.6°F-9.1°C 6.8°F-14.0°C 68% 3.0 mph NE4.8 kmh NE -- 29.74 in1007.1 mb 0.00 in0.0 mm 0.00 in0.0 mm 0.00 in0.0 mm
05:53 PM 15.0°F-9.4°C 6.6°F-14.1°C 69% 6.0 mph E9.7 kmh E -- 29.74 in1007.1 mb 0.00 in0.0 mm 0.00 in0.0 mm 0.00 in0.0 mm
05:54 PM 14.9°F-9.5°C 6.5°F-14.2°C 69% 5.0 mph ENE8.0 kmh ENE -- 29.74 in1007.1 mb 0.00 in0.0 mm 0.00 in0.0 mm 0.00 in0.0 mm
05:55 PM 14.7°F-9.6°C 6.6°F-14.1°C 70% 5.0 mph NE8.0 kmh NE -- 29.74 in1007.1 mb 0.00 in0.0 mm 0.00 in0.0 mm 0.00 in0.0 mm
05:56 PM 14.3°F-9.8°C 6.3°F-14.3°C 70% 4.0 mph NE6.4 kmh NE -- 29.74 in1007.1 mb 0.00 in0.0 mm 0.00 in0.0 mm 0.00 in0.0 mm
05:57 PM 14.1°F-9.9°C 6.1°F-14.4°C 70% 3.0 mph NE4.8 kmh NE -- 29.74 in1007.1 mb 0.00 in0.0 mm 0.00 in0.0 mm 0.00 in0.0 mm
05:58 PM 13.9°F-10.1°C 5.7°F-14.6°C 70% 4.0 mph NE6.4 kmh NE -- 29.74 in1007.1 mb 0.00 in0.0 mm 0.00 in0.0 mm 0.00 in0.0 mm
06:00 PM 13.7°F-10.2°C 5.6°F-14.7°C 70% 3.0 mph NNE4.8 kmh NNE -- 29.74 in1007.1 mb 0.00 in0.0 mm 0.00 in0.0 mm 0.00 in0.0 mm
06:01 PM 13.7°F-10.2°C 5.6°F-14.7°C 70% 5.0 mph ENE8.0 kmh ENE -- 29.74 in1007.1 mb 0.00 in0.0 mm 0.00 in0.0 mm 0.00 in0.0 mm
06:02 PM 13.7°F-10.2°C 5.6°F-14.7°C 70% 5.0 mph E8.0 kmh E -- 29.74 in1007.1 mb 0.00 in0.0 mm 0.00 in0.0 mm 0.00 in0.0 mm
06:03 PM 13.6°F-10.2°C 5.6°F-14.7°C 70% 4.0 mph E6.4 kmh E -- 29.74 in1007.1 mb 0.00 in0.0 mm 0.00 in0.0 mm 0.00 in0.0 mm
06:04 PM 13.5°F-10.3°C 5.4°F-14.8°C 70% 4.0 mph ENE6.4 kmh ENE -- 29.74 in1007.1 mb 0.00 in0.0 mm 0.00 in0.0 mm 0.00 in0.0 mm
06:05 PM 13.3°F-10.4°C 5.2°F-14.9°C 70% 5.0 mph ENE8.0 kmh ENE -- 29.74 in1007.1 mb 0.00 in0.0 mm 0.00 in0.0 mm 0.00 in0.0 mm
06:06 PM 13.3°F-10.4°C 5.5°F-14.7°C 71% 4.0 mph ENE6.4 kmh ENE -- 29.74 in1007.1 mb 0.00 in0.0 mm 0.00 in0.0 mm 0.00 in0.0 mm
06:07 PM 13.3°F-10.4°C 5.5°F-14.7°C 71% 3.0 mph ENE4.8 kmh ENE -- 29.74 in1007.1 mb 0.00 in0.0 mm 0.00 in0.0 mm 0.00 in0.0 mm
06:08 PM 13.1°F-10.5°C 5.4°F-14.8°C 71% 4.0 mph E6.4 kmh E -- 29.74 in1007.1 mb 0.00 in0.0 mm 0.00 in0.0 mm 0.00 in0.0 mm
06:09 PM 13.1°F-10.5°C 5.4°F-14.8°C 71% 4.0 mph NE6.4 kmh NE -- 29.74 in1007.1 mb 0.00 in0.0 mm 0.00 in0.0 mm 0.00 in0.0 mm
06:10 PM 12.8°F-10.7°C 5.0°F-15.0°C 71% 5.0 mph E8.0 kmh E -- 29.74 in1007.1 mb 0.00 in0.0 mm 0.00 in0.0 mm 0.00 in0.0 mm
06:11 PM 12.8°F-10.7°C 5.0°F-15.0°C 71% 7.0 mph ENE11.3 kmh ENE -- 29.74 in1007.1 mb 0.00 in0.0 mm 0.00 in0.0 mm 0.00 in0.0 mm
06:12 PM 12.8°F-10.7°C 5.0°F-15.0°C 71% 6.0 mph ENE9.7 kmh ENE -- 29.74 in1007.1 mb 0.00 in0.0 mm 0.00 in0.0 mm 0.00 in0.0 mm
06:13 PM 12.6°F-10.8°C 4.8°F-15.1°C 71% 6.0 mph ENE9.7 kmh ENE -- 29.75 in1007.5 mb 0.00 in0.0 mm 0.00 in0.0 mm 0.00 in0.0 mm
06:14 PM 12.6°F-10.8°C 4.8°F-15.1°C 71% 4.0 mph E6.4 kmh E -- 29.75 in1007.5 mb 0.00 in0.0 mm 0.00 in0.0 mm 0.00 in0.0 mm
06:15 PM 12.6°F-10.8°C 5.5°F-14.7°C 73% 7.0 mph ENE11.3 kmh ENE -- 29.75 in1007.5 mb 0.00 in0.0 mm 0.00 in0.0 mm 0.00 in0.0 mm
06:16 PM 12.6°F-10.8°C 5.5°F-14.7°C 73% 5.0 mph E8.0 kmh E -- 29.74 in1007.1 mb 0.00 in0.0 mm 0.00 in0.0 mm 0.00 in0.0 mm
06:17 PM 12.6°F-10.8°C 5.5°F-14.7°C 73% 6.0 mph E9.7 kmh E -- 29.74 in1007.1 mb 0.00 in0.0 mm 0.00 in0.0 mm 0.00 in0.0 mm
06:18 PM 12.5°F-10.8°C 5.5°F-14.7°C 73% 5.0 mph ENE8.0 kmh ENE -- 29.74 in1007.1 mb 0.00 in0.0 mm 0.00 in0.0 mm 0.00 in0.0 mm
06:19 PM 12.5°F-10.8°C 5.5°F-14.7°C 73% 6.0 mph E9.7 kmh E -- 29.74 in1007.1 mb 0.00 in0.0 mm 0.00 in0.0 mm 0.00 in0.0 mm
06:21 PM 12.5°F-10.8°C 5.5°F-14.7°C 73% 6.0 mph E9.7 kmh E -- 29.75 in1007.5 mb 0.00 in0.0 mm 0.00 in0.0 mm 0.00 in0.0 mm
06:23 PM 12.5°F-10.8°C 5.5°F-14.7°C 73% 4.0 mph E6.4 kmh E -- 29.75 in1007.5 mb 0.00 in0.0 mm 0.00 in0.0 mm 0.00 in0.0 mm
06:24 PM 12.4°F-10.9°C 5.3°F-14.8°C 73% 7.0 mph E11.3 kmh E -- 29.75 in1007.5 mb 0.00 in0.0 mm 0.00 in0.0 mm 0.00 in0.0 mm
06:25 PM 12.2°F-11.0°C 5.1°F-14.9°C 73% 5.0 mph NE8.0 kmh NE -- 29.75 in1007.5 mb 0.00 in0.0 mm 0.00 in0.0 mm 0.00 in0.0 mm
06:26 PM 12.2°F-11.0°C 5.1°F-14.9°C 73% 7.0 mph ENE11.3 kmh ENE -- 29.74 in1007.1 mb 0.00 in0.0 mm 0.00 in0.0 mm 0.00 in0.0 mm
06:27 PM 12.0°F-11.1°C 4.9°F-15.1°C 73% 5.0 mph E8.0 kmh E -- 29.75 in1007.5 mb 0.00 in0.0 mm 0.00 in0.0 mm 0.00 in0.0 mm
06:28 PM 11.8°F-11.2°C 4.8°F-15.1°C 73% 5.0 mph ENE8.0 kmh ENE -- 29.75 in1007.5 mb 0.00 in0.0 mm 0.00 in0.0 mm 0.00 in0.0 mm
06:29 PM 11.8°F-11.2°C 5.4°F-14.8°C 75% 5.0 mph NE8.0 kmh NE -- 29.75 in1007.5 mb 0.00 in0.0 mm 0.00 in0.0 mm 0.00 in0.0 mm
06:30 PM 11.8°F-11.2°C 5.4°F-14.8°C 75% 4.0 mph ENE6.4 kmh ENE -- 29.75 in1007.5 mb 0.00 in0.0 mm 0.00 in0.0 mm 0.00 in0.0 mm
06:31 PM 11.8°F-11.2°C 5.4°F-14.8°C 75% 7.0 mph E11.3 kmh E -- 29.75 in1007.5 mb 0.00 in0.0 mm 0.00 in0.0 mm 0.00 in0.0 mm
06:32 PM 11.8°F-11.2°C 5.4°F-14.8°C 75% 7.0 mph ENE11.3 kmh ENE -- 29.74 in1007.1 mb 0.00 in0.0 mm 0.00 in0.0 mm 0.00 in0.0 mm
06:33 PM 11.8°F-11.2°C 5.4°F-14.8°C 75% 5.0 mph ENE8.0 kmh ENE -- 29.75 in1007.5 mb 0.00 in0.0 mm 0.00 in0.0 mm 0.00 in0.0 mm
06:35 PM 11.8°F-11.2°C 5.4°F-14.8°C 75% 3.0 mph E4.8 kmh E -- 29.75 in1007.5 mb 0.00 in0.0 mm 0.00 in0.0 mm 0.00 in0.0 mm
06:36 PM 11.6°F-11.3°C 5.2°F-14.9°C 75% 5.0 mph E8.0 kmh E -- 29.75 in1007.5 mb 0.00 in0.0 mm 0.00 in0.0 mm 0.00 in0.0 mm
06:37 PM 11.2°F-11.6°C 4.7°F-15.2°C 75% 5.0 mph ENE8.0 kmh ENE -- 29.75 in1007.5 mb 0.00 in0.0 mm 0.00 in0.0 mm 0.00 in0.0 mm
06:38 PM 11.2°F-11.6°C 4.7°F-15.2°C 75% 4.0 mph ENE6.4 kmh ENE -- 29.75 in1007.5 mb 0.00 in0.0 mm 0.00 in0.0 mm 0.00 in0.0 mm
06:39 PM 11.1°F-11.6°C 4.7°F-15.2°C 75% 4.0 mph ENE6.4 kmh ENE -- 29.75 in1007.5 mb 0.00 in0.0 mm 0.00 in0.0 mm 0.00 in0.0 mm
06:40 PM 11.1°F-11.6°C 4.7°F-15.2°C 75% 5.0 mph ENE8.0 kmh ENE -- 29.75 in1007.5 mb 0.00 in0.0 mm 0.00 in0.0 mm 0.00 in0.0 mm
06:41 PM 10.8°F-11.8°C 4.3°F-15.4°C 75% 5.0 mph E8.0 kmh E -- 29.75 in1007.5 mb 0.00 in0.0 mm 0.00 in0.0 mm 0.00 in0.0 mm
06:42 PM 10.8°F-11.8°C 4.3°F-15.4°C 75% 5.0 mph ENE8.0 kmh ENE -- 29.75 in1007.5 mb 0.00 in0.0 mm 0.00 in0.0 mm 0.00 in0.0 mm
06:44 PM 10.8°F-11.8°C 4.3°F-15.4°C 75% 4.0 mph NE6.4 kmh NE -- 29.75 in1007.5 mb 0.00 in0.0 mm 0.00 in0.0 mm 0.00 in0.0 mm
06:45 PM 10.8°F-11.8°C 4.3°F-15.4°C 75% 4.0 mph ENE6.4 kmh ENE -- 29.74 in1007.1 mb 0.00 in0.0 mm 0.00 in0.0 mm 0.00 in0.0 mm
06:46 PM 10.6°F-11.9°C 4.4°F-15.3°C 76% 4.0 mph NE6.4 kmh NE -- 29.74 in1007.1 mb 0.00 in0.0 mm 0.00 in0.0 mm 0.00 in0.0 mm
06:47 PM 10.6°F-11.9°C 4.4°F-15.3°C 76% 4.0 mph ENE6.4 kmh ENE -- 29.75 in1007.5 mb 0.00 in0.0 mm 0.00 in0.0 mm 0.00 in0.0 mm
06:48 PM 10.6°F-11.9°C 4.4°F-15.3°C 76% 4.0 mph E6.4 kmh E -- 29.75 in1007.5 mb 0.00 in0.0 mm 0.00 in0.0 mm 0.00 in0.0 mm
06:49 PM 10.6°F-11.9°C 4.4°F-15.3°C 76% 4.0 mph ENE6.4 kmh ENE -- 29.75 in1007.5 mb 0.00 in0.0 mm 0.00 in0.0 mm 0.00 in0.0 mm
06:50 PM 10.6°F-11.9°C 4.4°F-15.3°C 76% 4.0 mph E6.4 kmh E -- 29.74 in1007.1 mb 0.00 in0.0 mm 0.00 in0.0 mm 0.00 in0.0 mm
06:51 PM 10.6°F-11.9°C 4.4°F-15.3°C 76% 5.0 mph ENE8.0 kmh ENE -- 29.74 in1007.1 mb 0.00 in0.0 mm 0.00 in0.0 mm 0.00 in0.0 mm
06:52 PM 10.3°F-12.1°C 4.1°F-15.5°C 76% 4.0 mph ENE6.4 kmh ENE -- 29.75 in1007.5 mb 0.00 in0.0 mm 0.00 in0.0 mm 0.00 in0.0 mm
06:54 PM 10.3°F-12.1°C 4.1°F-15.5°C 76% 4.0 mph NE6.4 kmh NE -- 29.75 in1007.5 mb 0.00 in0.0 mm 0.00 in0.0 mm 0.00 in0.0 mm
06:55 PM 10.3°F-12.1°C 4.1°F-15.5°C 76% 3.0 mph ENE4.8 kmh ENE -- 29.74 in1007.1 mb 0.00 in0.0 mm 0.00 in0.0 mm 0.00 in0.0 mm
06:56 PM 10.3°F-12.1°C 4.1°F-15.5°C 76% 4.0 mph E6.4 kmh E -- 29.74 in1007.1 mb 0.00 in0.0 mm 0.00 in0.0 mm 0.00 in0.0 mm
06:57 PM 10.4°F-12.0°C 4.5°F-15.3°C 77% 3.0 mph E4.8 kmh E -- 29.74 in1007.1 mb 0.00 in0.0 mm 0.00 in0.0 mm 0.00 in0.0 mm
06:58 PM 10.3°F-12.1°C 4.7°F-15.2°C 78% 3.0 mph E4.8 kmh E -- 29.74 in1007.1 mb 0.00 in0.0 mm 0.00 in0.0 mm 0.00 in0.0 mm
06:59 PM 10.1°F-12.2°C 4.5°F-15.3°C 78% 4.0 mph E6.4 kmh E -- 29.74 in1007.1 mb 0.00 in0.0 mm 0.00 in0.0 mm 0.00 in0.0 mm
07:01 PM 10.1°F-12.2°C 4.5°F-15.3°C 78% 3.0 mph ENE4.8 kmh ENE -- 29.75 in1007.5 mb 0.00 in0.0 mm 0.00 in0.0 mm 0.00 in0.0 mm
07:02 PM 10.1°F-12.2°C 4.5°F-15.3°C 78% 4.0 mph ENE6.4 kmh ENE -- 29.75 in1007.5 mb 0.00 in0.0 mm 0.00 in0.0 mm 0.00 in0.0 mm
07:03 PM 10.1°F-12.2°C 4.5°F-15.3°C 78% 3.0 mph ENE4.8 kmh ENE -- 29.75 in1007.5 mb 0.00 in0.0 mm 0.00 in0.0 mm 0.00 in0.0 mm
07:05 PM 10.1°F-12.2°C 4.5°F-15.3°C 78% 3.0 mph ENE4.8 kmh ENE -- 29.74 in1007.1 mb 0.00 in0.0 mm 0.00 in0.0 mm 0.00 in0.0 mm
07:06 PM 10.1°F-12.2°C 4.5°F-15.3°C 78% 2.0 mph ENE3.2 kmh ENE -- 29.74 in1007.1 mb 0.00 in0.0 mm 0.00 in0.0 mm 0.00 in0.0 mm
07:07 PM 10.1°F-12.2°C 4.5°F-15.3°C 78% 1.0 mph E1.6 kmh E -- 29.74 in1007.1 mb 0.00 in0.0 mm 0.00 in0.0 mm 0.00 in0.0 mm
07:08 PM 10.1°F-12.2°C 4.5°F-15.3°C 78% 2.0 mph E3.2 kmh E -- 29.74 in1007.1 mb 0.00 in0.0 mm 0.00 in0.0 mm 0.00 in0.0 mm
07:09 PM 10.1°F-12.2°C 4.8°F-15.1°C 79% 3.0 mph E4.8 kmh E -- 29.74 in1007.1 mb 0.00 in0.0 mm 0.00 in0.0 mm 0.00 in0.0 mm
07:10 PM 10.1°F-12.2°C 4.8°F-15.1°C 79% 2.0 mph NE3.2 kmh NE -- 29.75 in1007.5 mb 0.00 in0.0 mm 0.00 in0.0 mm 0.00 in0.0 mm
07:11 PM 10.1°F-12.2°C 4.8°F-15.1°C 79% 1.0 mph NE1.6 kmh NE -- 29.74 in1007.1 mb 0.00 in0.0 mm 0.00 in0.0 mm 0.00 in0.0 mm
07:12 PM 10.1°F-12.2°C 4.8°F-15.1°C 79% 2.0 mph ENE3.2 kmh ENE -- 29.74 in1007.1 mb 0.00 in0.0 mm 0.00 in0.0 mm 0.00 in0.0 mm
07:13 PM 10.1°F-12.2°C 4.8°F-15.1°C 79% 3.0 mph NE4.8 kmh NE -- 29.74 in1007.1 mb 0.00 in0.0 mm 0.00 in0.0 mm 0.00 in0.0 mm
07:14 PM 10.1°F-12.2°C 4.8°F-15.1°C 79% 2.0 mph ENE3.2 kmh ENE -- 29.74 in1007.1 mb 0.00 in0.0 mm 0.00 in0.0 mm 0.00 in0.0 mm
07:15 PM 10.1°F-12.2°C 4.8°F-15.1°C 79% 2.0 mph NE3.2 kmh NE -- 29.74 in1007.1 mb 0.00 in0.0 mm 0.00 in0.0 mm 0.00 in0.0 mm
07:16 PM 10.1°F-12.2°C 4.8°F-15.1°C 79% 3.0 mph NE4.8 kmh NE -- 29.74 in1007.1 mb 0.00 in0.0 mm 0.00 in0.0 mm 0.00 in0.0 mm
07:18 PM 10.1°F-12.2°C 4.8°F-15.1°C 79% 2.0 mph NNE3.2 kmh NNE -- 29.74 in1007.1 mb 0.00 in0.0 mm 0.00 in0.0 mm 0.00 in0.0 mm
07:19 PM 10.1°F-12.2°C 4.8°F-15.1°C 79% 3.0 mph NE4.8 kmh NE -- 29.74 in1007.1 mb 0.00 in0.0 mm 0.00 in0.0 mm 0.00 in0.0 mm
07:20 PM 10.0°F-12.2°C 4.8°F-15.1°C 79% 4.0 mph NE6.4 kmh NE -- 29.74 in1007.1 mb 0.00 in0.0 mm 0.00 in0.0 mm 0.00 in0.0 mm
07:21 PM 10.0°F-12.2°C 4.8°F-15.1°C 79% 3.0 mph NE4.8 kmh NE -- 29.74 in1007.1 mb 0.00 in0.0 mm 0.00 in0.0 mm 0.00 in0.0 mm
07:22 PM 10.0°F-12.2°C 4.8°F-15.1°C 79% 2.0 mph NE3.2 kmh NE -- 29.74 in1007.1 mb 0.00 in0.0 mm 0.00 in0.0 mm 0.00 in0.0 mm
07:23 PM 10.0°F-12.2°C 4.8°F-15.1°C 79% 3.0 mph ENE4.8 kmh ENE -- 29.74 in1007.1 mb 0.00 in0.0 mm 0.00 in0.0 mm 0.00 in0.0 mm
07:24 PM 10.0°F-12.2°C 4.8°F-15.1°C 79% 2.0 mph ENE3.2 kmh ENE -- 29.75 in1007.5 mb 0.00 in0.0 mm 0.00 in0.0 mm 0.00 in0.0 mm
07:25 PM 10.0°F-12.2°C 4.8°F-15.1°C 79% 2.0 mph ENE3.2 kmh ENE -- 29.74 in1007.1 mb 0.00 in0.0 mm 0.00 in0.0 mm 0.00 in0.0 mm
07:27 PM 10.0°F-12.2°C 4.8°F-15.1°C 79% 2.0 mph E3.2 kmh E -- 29.74 in1007.1 mb 0.00 in0.0 mm 0.00 in0.0 mm 0.00 in0.0 mm
07:28 PM 10.0°F-12.2°C 4.8°F-15.1°C 79% 1.0 mph ENE1.6 kmh ENE -- 29.74 in1007.1 mb 0.00 in0.0 mm 0.00 in0.0 mm 0.00 in0.0 mm
07:29 PM 10.0°F-12.2°C 4.8°F-15.1°C 79% 2.0 mph NE3.2 kmh NE -- 29.74 in1007.1 mb 0.00 in0.0 mm 0.00 in0.0 mm 0.00 in0.0 mm
07:30 PM 10.0°F-12.2°C 4.8°F-15.1°C 79% 1.0 mph ENE1.6 kmh ENE -- 29.74 in1007.1 mb 0.00 in0.0 mm 0.00 in0.0 mm 0.00 in0.0 mm
07:31 PM 10.0°F-12.2°C 4.8°F-15.1°C 79% 3.0 mph NE4.8 kmh NE -- 29.74 in1007.1 mb 0.00 in0.0 mm 0.00 in0.0 mm 0.00 in0.0 mm
07:33 PM 9.8°F-12.3°C 4.6°F-15.2°C 79% 4.0 mph ENE6.4 kmh ENE -- 29.74 in1007.1 mb 0.00 in0.0 mm 0.00 in0.0 mm 0.00 in0.0 mm
07:34 PM 9.8°F-12.3°C 4.6°F-15.2°C 79% 2.0 mph E3.2 kmh E -- 29.74 in1007.1 mb 0.00 in0.0 mm 0.00 in0.0 mm 0.00 in0.0 mm
07:36 PM 9.8°F-12.3°C 4.6°F-15.2°C 79% 3.0 mph E4.8 kmh E -- 29.74 in1007.1 mb 0.00 in0.0 mm 0.00 in0.0 mm 0.00 in0.0 mm
07:39 PM 9.8°F-12.3°C 4.6°F-15.2°C 79% 2.0 mph ENE3.2 kmh ENE -- 29.74 in1007.1 mb 0.00 in0.0 mm 0.00 in0.0 mm 0.00 in0.0 mm
07:43 PM 9.6°F-12.4°C 4.4°F-15.3°C 79% 3.0 mph E4.8 kmh E -- 29.74 in1007.1 mb 0.00 in0.0 mm 0.00 in0.0 mm 0.00 in0.0 mm
07:44 PM 9.6°F-12.4°C 4.4°F-15.3°C 79% 2.0 mph E3.2 kmh E -- 29.74 in1007.1 mb 0.00 in0.0 mm 0.00 in0.0 mm 0.00 in0.0 mm
07:45 PM 9.6°F-12.4°C 4.4°F-15.3°C 79% 2.0 mph ENE3.2 kmh ENE -- 29.75 in1007.5 mb 0.00 in0.0 mm 0.00 in0.0 mm 0.00 in0.0 mm
07:46 PM 9.6°F-12.4°C 4.4°F-15.3°C 79% 2.0 mph E3.2 kmh E -- 29.75 in1007.5 mb 0.00 in0.0 mm 0.00 in0.0 mm 0.00 in0.0 mm
07:47 PM 9.6°F-12.4°C 4.4°F-15.3°C 79% 1.0 mph ENE1.6 kmh ENE -- 29.75 in1007.5 mb 0.00 in0.0 mm 0.00 in0.0 mm 0.00 in0.0 mm
07:48 PM 9.6°F-12.4°C 4.4°F-15.3°C 79% 2.0 mph NE3.2 kmh NE -- 29.75 in1007.5 mb 0.00 in0.0 mm 0.00 in0.0 mm 0.00 in0.0 mm
07:49 PM 9.6°F-12.4°C 4.4°F-15.3°C 79% 1.0 mph ENE1.6 kmh ENE -- 29.74 in1007.1 mb 0.00 in0.0 mm 0.00 in0.0 mm 0.00 in0.0 mm
07:50 PM 9.6°F-12.4°C 4.7°F-15.2°C 80% 2.0 mph E3.2 kmh E -- 29.75 in1007.5 mb 0.00 in0.0 mm 0.00 in0.0 mm 0.00 in0.0 mm
07:51 PM 9.6°F-12.4°C 4.7°F-15.2°C 80% 3.0 mph E4.8 kmh E -- 29.75 in1007.5 mb 0.00 in0.0 mm 0.00 in0.0 mm 0.00 in0.0 mm
07:52 PM 9.6°F-12.4°C 4.7°F-15.2°C 80% 2.0 mph E3.2 kmh E -- 29.75 in1007.5 mb 0.00 in0.0 mm 0.00 in0.0 mm 0.00 in0.0 mm
07:55 PM 9.6°F-12.4°C 4.7°F-15.2°C 80% 2.0 mph NE3.2 kmh NE -- 29.75 in1007.5 mb 0.00 in0.0 mm 0.00 in0.0 mm 0.00 in0.0 mm
07:56 PM 9.6°F-12.4°C 4.7°F-15.2°C 80% 2.0 mph ENE3.2 kmh ENE -- 29.75 in1007.5 mb 0.00 in0.0 mm 0.00 in0.0 mm 0.00 in0.0 mm
07:57 PM 9.6°F-12.4°C 4.7°F-15.2°C 80% 2.0 mph NE3.2 kmh NE -- 29.75 in1007.5 mb 0.00 in0.0 mm 0.00 in0.0 mm 0.00 in0.0 mm
07:58 PM 9.6°F-12.4°C 4.7°F-15.2°C 80% 2.0 mph E3.2 kmh E -- 29.75 in1007.5 mb 0.00 in0.0 mm 0.00 in0.0 mm 0.00 in0.0 mm
07:59 PM 9.6°F-12.4°C 4.7°F-15.2°C 80% 3.0 mph E4.8 kmh E -- 29.75 in1007.5 mb 0.00 in0.0 mm 0.00 in0.0 mm 0.00 in0.0 mm
08:00 PM 9.6°F-12.4°C 4.7°F-15.2°C 80% 2.0 mph ENE3.2 kmh ENE -- 29.75 in1007.5 mb 0.00 in0.0 mm 0.00 in0.0 mm 0.00 in0.0 mm
08:02 PM 9.6°F-12.4°C 4.7°F-15.2°C 80% 1.0 mph ENE1.6 kmh ENE -- 29.75 in1007.5 mb 0.00 in0.0 mm 0.00 in0.0 mm 0.00 in0.0 mm
08:03 PM 9.6°F-12.4°C 4.7°F-15.2°C 80% 2.0 mph ESE3.2 kmh ESE -- 29.75 in1007.5 mb 0.00 in0.0 mm 0.00 in0.0 mm 0.00 in0.0 mm
08:04 PM 9.6°F-12.4°C 4.7°F-15.2°C 80% 2.0 mph E3.2 kmh E -- 29.75 in1007.5 mb 0.00 in0.0 mm 0.00 in0.0 mm 0.00 in0.0 mm
08:06 PM 9.6°F-12.4°C 4.7°F-15.2°C 80% 2.0 mph ENE3.2 kmh ENE -- 29.75 in1007.5 mb 0.00 in0.0 mm 0.00 in0.0 mm 0.00 in0.0 mm
08:07 PM 9.6°F-12.4°C 4.7°F-15.2°C 80% 2.0 mph ESE3.2 kmh ESE -- 29.75 in1007.5 mb 0.00 in0.0 mm 0.00 in0.0 mm 0.00 in0.0 mm
08:08 PM 9.6°F-12.4°C 4.7°F-15.2°C 80% 3.0 mph ENE4.8 kmh ENE -- 29.75 in1007.5 mb 0.00 in0.0 mm 0.00 in0.0 mm 0.00 in0.0 mm
08:09 PM 9.6°F-12.4°C 4.7°F-15.2°C 80% 2.0 mph E3.2 kmh E -- 29.74 in1007.1 mb 0.00 in0.0 mm 0.00 in0.0 mm 0.00 in0.0 mm
08:10 PM 9.6°F-12.4°C 4.7°F-15.2°C 80% 3.0 mph ENE4.8 kmh ENE -- 29.75 in1007.5 mb 0.00 in0.0 mm 0.00 in0.0 mm 0.00 in0.0 mm
08:11 PM 9.6°F-12.4°C 4.7°F-15.2°C 80% 2.0 mph ESE3.2 kmh ESE -- 29.75 in1007.5 mb 0.00 in0.0 mm 0.00 in0.0 mm 0.00 in0.0 mm
08:12 PM 9.6°F-12.4°C 4.7°F-15.2°C 80% 2.0 mph E3.2 kmh E -- 29.75 in1007.5 mb 0.00 in0.0 mm 0.00 in0.0 mm 0.00 in0.0 mm
08:13 PM 9.5°F-12.5°C 4.5°F-15.3°C 80% 2.0 mph E3.2 kmh E -- 29.75 in1007.5 mb 0.00 in0.0 mm 0.00 in0.0 mm 0.00 in0.0 mm
08:14 PM 9.5°F-12.5°C 4.5°F-15.3°C 80% 1.0 mph E1.6 kmh E -- 29.75 in1007.5 mb 0.00 in0.0 mm 0.00 in0.0 mm 0.00 in0.0 mm
08:15 PM 9.5°F-12.5°C 4.5°F-15.3°C 80% 2.0 mph E3.2 kmh E -- 29.75 in1007.5 mb 0.00 in0.0 mm 0.00 in0.0 mm 0.00 in0.0 mm
08:16 PM 9.5°F-12.5°C 4.5°F-15.3°C 80% 1.0 mph E1.6 kmh E -- 29.75 in1007.5 mb 0.00 in0.0 mm 0.00 in0.0 mm 0.00 in0.0 mm
08:17 PM 9.5°F-12.5°C 4.5°F-15.3°C 80% 2.0 mph E3.2 kmh E -- 29.75 in1007.5 mb 0.00 in0.0 mm 0.00 in0.0 mm 0.00 in0.0 mm
08:18 PM 9.5°F-12.5°C 4.5°F-15.3°C 80% 1.0 mph E1.6 kmh E -- 29.75 in1007.5 mb 0.00 in0.0 mm 0.00 in0.0 mm 0.00 in0.0 mm
08:19 PM 9.5°F-12.5°C 4.5°F-15.3°C 80% 2.0 mph E3.2 kmh E -- 29.75 in1007.5 mb 0.00 in0.0 mm 0.00 in0.0 mm 0.00 in0.0 mm
08:21 PM 9.5°F-12.5°C 4.5°F-15.3°C 80% 1.0 mph ESE1.6 kmh ESE -- 29.75 in1007.5 mb 0.00 in0.0 mm 0.00 in0.0 mm 0.00 in0.0 mm
08:22 PM 9.5°F-12.5°C 4.5°F-15.3°C 80% 1.0 mph E1.6 kmh E -- 29.75 in1007.5 mb 0.00 in0.0 mm 0.00 in0.0 mm 0.00 in0.0 mm
08:25 PM 9.5°F-12.5°C 4.5°F-15.3°C 80% Calm Calm -- 29.75 in1007.5 mb 0.00 in0.0 mm 0.00 in0.0 mm 0.00 in0.0 mm
08:28 PM 9.5°F-12.5°C 4.5°F-15.3°C 80% 1.0 mph ENE1.6 kmh ENE -- 29.75 in1007.5 mb 0.00 in0.0 mm 0.00 in0.0 mm 0.00 in0.0 mm
08:29 PM 9.5°F-12.5°C 4.5°F-15.3°C 80% Calm Calm -- 29.75 in1007.5 mb 0.00 in0.0 mm 0.00 in0.0 mm 0.00 in0.0 mm
08:33 PM 9.5°F-12.5°C 4.5°F-15.3°C 80% Calm Calm -- 29.74 in1007.1 mb 0.00 in0.0 mm 0.00 in0.0 mm 0.00 in0.0 mm
08:34 PM 9.5°F-12.5°C 4.5°F-15.3°C 80% Calm Calm -- 29.75 in1007.5 mb 0.00 in0.0 mm 0.00 in0.0 mm 0.00 in0.0 mm
08:36 PM 9.5°F-12.5°C 4.5°F-15.3°C 80% Calm Calm -- 29.75 in1007.5 mb 0.00 in0.0 mm 0.00 in0.0 mm 0.00 in0.0 mm
08:37 PM 9.5°F-12.5°C 4.5°F-15.3°C 80% Calm Calm -- 29.75 in1007.5 mb 0.00 in0.0 mm 0.00 in0.0 mm 0.00 in0.0 mm
08:39 PM 9.5°F-12.5°C 4.5°F-15.3°C 80% Calm Calm -- 29.74 in1007.1 mb 0.00 in0.0 mm 0.00 in0.0 mm 0.00 in0.0 mm
08:40 PM 9.5°F-12.5°C 4.5°F-15.3°C 80% Calm Calm -- 29.74 in1007.1 mb 0.00 in0.0 mm 0.00 in0.0 mm 0.00 in0.0 mm
08:43 PM 9.5°F-12.5°C 4.5°F-15.3°C 80% Calm Calm -- 29.74 in1007.1 mb 0.00 in0.0 mm 0.00 in0.0 mm 0.00 in0.0 mm
08:44 PM 9.5°F-12.5°C 4.5°F-15.3°C 80% Calm Calm -- 29.74 in1007.1 mb 0.00 in0.0 mm 0.00 in0.0 mm 0.00 in0.0 mm
08:45 PM 9.5°F-12.5°C 4.5°F-15.3°C 80% Calm Calm -- 29.74 in1007.1 mb 0.00 in0.0 mm 0.00 in0.0 mm 0.00 in0.0 mm
08:52 PM 9.5°F-12.5°C 4.5°F-15.3°C 80% Calm Calm -- 29.74 in1007.1 mb 0.00 in0.0 mm 0.00 in0.0 mm 0.00 in0.0 mm
08:58 PM 9.6°F-12.4°C 5.0°F-15.0°C 81% Calm Calm -- 29.74 in1007.1 mb 0.00 in0.0 mm 0.00 in0.0 mm 0.00 in0.0 mm
09:04 PM 9.6°F-12.4°C 5.0°F-15.0°C 81% Calm Calm -- 29.74 in1007.1 mb 0.00 in0.0 mm 0.00 in0.0 mm 0.00 in0.0 mm
09:05 PM 9.6°F-12.4°C 5.0°F-15.0°C 81% Calm Calm -- 29.74 in1007.1 mb 0.00 in0.0 mm 0.00 in0.0 mm 0.00 in0.0 mm
09:06 PM 9.6°F-12.4°C 5.0°F-15.0°C 81% 1.0 mph WSW1.6 kmh WSW -- 29.74 in1007.1 mb 0.00 in0.0 mm 0.00 in0.0 mm 0.00 in0.0 mm
09:07 PM 9.6°F-12.4°C 5.0°F-15.0°C 81% Calm Calm -- 29.74 in1007.1 mb 0.00 in0.0 mm 0.00 in0.0 mm 0.00 in0.0 mm
09:08 PM 9.6°F-12.4°C 5.0°F-15.0°C 81% 2.0 mph W3.2 kmh W -- 29.73 in1006.8 mb 0.00 in0.0 mm 0.00 in0.0 mm 0.00 in0.0 mm
09:09 PM 9.6°F-12.4°C 5.0°F-15.0°C 81% 1.0 mph W1.6 kmh W -- 29.74 in1007.1 mb 0.00 in0.0 mm 0.00 in0.0 mm 0.00 in0.0 mm
09:10 PM 9.8°F-12.3°C 5.1°F-14.9°C 81% 2.0 mph NW3.2 kmh NW -- 29.74 in1007.1 mb 0.00 in0.0 mm 0.00 in0.0 mm 0.00 in0.0 mm
09:13 PM 9.8°F-12.3°C 5.1°F-14.9°C 81% 2.0 mph WNW3.2 kmh WNW -- 29.74 in1007.1 mb 0.00 in0.0 mm 0.00 in0.0 mm 0.00 in0.0 mm
09:14 PM 9.8°F-12.3°C 5.1°F-14.9°C 81% 1.0 mph NW1.6 kmh NW -- 29.73 in1006.8 mb 0.00 in0.0 mm 0.00 in0.0 mm 0.00 in0.0 mm
09:15 PM 9.8°F-12.3°C 5.1°F-14.9°C 81% 2.0 mph NNW3.2 kmh NNW -- 29.74 in1007.1 mb 0.00 in0.0 mm 0.00 in0.0 mm 0.00 in0.0 mm
09:16 PM 9.8°F-12.3°C 5.1°F-14.9°C 81% 1.0 mph W1.6 kmh W -- 29.74 in1007.1 mb 0.00 in0.0 mm 0.00 in0.0 mm 0.00 in0.0 mm
09:17 PM 9.8°F-12.3°C 5.1°F-14.9°C 81% Calm Calm -- 29.74 in1007.1 mb 0.00 in0.0 mm 0.00 in0.0 mm 0.00 in0.0 mm
09:19 PM 9.8°F-12.3°C 5.1°F-14.9°C 81% Calm Calm -- 29.74 in1007.1 mb 0.00 in0.0 mm 0.00 in0.0 mm 0.00 in0.0 mm
09:20 PM 9.8°F-12.3°C 5.1°F-14.9°C 81% Calm Calm -- 29.74 in1007.1 mb 0.00 in0.0 mm 0.00 in0.0 mm 0.00 in0.0 mm
09:23 PM 9.8°F-12.3°C 5.1°F-14.9°C 81% 1.0 mph W1.6 kmh W -- 29.74 in1007.1 mb 0.00 in0.0 mm 0.00 in0.0 mm 0.00 in0.0 mm
09:24 PM 9.8°F-12.3°C 5.1°F-14.9°C 81% Calm Calm -- 29.73 in1006.8 mb 0.00 in0.0 mm 0.00 in0.0 mm 0.00 in0.0 mm
09:25 PM 9.8°F-12.3°C 5.1°F-14.9°C 81% Calm Calm -- 29.74 in1007.1 mb 0.00 in0.0 mm 0.00 in0.0 mm 0.00 in0.0 mm
09:28 PM 10.0°F-12.2°C 5.3°F-14.8°C 81% Calm Calm -- 29.74 in1007.1 mb 0.00 in0.0 mm 0.00 in0.0 mm 0.00 in0.0 mm
09:30 PM 10.0°F-12.2°C 5.3°F-14.8°C 81% 1.0 mph W1.6 kmh W -- 29.74 in1007.1 mb 0.00 in0.0 mm 0.00 in0.0 mm 0.00 in0.0 mm
09:31 PM 10.0°F-12.2°C 5.3°F-14.8°C 81% 2.0 mph W3.2 kmh W -- 29.74 in1007.1 mb 0.00 in0.0 mm 0.00 in0.0 mm 0.00 in0.0 mm
09:33 PM 10.0°F-12.2°C 5.3°F-14.8°C 81% 2.0 mph SSW3.2 kmh SSW -- 29.74 in1007.1 mb 0.00 in0.0 mm 0.00 in0.0 mm 0.00 in0.0 mm
09:34 PM 10.0°F-12.2°C 5.3°F-14.8°C 81% 1.0 mph SSW1.6 kmh SSW -- 29.74 in1007.1 mb 0.00 in0.0 mm 0.00 in0.0 mm 0.00 in0.0 mm
09:35 PM 10.0°F-12.2°C 5.3°F-14.8°C 81% 2.0 mph SSW3.2 kmh SSW -- 29.74 in1007.1 mb 0.00 in0.0 mm 0.00 in0.0 mm 0.00 in0.0 mm
09:36 PM 10.0°F-12.2°C 5.3°F-14.8°C 81% 1.0 mph WSW1.6 kmh WSW -- 29.74 in1007.1 mb 0.00 in0.0 mm 0.00 in0.0 mm 0.00 in0.0 mm
09:37 PM 10.0°F-12.2°C 5.3°F-14.8°C 81% 1.0 mph W1.6 kmh W -- 29.74 in1007.1 mb 0.00 in0.0 mm 0.00 in0.0 mm 0.00 in0.0 mm
09:38 PM 10.0°F-12.2°C 5.3°F-14.8°C 81% Calm Calm -- 29.74 in1007.1 mb 0.00 in0.0 mm 0.00 in0.0 mm 0.00 in0.0 mm
09:41 PM 10.0°F-12.2°C 5.3°F-14.8°C 81% 2.0 mph W3.2 kmh W -- 29.74 in1007.1 mb 0.00 in0.0 mm 0.00 in0.0 mm 0.00 in0.0 mm
09:42 PM 10.0°F-12.2°C 5.3°F-14.8°C 81% 1.0 mph W1.6 kmh W -- 29.74 in1007.1 mb 0.00 in0.0 mm 0.00 in0.0 mm 0.00 in0.0 mm
09:43 PM 10.0°F-12.2°C 5.3°F-14.8°C 81% Calm Calm -- 29.74 in1007.1 mb 0.00 in0.0 mm 0.00 in0.0 mm 0.00 in0.0 mm
09:50 PM 10.0°F-12.2°C 5.3°F-14.8°C 81% 1.0 mph W1.6 kmh W -- 29.74 in1007.1 mb 0.00 in0.0 mm 0.00 in0.0 mm 0.00 in0.0 mm
09:52 PM 10.0°F-12.2°C 5.3°F-14.8°C 81% Calm Calm -- 29.74 in1007.1 mb 0.00 in0.0 mm 0.00 in0.0 mm 0.00 in0.0 mm
09:53 PM 10.0°F-12.2°C 5.3°F-14.8°C 81% 2.0 mph W3.2 kmh W -- 29.73 in1006.8 mb 0.00 in0.0 mm 0.00 in0.0 mm 0.00 in0.0 mm
09:54 PM 10.0°F-12.2°C 5.3°F-14.8°C 81% 2.0 mph W3.2 kmh W -- 29.74 in1007.1 mb 0.00 in0.0 mm 0.00 in0.0 mm 0.00 in0.0 mm
09:55 PM 10.0°F-12.2°C 5.3°F-14.8°C 81% 1.0 mph W1.6 kmh W -- 29.74 in1007.1 mb 0.00 in0.0 mm 0.00 in0.0 mm 0.00 in0.0 mm
09:57 PM 10.0°F-12.2°C 5.3°F-14.8°C 81% Calm Calm -- 29.74 in1007.1 mb 0.00 in0.0 mm 0.00 in0.0 mm 0.00 in0.0 mm
09:59 PM 10.0°F-12.2°C 5.3°F-14.8°C 81% 1.0 mph WNW1.6 kmh WNW -- 29.74 in1007.1 mb 0.00 in0.0 mm 0.00 in0.0 mm 0.00 in0.0 mm
10:00 PM 10.0°F-12.2°C 5.3°F-14.8°C 81% Calm Calm -- 29.74 in1007.1 mb 0.00 in0.0 mm 0.00 in0.0 mm 0.00 in0.0 mm
10:01 PM 10.0°F-12.2°C 5.3°F-14.8°C 81% Calm Calm -- 29.74 in1007.1 mb 0.00 in0.0 mm 0.00 in0.0 mm 0.00 in0.0 mm
10:02 PM 10.0°F-12.2°C 5.3°F-14.8°C 81% 2.0 mph WNW3.2 kmh WNW -- 29.74 in1007.1 mb 0.00 in0.0 mm 0.00 in0.0 mm 0.00 in0.0 mm
10:03 PM 10.0°F-12.2°C 5.3°F-14.8°C 81% 2.0 mph W3.2 kmh W -- 29.74 in1007.1 mb 0.00 in0.0 mm 0.00 in0.0 mm 0.00 in0.0 mm
10:04 PM 10.0°F-12.2°C 5.3°F-14.8°C 81% 1.0 mph WNW1.6 kmh WNW -- 29.74 in1007.1 mb 0.00 in0.0 mm 0.00 in0.0 mm 0.00 in0.0 mm
10:05 PM 10.0°F-12.2°C 5.3°F-14.8°C 81% 1.0 mph SSW1.6 kmh SSW -- 29.74 in1007.1 mb 0.00 in0.0 mm 0.00 in0.0 mm 0.00 in0.0 mm
10:06 PM 10.0°F-12.2°C 5.3°F-14.8°C 81% Calm Calm -- 29.74 in1007.1 mb 0.00 in0.0 mm 0.00 in0.0 mm 0.00 in0.0 mm
10:07 PM 10.0°F-12.2°C 5.3°F-14.8°C 81% Calm Calm -- 29.74 in1007.1 mb 0.00 in0.0 mm 0.00 in0.0 mm 0.00 in0.0 mm
10:11 PM 10.0°F-12.2°C 5.3°F-14.8°C 81% Calm Calm -- 29.74 in1007.1 mb 0.00 in0.0 mm 0.00 in0.0 mm 0.00 in0.0 mm
10:16 PM 10.0°F-12.2°C 5.3°F-14.8°C 81% Calm Calm -- 29.74 in1007.1 mb 0.00 in0.0 mm 0.00 in0.0 mm 0.00 in0.0 mm
10:21 PM 10.0°F-12.2°C 5.3°F-14.8°C 81% 2.0 mph W3.2 kmh W -- 29.75 in1007.5 mb 0.00 in0.0 mm 0.00 in0.0 mm 0.00 in0.0 mm
10:22 PM 10.0°F-12.2°C 5.3°F-14.8°C 81% 2.0 mph WNW3.2 kmh WNW -- 29.74 in1007.1 mb 0.00 in0.0 mm 0.00 in0.0 mm 0.00 in0.0 mm
10:23 PM 10.0°F-12.2°C 5.3°F-14.8°C 81% 2.0 mph WNW3.2 kmh WNW -- 29.75 in1007.5 mb 0.00 in0.0 mm 0.00 in0.0 mm 0.00 in0.0 mm
10:24 PM 10.0°F-12.2°C 5.3°F-14.8°C 81% 2.0 mph W3.2 kmh W -- 29.74 in1007.1 mb 0.00 in0.0 mm 0.00 in0.0 mm 0.00 in0.0 mm
10:25 PM 10.0°F-12.2°C 5.9°F-14.5°C 83% 2.0 mph WNW3.2 kmh WNW -- 29.74 in1007.1 mb 0.00 in0.0 mm 0.00 in0.0 mm 0.00 in0.0 mm
10:27 PM 10.0°F-12.2°C 5.9°F-14.5°C 83% 2.0 mph WNW3.2 kmh WNW -- 29.75 in1007.5 mb 0.00 in0.0 mm 0.00 in0.0 mm 0.00 in0.0 mm
10:28 PM 10.0°F-12.2°C 5.3°F-14.8°C 81% 1.0 mph W1.6 kmh W -- 29.74 in1007.1 mb 0.00 in0.0 mm 0.00 in0.0 mm 0.00 in0.0 mm
10:29 PM 10.0°F-12.2°C 5.3°F-14.8°C 81% 1.0 mph WNW1.6 kmh WNW -- 29.74 in1007.1 mb 0.00 in0.0 mm 0.00 in0.0 mm 0.00 in0.0 mm